Darstellungsparameter: Aktuell verwendete Einstellungen:
Skalierung der Graphiken ... ?
xyx+y,   Skalierungsfaktor:      Skalierung: Modus: x, Faktor: 1
Darstellungszeitraum ... ?
Vom - - bis: - -   Zeitraum: 03.03.2021 - 31.03.2021
Min/Max/Avg-Anzeige ... ?
Zeige MMA aktuell
Zeige MMA Monat
Zeige MMA alles
Zeige --A aktuell
Zeige --A Monat
Zeige --A alles
Keine MMA-Anzeige
MMA:
Average (ber die Originaldaten)
MMA-Basis: 03.03.2021 - 31.03.2021
Quicknavigation für Darstellung... ?
Tage:      1T, 2T, 3T, 5T -1T -2T -3T -5T +1T +2T +3T +5T
Wochen: 1W, 2W, 3W -1W -2W -3W +1W +2W +3W
Monate: 1M, 3M, 6M -1M -3M -6M +1M +3M +6M
Jahre:    1J, 3J, 5J, 10J -1J -3J -5J -10J +1J +3J +5J +10J
Nutze für die Darstellung ... ?
Originaldaten oder Mittelwerte auf ...
Stundenbasis Tagesbasis Wochenbasis
Monatsbasis Jahresbasis      Datenbasis: Original-Daten
Darstellen als:
Statistik (Auto) Statistik J:M      Darstellung:
Zur Graphik,    zurück zur Übersicht aller Sensoren.
 
Tabellarische Datenbersicht: ?
 
Sensor: Nr:Datum:Temp:Feuchte:
Aussen-T/F 1 03-03-2021 00:00:17 2 C 47 %
2 03-03-2021 00:10:17 2 C 46 %
3 03-03-2021 00:20:18 2 C 46 %
4 03-03-2021 00:30:17 1.8 C 48 %
5 03-03-2021 00:40:17 1.8 C 48 %
6 03-03-2021 00:50:17 1.7 C 47 %
7 03-03-2021 01:00:17 1.5 C 47 %
8 03-03-2021 01:10:17 1.4 C 47 %
9 03-03-2021 01:20:18 1.1 C 47 %
10 03-03-2021 01:30:17 1 C 48 %
11 03-03-2021 01:40:17 1 C 48 %
12 03-03-2021 01:50:18 0.8 C 49 %
13 03-03-2021 02:00:17 0.6 C 49 %
14 03-03-2021 02:10:17 0.6 C 50 %
15 03-03-2021 02:20:17 0.6 C 50 %
16 03-03-2021 02:30:17 0.5 C 49 %
17 03-03-2021 02:40:17 0.1 C 50 %
18 03-03-2021 02:50:17 0.4 C 50 %
19 03-03-2021 03:00:18 0.2 C 50 %
20 03-03-2021 03:10:18 0.3 C 50 %
21 03-03-2021 03:20:17 0.1 C 50 %
22 03-03-2021 03:30:18 0 C 50 %
23 03-03-2021 03:40:18 0.4 C 50 %
24 03-03-2021 03:50:17 0.6 C 51 %
25 03-03-2021 04:00:17 0.5 C 50 %
Sensor: Nr:Datum:Temp:Feuchte:
Aussen-T/F 26 03-03-2021 04:10:17 0.5 C 51 %
27 03-03-2021 04:20:17 0.5 C 50 %
28 03-03-2021 04:30:17 0.6 C 50 %
29 03-03-2021 04:40:18 0.3 C 50 %
30 03-03-2021 04:50:17 0.1 C 50 %
31 03-03-2021 05:00:18 0 C 50 %
32 03-03-2021 05:10:18 0.1 C 50 %
33 03-03-2021 05:20:18 -0.1 C 50 %
34 03-03-2021 05:30:18 0.1 C 50 %
35 03-03-2021 05:40:18 0.5 C 51 %
36 03-03-2021 05:50:18 0.3 C 50 %
37 03-03-2021 06:00:17 -0.1 C 50 %
38 03-03-2021 06:10:17 -0.2 C 50 %
39 03-03-2021 06:20:18 -0.2 C 50 %
40 03-03-2021 06:30:18 0 C 50 %
41 03-03-2021 06:40:18 0.2 C 50 %
42 03-03-2021 06:50:17 0.2 C 50 %
43 03-03-2021 07:00:17 0 C 50 %
44 03-03-2021 07:10:18 0.1 C 50 %
45 03-03-2021 07:20:17 -0.2 C 50 %
46 03-03-2021 07:30:17 0.1 C 51 %
47 03-03-2021 07:40:17 0.4 C 51 %
48 03-03-2021 07:50:18 0.6 C 51 %
49 03-03-2021 08:00:17 0.8 C 51 %
50 03-03-2021 08:10:17 1 C 50 %
Sensor: Nr:Datum:Temp:Feuchte:
Aussen-T/F 51 03-03-2021 08:20:18 1.3 C 50 %
52 03-03-2021 08:30:18 1.6 C 50 %
53 03-03-2021 08:40:18 1.7 C 50 %
54 03-03-2021 08:50:17 1.8 C 49 %
55 03-03-2021 09:00:18 2 C 47 %
56 03-03-2021 09:10:18 2.1 C 47 %
57 03-03-2021 09:20:17 2.2 C 46 %
58 03-03-2021 09:30:18 2.6 C 46 %
59 03-03-2021 09:40:18 2.6 C 45 %
60 03-03-2021 09:50:17 2.5 C 45 %
61 03-03-2021 10:00:18 2.6 C 45 %
62 03-03-2021 10:10:18 3.2 C 45 %
63 03-03-2021 10:20:17 3.9 C 44 %
64 03-03-2021 10:30:17 4.6 C 43 %
65 03-03-2021 10:40:17 5.5 C 40 %
66 03-03-2021 10:50:17 6.1 C 40 %
67 03-03-2021 11:00:18 6.5 C 40 %
68 03-03-2021 11:10:18 7.1 C 38 %
69 03-03-2021 11:20:17 8.6 C 37 %
70 03-03-2021 11:30:18 9.6 C 36 %
71 03-03-2021 11:40:18 11.1 C 35 %
72 03-03-2021 11:50:17 9.7 C 35 %
73 03-03-2021 12:00:18 11 C 32 %
74 03-03-2021 12:10:18 11.8 C 32 %
75 03-03-2021 12:20:17 13.2 C 30 %
Sensor: Nr:Datum:Temp:Feuchte:
Aussen-T/F 76 03-03-2021 12:30:17 12.7 C 32 %
77 03-03-2021 12:40:17 13.1 C 30 %
78 03-03-2021 12:50:17 15.8 C 28 %
79 03-03-2021 13:00:18 16.7 C 27 %
80 03-03-2021 13:10:18 16.8 C 26 %
81 03-03-2021 13:20:18 17.8 C 26 %
82 03-03-2021 13:30:17 18.4 C 25 %
83 03-03-2021 13:40:17 16.8 C 26 %
84 03-03-2021 13:50:17 17.6 C 25 %
85 03-03-2021 14:00:17 18 C 25 %
86 03-03-2021 14:10:18 16 C 26 %
87 03-03-2021 14:20:17 15.9 C 26 %
88 03-03-2021 14:30:17 15.8 C 26 %
89 03-03-2021 14:40:17 16.8 C 26 %
90 03-03-2021 14:50:17 17.3 C 25 %
91 03-03-2021 15:00:17 17.9 C 25 %
92 03-03-2021 15:10:17 17.7 C 25 %
93 03-03-2021 15:20:17 18.1 C 25 %
94 03-03-2021 15:30:18 18.4 C 25 %
95 03-03-2021 15:40:18 19.1 C 23 %
96 03-03-2021 15:50:18 19.4 C 22 %
97 03-03-2021 16:00:17 19.5 C 22 %
98 03-03-2021 16:10:17 19.4 C 23 %
99 03-03-2021 16:20:18 19.2 C 24 %
100 03-03-2021 16:30:18 18.7 C 25 %
Sensor: Nr:Datum:Temp:Feuchte:
Aussen-T/F 101 03-03-2021 16:40:18 17.2 C 25 %
102 03-03-2021 16:50:18 16.6 C 26 %
103 03-03-2021 17:00:17 15.2 C 27 %
104 03-03-2021 17:10:17 14 C 28 %
105 03-03-2021 17:20:18 13.4 C 30 %
106 03-03-2021 17:30:17 13 C 30 %
107 03-03-2021 17:40:17 12.5 C 31 %
108 03-03-2021 17:50:18 12.1 C 31 %
109 03-03-2021 18:00:17 11.7 C 32 %
110 03-03-2021 18:10:17 11.5 C 32 %
111 03-03-2021 18:20:17 11.1 C 32 %
112 03-03-2021 18:30:18 10.7 C 33 %
113 03-03-2021 18:40:18 10.5 C 33 %
114 03-03-2021 18:50:17 10.2 C 34 %
115 03-03-2021 19:00:18 10 C 34 %
116 03-03-2021 19:10:18 9.2 C 35 %
117 03-03-2021 19:20:17 9.1 C 35 %
118 03-03-2021 19:30:17 8.8 C 36 %
119 03-03-2021 19:40:17 8.8 C 36 %
120 03-03-2021 19:50:17 8.5 C 36 %
121 03-03-2021 20:00:17 8.4 C 36 %
122 03-03-2021 20:10:17 8.2 C 36 %
123 03-03-2021 20:20:17 7.9 C 37 %
124 03-03-2021 20:30:17 7.5 C 37 %
125 03-03-2021 20:40:17 7.6 C 38 %
Sensor: Nr:Datum:Temp:Feuchte:
Aussen-T/F 126 03-03-2021 20:50:18 7.5 C 38 %
127 03-03-2021 21:00:17 7.5 C 38 %
128 03-03-2021 21:10:17 7.4 C 38 %
129 03-03-2021 21:20:18 7.2 C 38 %
130 03-03-2021 21:30:17 7.1 C 38 %
131 03-03-2021 21:40:17 7.1 C 38 %
132 03-03-2021 21:50:18 7.2 C 38 %
133 03-03-2021 22:00:18 7.6 C 38 %
134 03-03-2021 22:10:18 7.7 C 38 %
135 03-03-2021 22:20:18 7.8 C 38 %
136 03-03-2021 22:30:17 7.8 C 38 %
137 03-03-2021 22:40:17 7.1 C 38 %
138 03-03-2021 22:50:18 7 C 39 %
139 03-03-2021 23:00:17 7 C 39 %
140 03-03-2021 23:10:17 7.1 C 39 %
141 03-03-2021 23:20:18 7 C 39 %
142 03-03-2021 23:30:17 7.7 C 38 %
143 03-03-2021 23:40:17 7.7 C 38 %
144 03-03-2021 23:50:17 7.5 C 38 %
145 04-03-2021 00:00:17 7.2 C 38 %
146 04-03-2021 00:10:17 6.8 C 39 %
147 04-03-2021 00:20:17 6.3 C 39 %
148 04-03-2021 00:30:17 5.8 C 41 %
149 04-03-2021 00:40:17 5.4 C 41 %
150 04-03-2021 00:50:18 5.4 C 41 %
Sensor: Nr:Datum:Temp:Feuchte:
Aussen-T/F 151 04-03-2021 01:00:18 5.3 C 42 %
152 04-03-2021 01:10:18 5.2 C 42 %
153 04-03-2021 01:20:17 5.3 C 42 %
154 04-03-2021 01:30:18 5.4 C 42 %
155 04-03-2021 01:40:18 5.4 C 42 %
156 04-03-2021 01:50:17 5.3 C 42 %
157 04-03-2021 02:00:18 4.9 C 43 %
158 04-03-2021 02:10:18 4.5 C 43 %
159 04-03-2021 02:20:18 4.5 C 43 %
160 04-03-2021 02:30:18 4.4 C 44 %
161 04-03-2021 02:40:18 4 C 44 %
162 04-03-2021 02:50:17 3.5 C 45 %
163 04-03-2021 03:00:17 4 C 45 %
164 04-03-2021 03:10:18 4 C 45 %
165 04-03-2021 03:20:17 4.1 C 45 %
166 04-03-2021 03:30:17 4 C 45 %
167 04-03-2021 03:40:17 3.7 C 45 %
168 04-03-2021 03:50:18 3.8 C 46 %
169 04-03-2021 04:00:18 4 C 45 %
170 04-03-2021 04:10:18 4 C 45 %
171 04-03-2021 04:20:17 3.7 C 46 %
172 04-03-2021 04:30:17 3.5 C 46 %
173 04-03-2021 04:40:17 3.5 C 46 %
174 04-03-2021 04:50:17 3.7 C 47 %
175 04-03-2021 05:00:17 4.1 C 46 %
Sensor: Nr:Datum:Temp:Feuchte:
Aussen-T/F 176 04-03-2021 05:10:17 4.5 C 45 %
177 04-03-2021 05:20:18 4.7 C 44 %
178 04-03-2021 05:30:17 4.2 C 43 %
179 04-03-2021 05:40:17 4.4 C 44 %
180 04-03-2021 05:50:18 4.2 C 44 %
181 04-03-2021 06:00:17 3.4 C 45 %
182 04-03-2021 06:10:17 3.3 C 45 %
183 04-03-2021 06:20:18 3 C 45 %
184 04-03-2021 06:30:17 3 C 46 %
185 04-03-2021 06:40:18 2.6 C 47 %
186 04-03-2021 06:50:17 2.5 C 47 %
187 04-03-2021 07:00:17 2.2 C 47 %
188 04-03-2021 07:10:17 2.3 C 48 %
189 04-03-2021 07:20:17 2.6 C 49 %
190 04-03-2021 07:30:17 3.1 C 48 %
191 04-03-2021 07:40:17 3.6 C 48 %
192 04-03-2021 07:50:17 3.6 C 47 %
193 04-03-2021 08:00:18 4.1 C 47 %
194 04-03-2021 08:10:18 4.2 C 45 %
195 04-03-2021 08:20:17 4.5 C 45 %
196 04-03-2021 08:30:18 4.9 C 44 %
197 04-03-2021 08:40:18 5 C 42 %
198 04-03-2021 08:50:17 5.2 C 42 %
199 04-03-2021 09:00:17 5.6 C 41 %
200 04-03-2021 09:10:17 6.1 C 40 %
Sensor: Nr:Datum:Temp:Feuchte:
Aussen-T/F 201 04-03-2021 09:20:17 6.3 C 40 %
202 04-03-2021 09:30:17 6.3 C 40 %
203 04-03-2021 09:40:17 6.9 C 40 %
204 04-03-2021 09:50:17 7.2 C 39 %
205 04-03-2021 10:00:17 8.4 C 38 %
206 04-03-2021 10:10:17 8.6 C 38 %
207 04-03-2021 10:20:17 9.9 C 37 %
208 04-03-2021 10:30:18 10 C 36 %
209 04-03-2021 10:40:18 9.3 C 37 %
210 04-03-2021 10:50:17 9 C 37 %
211 04-03-2021 11:00:18 9 C 37 %
212 04-03-2021 11:10:18 10.2 C 36 %
213 04-03-2021 11:20:17 10 C 36 %
214 04-03-2021 11:30:17 10 C 36 %
215 04-03-2021 11:40:17 10.7 C 36 %
216 04-03-2021 11:50:17 10.7 C 36 %
217 04-03-2021 12:00:17 10.6 C 36 %
218 04-03-2021 12:10:17 10.8 C 36 %
219 04-03-2021 12:20:17 12.3 C 33 %
220 04-03-2021 12:30:17 12 C 34 %
221 04-03-2021 12:40:17 11.8 C 35 %
222 04-03-2021 12:50:17 11.3 C 35 %
223 04-03-2021 13:00:17 10.8 C 36 %
224 04-03-2021 13:10:17 11.5 C 35 %
225 04-03-2021 13:20:17 13.4 C 33 %
Sensor: Nr:Datum:Temp:Feuchte:
Aussen-T/F 226 04-03-2021 13:30:18 12 C 34 %
227 04-03-2021 13:40:18 11.6 C 35 %
228 04-03-2021 13:50:17 11.4 C 35 %
229 04-03-2021 14:00:17 11.5 C 35 %
230 04-03-2021 14:10:17 12 C 35 %
231 04-03-2021 14:20:17 11.8 C 35 %
232 04-03-2021 14:30:17 11.6 C 35 %
233 04-03-2021 14:40:17 11.1 C 35 %
234 04-03-2021 14:50:17 10.3 C 37 %
235 04-03-2021 15:00:18 9.6 C 39 %
236 04-03-2021 15:10:18 9.1 C 40 %
237 04-03-2021 15:20:17 8.9 C 41 %
238 04-03-2021 15:30:18 8.7 C 42 %
239 04-03-2021 15:40:18 8.2 C 43 %
240 04-03-2021 15:50:17 7.9 C 45 %
241 04-03-2021 16:00:18 8 C 45 %
242 04-03-2021 16:10:18 8.1 C 46 %
243 04-03-2021 16:20:17 8.2 C 46 %
244 04-03-2021 16:30:17 8.2 C 46 %
245 04-03-2021 16:40:17 8.3 C 45 %
246 04-03-2021 16:50:17 8.3 C 44 %
247 04-03-2021 17:00:17 8.2 C 45 %
248 04-03-2021 17:10:17 8.2 C 45 %
249 04-03-2021 17:20:17 7.7 C 44 %
250 04-03-2021 17:30:17 7.2 C 43 %
Sensor: Nr:Datum:Temp:Feuchte:
Aussen-T/F 251 04-03-2021 17:40:18 6.8 C 43 %
252 04-03-2021 17:50:17 6.5 C 43 %
253 04-03-2021 18:00:17 6.3 C 44 %
254 04-03-2021 18:10:17 6.3 C 45 %
255 04-03-2021 18:20:17 5.9 C 45 %
256 04-03-2021 18:30:18 5.7 C 45 %
257 04-03-2021 18:40:18 5.5 C 45 %
258 04-03-2021 18:50:17 5.1 C 45 %
259 04-03-2021 19:00:17 4.9 C 46 %
260 04-03-2021 19:10:18 4.9 C 47 %
261 04-03-2021 19:20:18 4.6 C 46 %
262 04-03-2021 19:30:17 4.3 C 45 %
263 04-03-2021 19:40:17 4.2 C 45 %
264 04-03-2021 19:50:18 3.9 C 45 %
265 04-03-2021 20:00:17 3.7 C 45 %
266 04-03-2021 20:10:17 3.6 C 45 %
267 04-03-2021 20:20:17 3.4 C 45 %
268 04-03-2021 20:30:18 3.3 C 45 %
269 04-03-2021 20:40:18 3.2 C 46 %
270 04-03-2021 20:50:17 3.3 C 46 %
271 04-03-2021 21:00:18 3.3 C 46 %
272 04-03-2021 21:10:18 3.3 C 46 %
273 04-03-2021 21:20:17 3.4 C 46 %
274 04-03-2021 21:30:17 3.4 C 46 %
275 04-03-2021 21:40:17 3.5 C 45 %
Sensor: Nr:Datum:Temp:Feuchte:
Aussen-T/F 276 04-03-2021 21:50:17 3.4 C 45 %
277 04-03-2021 22:00:17 3.5 C 45 %
278 04-03-2021 22:10:17 3.4 C 45 %
279 04-03-2021 22:20:17 3.5 C 45 %
280 04-03-2021 22:30:17 3.5 C 45 %
281 04-03-2021 22:40:17 3.5 C 45 %
282 04-03-2021 22:50:18 3.5 C 45 %
283 04-03-2021 23:00:17 3.6 C 45 %
284 04-03-2021 23:10:17 3.6 C 45 %
285 04-03-2021 23:20:18 3.6 C 45 %
286 04-03-2021 23:30:17 3.6 C 45 %
287 04-03-2021 23:40:17 3.5 C 45 %
288 04-03-2021 23:50:18 3.6 C 46 %
289 05-03-2021 00:00:17 3.5 C 46 %
290 05-03-2021 00:10:18 3.5 C 46 %
291 05-03-2021 00:20:18 3.5 C 46 %
292 05-03-2021 00:30:17 3.5 C 46 %
293 05-03-2021 00:40:17 3.5 C 46 %
294 05-03-2021 00:50:18 3.6 C 46 %
295 05-03-2021 01:00:17 3.6 C 46 %
296 05-03-2021 01:10:17 3.5 C 47 %
297 05-03-2021 01:20:17 3.5 C 47 %
298 05-03-2021 01:30:17 3.5 C 47 %
299 05-03-2021 01:40:17 3.6 C 47 %
300 05-03-2021 01:50:18 3.6 C 47 %
Sensor: Nr:Datum:Temp:Feuchte:
Aussen-T/F 301 05-03-2021 02:00:17 3.6 C 46 %
302 05-03-2021 02:10:17 3.7 C 46 %
303 05-03-2021 02:20:18 3.7 C 45 %
304 05-03-2021 02:30:17 3.6 C 44 %
305 05-03-2021 02:40:17 3.6 C 43 %
306 05-03-2021 02:50:17 3.5 C 43 %
307 05-03-2021 03:00:17 3.4 C 43 %
308 05-03-2021 03:10:17 3.4 C 43 %
309 05-03-2021 03:20:17 3.3 C 43 %
310 05-03-2021 03:30:17 3.2 C 43 %
311 05-03-2021 03:40:17 3.2 C 43 %
312 05-03-2021 03:50:18 3.2 C 42 %
313 05-03-2021 04:00:17 3.1 C 42 %
314 05-03-2021 04:10:17 3 C 42 %
315 05-03-2021 04:20:17 3 C 42 %
316 05-03-2021 04:30:18 2.9 C 42 %
317 05-03-2021 04:40:18 2.9 C 42 %
318 05-03-2021 04:50:18 2.8 C 42 %
319 05-03-2021 05:00:18 2.7 C 42 %
320 05-03-2021 05:10:18 2.6 C 42 %
321 05-03-2021 05:20:18 2.5 C 43 %
322 05-03-2021 05:30:17 2.4 C 43 %
323 05-03-2021 05:40:17 2.5 C 43 %
324 05-03-2021 05:50:17 2.5 C 43 %
325 05-03-2021 06:00:17 2.5 C 43 %
Sensor: Nr:Datum:Temp:Feuchte:
Aussen-T/F 326 05-03-2021 06:10:17 2.5 C 43 %
327 05-03-2021 06:20:17 2.6 C 43 %
328 05-03-2021 06:30:17 2.5 C 44 %
329 05-03-2021 06:40:17 2.6 C 43 %
330 05-03-2021 06:50:17 2.6 C 43 %
331 05-03-2021 07:00:17 2.6 C 44 %
332 05-03-2021 07:10:17 2.6 C 44 %
333 05-03-2021 07:20:18 2.7 C 44 %
334 05-03-2021 07:30:17 2.6 C 44 %
335 05-03-2021 07:40:17 2.6 C 44 %
336 05-03-2021 07:50:18 2.7 C 44 %
337 05-03-2021 08:00:17 2.9 C 45 %
338 05-03-2021 08:10:17 2.9 C 44 %
339 05-03-2021 08:20:17 2.9 C 44 %
340 05-03-2021 08:30:18 3 C 43 %
341 05-03-2021 08:40:18 3.2 C 43 %
342 05-03-2021 08:50:17 3.4 C 42 %
343 05-03-2021 09:00:17 3.5 C 42 %
344 05-03-2021 09:10:17 3.7 C 42 %
345 05-03-2021 09:20:17 3.8 C 41 %
346 05-03-2021 09:30:17 4 C 40 %
347 05-03-2021 09:40:17 3.9 C 40 %
348 05-03-2021 09:50:17 4.2 C 40 %
349 05-03-2021 10:00:17 4.5 C 39 %
350 05-03-2021 10:10:17 4.3 C 38 %
Sensor: Nr:Datum:Temp:Feuchte:
Aussen-T/F 351 05-03-2021 10:20:18 4.3 C 39 %
352 05-03-2021 10:30:17 4.3 C 38 %
353 05-03-2021 10:40:17 4.3 C 38 %
354 05-03-2021 10:50:17 4.7 C 37 %
355 05-03-2021 11:00:17 4.5 C 37 %
356 05-03-2021 11:10:17 4.6 C 37 %
357 05-03-2021 11:20:17 5.3 C 36 %
358 05-03-2021 11:30:18 5.7 C 35 %
359 05-03-2021 11:40:18 7.1 C 32 %
360 05-03-2021 11:50:18 6.6 C 32 %
361 05-03-2021 12:00:17 6.7 C 32 %
362 05-03-2021 12:10:17 6.1 C 31 %
363 05-03-2021 12:20:18 6.7 C 32 %
364 05-03-2021 12:30:17 6.2 C 32 %
365 05-03-2021 12:40:17 6.3 C 32 %
366 05-03-2021 12:50:17 7.9 C 30 %
367 05-03-2021 13:00:18 9 C 29 %
368 05-03-2021 13:10:18 8.8 C 29 %
369 05-03-2021 13:20:18 7.2 C 30 %
370 05-03-2021 13:30:17 6.3 C 30 %
371 05-03-2021 13:40:17 6.4 C 30 %
372 05-03-2021 13:50:18 6.7 C 30 %
373 05-03-2021 14:00:18 6.9 C 30 %
374 05-03-2021 14:10:18 6.8 C 30 %
375 05-03-2021 14:20:18 6.9 C 30 %
Sensor: Nr:Datum:Temp:Feuchte:
Aussen-T/F 376 05-03-2021 14:30:17 6.4 C 30 %
377 05-03-2021 14:40:17 6.7 C 30 %
378 05-03-2021 14:50:18 6.4 C 30 %
379 05-03-2021 15:00:17 6.3 C 30 %
380 05-03-2021 15:10:18 6.4 C 30 %
381 05-03-2021 15:20:17 6.4 C 29 %
382 05-03-2021 15:30:18 6.6 C 28 %
383 05-03-2021 15:40:18 6.5 C 28 %
384 05-03-2021 15:50:17 6.1 C 29 %
385 05-03-2021 16:00:18 6.1 C 29 %
386 05-03-2021 16:10:18 6 C 29 %
387 05-03-2021 16:20:17 6.1 C 29 %
388 05-03-2021 16:30:17 6 C 29 %
389 05-03-2021 16:40:17 5.8 C 30 %
390 05-03-2021 16:50:17 5.6 C 30 %
391 05-03-2021 17:00:17 5.6 C 30 %
392 05-03-2021 17:10:17 5.6 C 31 %
393 05-03-2021 17:20:17 5.5 C 31 %
394 05-03-2021 17:30:17 5.3 C 31 %
395 05-03-2021 17:40:17 5.2 C 31 %
396 05-03-2021 17:50:18 5 C 31 %
397 05-03-2021 18:00:17 5.3 C 31 %
398 05-03-2021 18:10:17 5 C 31 %
399 05-03-2021 18:20:18 4.5 C 34 %
400 05-03-2021 18:30:17 4 C 35 %
Sensor: Nr:Datum:Temp:Feuchte:
Aussen-T/F 401 05-03-2021 18:40:17 3.5 C 35 %
402 05-03-2021 18:50:17 3.1 C 36 %
403 05-03-2021 19:00:17 2.8 C 36 %
404 05-03-2021 19:10:17 2.2 C 37 %
405 05-03-2021 19:20:18 1.9 C 38 %
406 05-03-2021 19:30:18 1.7 C 37 %
407 05-03-2021 19:40:18 1.3 C 38 %
408 05-03-2021 19:50:18 1.1 C 40 %
409 05-03-2021 20:00:17 1 C 40 %
410 05-03-2021 20:10:18 0.9 C 40 %
411 05-03-2021 20:20:17 1 C 40 %
412 05-03-2021 20:30:17 0.8 C 41 %
413 05-03-2021 20:40:17 0.4 C 42 %
414 05-03-2021 20:50:17 0.1 C 42 %
415 05-03-2021 21:00:18 -0.1 C 42 %
416 05-03-2021 21:10:18 0.1 C 42 %
417 05-03-2021 21:20:17 0 C 41 %
418 05-03-2021 21:30:18 -0.2 C 42 %
419 05-03-2021 21:40:18 -0.7 C 42 %
420 05-03-2021 21:50:18 -0.5 C 42 %
421 05-03-2021 22:00:18 -0.7 C 42 %
422 05-03-2021 22:10:18 -1.6 C 43 %
423 05-03-2021 22:20:17 -2.1 C 45 %
424 05-03-2021 22:30:18 -2.5 C 45 %
425 05-03-2021 22:40:18 -2.2 C 46 %
Sensor: Nr:Datum:Temp:Feuchte:
Aussen-T/F 426 05-03-2021 22:50:18 -2.1 C 46 %
427 05-03-2021 23:00:17 -2.1 C 45 %
428 05-03-2021 23:10:17 -2.5 C 45 %
429 05-03-2021 23:20:18 -2.6 C 46 %
430 05-03-2021 23:30:17 -2.9 C 46 %
431 05-03-2021 23:40:17 -2.9 C 46 %
432 05-03-2021 23:50:18 -3.3 C 46 %
433 06-03-2021 00:00:18 -3.3 C 46 %
434 06-03-2021 00:10:18 -3.2 C 46 %
435 06-03-2021 00:20:17 -3.4 C 46 %
436 06-03-2021 00:30:18 -3.3 C 46 %
437 06-03-2021 00:40:18 -3.6 C 46 %
438 06-03-2021 00:50:18 -3.8 C 46 %
439 06-03-2021 01:00:18 -3.7 C 46 %
440 06-03-2021 01:10:18 -3.9 C 45 %
441 06-03-2021 01:20:17 -3.9 C 45 %
442 06-03-2021 01:30:17 -4 C 45 %
443 06-03-2021 01:40:17 -3.9 C 45 %
444 06-03-2021 01:50:17 -4 C 45 %
445 06-03-2021 02:00:18 -4 C 45 %
446 06-03-2021 02:10:18 -4 C 45 %
447 06-03-2021 02:20:17 -4.2 C 45 %
448 06-03-2021 02:30:17 -4.4 C 45 %
449 06-03-2021 02:40:17 -4.4 C 45 %
450 06-03-2021 02:50:17 -4.5 C 45 %
Sensor: Nr:Datum:Temp:Feuchte:
Aussen-T/F 451 06-03-2021 03:00:17 -4.5 C 46 %
452 06-03-2021 03:10:17 -4.6 C 46 %
453 06-03-2021 03:20:17 -4.7 C 45 %
454 06-03-2021 03:30:17 -4.7 C 46 %
455 06-03-2021 03:40:17 -4.9 C 46 %
456 06-03-2021 03:50:17 -4.8 C 46 %
457 06-03-2021 04:00:18 -4.8 C 45 %
458 06-03-2021 04:10:18 -4.8 C 45 %
459 06-03-2021 04:20:17 -5 C 45 %
460 06-03-2021 04:30:17 -5.1 C 45 %
461 06-03-2021 04:40:17 -5.1 C 46 %
462 06-03-2021 04:50:17 -5 C 46 %
463 06-03-2021 05:00:17 -5 C 46 %
464 06-03-2021 05:10:17 -5.1 C 46 %
465 06-03-2021 05:20:17 -5.5 C 45 %
466 06-03-2021 05:30:17 -5.3 C 45 %
467 06-03-2021 05:40:17 -5.4 C 45 %
468 06-03-2021 05:50:17 -5.4 C 45 %
469 06-03-2021 06:00:17 -5.7 C 46 %
470 06-03-2021 06:10:17 -5.6 C 46 %
471 06-03-2021 06:20:17 -5.6 C 46 %
472 06-03-2021 06:30:17 -5.7 C 46 %
473 06-03-2021 06:40:17 -5.6 C 47 %
474 06-03-2021 06:50:17 -5.3 C 47 %
475 06-03-2021 07:00:18 -5.4 C 47 %
Sensor: Nr:Datum:Temp:Feuchte:
Aussen-T/F 476 06-03-2021 07:10:18 -5.6 C 46 %
477 06-03-2021 07:20:17 -5.6 C 46 %
478 06-03-2021 07:30:17 -5.5 C 47 %
479 06-03-2021 07:40:17 -5.6 C 46 %
480 06-03-2021 07:50:17 -5.5 C 46 %
481 06-03-2021 08:00:18 -5.1 C 47 %
482 06-03-2021 08:10:18 -5.2 C 46 %
483 06-03-2021 08:20:17 -5 C 46 %
484 06-03-2021 08:30:17 -5 C 46 %
485 06-03-2021 08:40:17 -4.9 C 46 %
486 06-03-2021 08:50:18 -4.4 C 48 %
487 06-03-2021 09:00:18 -4.2 C 47 %
488 06-03-2021 09:10:18 -3.8 C 49 %
489 06-03-2021 09:20:17 -3.5 C 48 %
490 06-03-2021 09:30:17 -3.2 C 48 %
491 06-03-2021 09:40:17 -2.9 C 47 %
492 06-03-2021 09:50:17 -2.8 C 46 %
493 06-03-2021 10:00:17 -2.6 C 46 %
494 06-03-2021 10:10:17 -1.7 C 45 %
495 06-03-2021 10:20:17 -1.3 C 45 %
496 06-03-2021 10:30:17 -0.5 C 45 %
497 06-03-2021 10:40:17 0.1 C 44 %
498 06-03-2021 10:50:18 0.7 C 44 %
499 06-03-2021 11:00:18 2 C 40 %
500 06-03-2021 11:10:18 2.4 C 40 %
Sensor: Nr:Datum:Temp:Feuchte:
Aussen-T/F 501 06-03-2021 11:20:17 4.5 C 38 %
502 06-03-2021 11:30:17 4.6 C 36 %
503 06-03-2021 11:40:17 8.3 C 31 %
504 06-03-2021 11:50:18 5.3 C 31 %
505 06-03-2021 12:00:17 7.6 C 30 %
506 06-03-2021 12:10:17 7.2 C 29 %
507 06-03-2021 12:20:17 7.8 C 28 %
508 06-03-2021 12:30:17 6.3 C 28 %
509 06-03-2021 12:40:17 8.7 C 27 %
510 06-03-2021 12:50:18 9.6 C 26 %
511 06-03-2021 13:00:17 9.1 C 25 %
512 06-03-2021 13:10:17 8.3 C 20 %
513 06-03-2021 13:20:17 7.9 C 20 %
514 06-03-2021 13:30:17 9.1 C 20 %
515 06-03-2021 13:40:17 9.3 C 20 %
516 06-03-2021 13:50:17 7.6 C 20 %
517 06-03-2021 14:00:17 8.5 C 20 %
518 06-03-2021 14:10:17 7.3 C 20 %
519 06-03-2021 14:20:17 7.6 C 20 %
520 06-03-2021 14:30:17 7.2 C 20 %
521 06-03-2021 14:40:17 7.2 C 20 %
522 06-03-2021 14:50:17 9.1 C 20 %
523 06-03-2021 15:00:18 8.1 C 20 %
524 06-03-2021 15:10:18 8.5 C 20 %
525 06-03-2021 15:20:17 9.2 C 20 %
Sensor: Nr:Datum:Temp:Feuchte:
Aussen-T/F 526 06-03-2021 15:30:17 8.8 C 20 %
527 06-03-2021 15:40:17 9.9 C 20 %
528 06-03-2021 15:50:17 10.5 C 20 %
529 06-03-2021 16:00:17 12.6 C 20 %
530 06-03-2021 16:10:17 11.5 C 20 %
531 06-03-2021 16:20:17 13.2 C 20 %
532 06-03-2021 16:30:17 13 C 20 %
533 06-03-2021 16:40:17 11.8 C 20 %
534 06-03-2021 16:50:17 12.9 C 20 %
535 06-03-2021 17:00:18 10.2 C 20 %
536 06-03-2021 17:10:18 9.8 C 20 %
537 06-03-2021 17:20:17 8.4 C 21 %
538 06-03-2021 17:30:18 7.2 C 25 %
539 06-03-2021 17:40:18 6.2 C 26 %
540 06-03-2021 17:50:18 5.3 C 27 %
541 06-03-2021 18:00:17 4.6 C 29 %
542 06-03-2021 18:10:17 4 C 29 %
543 06-03-2021 18:20:18 3.4 C 31 %
544 06-03-2021 18:30:17 3.1 C 30 %
545 06-03-2021 18:40:17 2.8 C 31 %
546 06-03-2021 18:50:17 2.7 C 30 %
547 06-03-2021 19:00:17 2.4 C 30 %
548 06-03-2021 19:10:18 2.1 C 32 %
549 06-03-2021 19:20:17 1.6 C 34 %
550 06-03-2021 19:30:17 1.5 C 34 %
Sensor: Nr:Datum:Temp:Feuchte:
Aussen-T/F 551 06-03-2021 19:40:18 0.8 C 36 %
552 06-03-2021 19:50:18 0.8 C 36 %
553 06-03-2021 20:00:17 0.6 C 37 %
554 06-03-2021 20:10:17 0.6 C 37 %
555 06-03-2021 20:20:17 -0.3 C 39 %
556 06-03-2021 20:30:17 -0.7 C 39 %
557 06-03-2021 20:40:17 -1.3 C 41 %
558 06-03-2021 20:50:17 -1.4 C 41 %
559 06-03-2021 21:00:17 -2 C 42 %
560 06-03-2021 21:10:17 -1.8 C 42 %
561 06-03-2021 21:20:17 -2 C 41 %
562 06-03-2021 21:30:17 -2.1 C 41 %
563 06-03-2021 21:40:17 -2.4 C 41 %
564 06-03-2021 21:50:18 -2.5 C 42 %
565 06-03-2021 22:00:17 -2.7 C 42 %
566 06-03-2021 22:10:18 -2.8 C 41 %
567 06-03-2021 22:20:18 -2.9 C 41 %
568 06-03-2021 22:30:17 -3.1 C 42 %
569 06-03-2021 22:40:18 -3.2 C 41 %
570 06-03-2021 22:50:18 -3 C 42 %
571 06-03-2021 23:00:18 -3.2 C 42 %
572 06-03-2021 23:10:18 -3.5 C 42 %
573 06-03-2021 23:20:18 -3.3 C 42 %
574 06-03-2021 23:30:17 -3.6 C 42 %
575 06-03-2021 23:40:17 -3.7 C 42 %
Sensor: Nr:Datum:Temp:Feuchte:
Aussen-T/F 576 06-03-2021 23:50:17 -3.8 C 43 %
577 07-03-2021 00:00:18 -3.5 C 44 %
578 07-03-2021 00:10:18 -4 C 43 %
579 07-03-2021 00:20:17 -4 C 44 %
580 07-03-2021 00:30:18 -3.9 C 44 %
581 07-03-2021 00:40:18 -4.1 C 44 %
582 07-03-2021 00:50:17 -4.5 C 43 %
583 07-03-2021 01:00:17 -4.5 C 44 %
584 07-03-2021 01:10:17 -4.4 C 44 %
585 07-03-2021 01:20:17 -4.8 C 43 %
586 07-03-2021 01:30:17 -4.7 C 44 %
587 07-03-2021 01:40:17 -4.8 C 44 %
588 07-03-2021 01:50:17 -4.7 C 44 %
589 07-03-2021 02:00:17 -4.9 C 44 %
590 07-03-2021 02:10:17 -5 C 43 %
591 07-03-2021 02:20:17 -4.9 C 44 %
592 07-03-2021 02:30:17 -4.9 C 45 %
593 07-03-2021 02:40:17 -5.3 C 44 %
594 07-03-2021 02:50:17 -5 C 45 %
595 07-03-2021 03:00:18 -5.3 C 45 %
596 07-03-2021 03:10:18 -5.3 C 45 %
597 07-03-2021 03:20:18 -5.4 C 45 %
598 07-03-2021 03:30:17 -5.5 C 44 %
599 07-03-2021 03:40:17 -5.2 C 45 %
600 07-03-2021 03:50:18 -4.9 C 45 %
Sensor: Nr:Datum:Temp:Feuchte:
Aussen-T/F 601 07-03-2021 04:00:18 -5 C 45 %
602 07-03-2021 04:10:18 -5.4 C 45 %
603 07-03-2021 04:20:18 -5.5 C 45 %
604 07-03-2021 04:30:18 -5.8 C 45 %
605 07-03-2021 04:40:18 -5.7 C 45 %
606 07-03-2021 04:50:17 -5.9 C 45 %
607 07-03-2021 05:00:18 -6.1 C 45 %
608 07-03-2021 05:10:18 -6.2 C 45 %
609 07-03-2021 05:20:17 -5.9 C 46 %
610 07-03-2021 05:30:17 -6.1 C 46 %
611 07-03-2021 05:40:17 -6.2 C 45 %
612 07-03-2021 05:50:17 -6 C 46 %
613 07-03-2021 06:00:18 -6.1 C 45 %
614 07-03-2021 06:10:18 -6.1 C 45 %
615 07-03-2021 06:20:17 -5.9 C 46 %
616 07-03-2021 06:30:17 -6 C 46 %
617 07-03-2021 06:40:17 -6.4 C 45 %
618 07-03-2021 06:50:17 -6.4 C 45 %
619 07-03-2021 07:00:17 -6.5 C 45 %
620 07-03-2021 07:10:17 -6.4 C 46 %
621 07-03-2021 07:20:17 -6.2 C 46 %
622 07-03-2021 07:30:17 -6.1 C 45 %
623 07-03-2021 07:40:17 -5.7 C 46 %
624 07-03-2021 07:50:17 -5.6 C 46 %
625 07-03-2021 08:00:17 -5.8 C 46 %
Sensor: Nr:Datum:Temp:Feuchte:
Aussen-T/F 626 07-03-2021 08:10:17 -5.8 C 46 %
627 07-03-2021 08:20:17 -5.5 C 46 %
628 07-03-2021 08:30:18 -5.4 C 45 %
629 07-03-2021 08:40:18 -5 C 46 %
630 07-03-2021 08:50:18 -4.8 C 45 %
631 07-03-2021 09:00:17 -5.3 C 45 %
632 07-03-2021 09:10:17 -5.1 C 45 %
633 07-03-2021 09:20:18 -4.6 C 45 %
634 07-03-2021 09:30:18 -4.5 C 45 %
635 07-03-2021 09:40:18 -4.1 C 45 %
636 07-03-2021 09:50:18 -4 C 45 %
637 07-03-2021 10:00:17 -3.6 C 46 %
638 07-03-2021 10:10:18 -2.6 C 45 %
639 07-03-2021 10:20:17 -2 C 44 %
640 07-03-2021 10:30:17 -1.6 C 44 %
641 07-03-2021 10:40:17 -0.6 C 44 %
642 07-03-2021 10:50:17 -0.4 C 43 %
643 07-03-2021 11:00:17 1.1 C 42 %
644 07-03-2021 11:10:17 2.2 C 40 %
645 07-03-2021 11:20:17 4.3 C 37 %
646 07-03-2021 11:30:17 3.8 C 38 %
647 07-03-2021 11:40:17 8.4 C 32 %
648 07-03-2021 11:50:18 6.7 C 32 %
649 07-03-2021 12:00:17 9.9 C 30 %
650 07-03-2021 12:10:17 9.4 C 30 %
Sensor: Nr:Datum:Temp:Feuchte:
Aussen-T/F 651 07-03-2021 12:20:18 11.4 C 26 %
652 07-03-2021 12:30:18 9.2 C 28 %
653 07-03-2021 12:40:18 8.1 C 27 %
654 07-03-2021 12:50:18 8.6 C 26 %
655 07-03-2021 13:00:18 7.8 C 28 %
656 07-03-2021 13:10:18 9.7 C 26 %
657 07-03-2021 13:20:17 10.7 C 21 %
658 07-03-2021 13:30:17 10.7 C 20 %
659 07-03-2021 13:40:17 10.6 C 20 %
660 07-03-2021 13:50:17 9.7 C 20 %
661 07-03-2021 14:00:17 10.4 C 20 %
662 07-03-2021 14:10:17 7.9 C 20 %
663 07-03-2021 14:20:18 8.7 C 21 %
664 07-03-2021 14:30:17 8.2 C 21 %
665 07-03-2021 14:40:18 8.6 C 20 %
666 07-03-2021 14:50:18 10.5 C 20 %
667 07-03-2021 15:00:17 9.4 C 20 %
668 07-03-2021 15:10:18 9.8 C 20 %
669 07-03-2021 15:20:18 10 C 20 %
670 07-03-2021 15:30:17 11.5 C 20 %
671 07-03-2021 15:40:17 11.9 C 20 %
672 07-03-2021 15:50:17 13.8 C 20 %
673 07-03-2021 16:00:18 12.1 C 20 %
674 07-03-2021 16:10:18 12.2 C 20 %
675 07-03-2021 16:20:17 12.1 C 20 %
Sensor: Nr:Datum:Temp:Feuchte:
Aussen-T/F 676 07-03-2021 16:30:17 12.2 C 20 %
677 07-03-2021 16:40:17 11.4 C 20 %
678 07-03-2021 16:50:17 10.9 C 20 %
679 07-03-2021 17:00:18 12.4 C 20 %
680 07-03-2021 17:10:18 11.1 C 20 %
681 07-03-2021 17:20:17 7.4 C 20 %
682 07-03-2021 17:30:17 6.9 C 21 %
683 07-03-2021 17:40:17 6.7 C 23 %
684 07-03-2021 17:50:17 6.2 C 23 %
685 07-03-2021 18:00:18 5.8 C 25 %
686 07-03-2021 18:10:18 5.3 C 25 %
687 07-03-2021 18:20:17 4.8 C 28 %
688 07-03-2021 18:30:17 4.5 C 30 %
689 07-03-2021 18:40:17 4.4 C 30 %
690 07-03-2021 18:50:18 3.9 C 32 %
691 07-03-2021 19:00:17 4.1 C 31 %
692 07-03-2021 19:10:17 3.8 C 32 %
693 07-03-2021 19:20:17 3.6 C 33 %
694 07-03-2021 19:30:17 3 C 33 %
695 07-03-2021 19:40:17 3.6 C 33 %
696 07-03-2021 19:50:17 3.1 C 33 %
697 07-03-2021 20:00:18 2.7 C 35 %
698 07-03-2021 20:10:18 2.3 C 35 %
699 07-03-2021 20:20:17 1.5 C 37 %
700 07-03-2021 20:30:17 1 C 38 %
Sensor: Nr:Datum:Temp:Feuchte:
Aussen-T/F 701 07-03-2021 20:40:17 0.8 C 40 %
702 07-03-2021 20:50:17 1 C 39 %
703 07-03-2021 21:00:17 0.8 C 40 %
704 07-03-2021 21:10:17 0.5 C 41 %
705 07-03-2021 21:20:17 0.4 C 41 %
706 07-03-2021 21:30:17 0.5 C 41 %
707 07-03-2021 21:40:17 0.1 C 41 %
708 07-03-2021 21:50:17 -0.3 C 42 %
709 07-03-2021 22:00:18 -0.4 C 42 %
710 07-03-2021 22:10:18 -0.9 C 42 %
711 07-03-2021 22:20:17 -0.8 C 42 %
712 07-03-2021 22:30:18 -2.1 C 42 %
713 07-03-2021 22:40:18 -1.2 C 45 %
714 07-03-2021 22:50:18 -1 C 44 %
715 07-03-2021 23:00:17 -1 C 42 %
716 07-03-2021 23:10:18 -2.4 C 43 %
717 07-03-2021 23:20:18 -1.9 C 44 %
718 07-03-2021 23:30:18 -2 C 45 %
719 07-03-2021 23:40:18 -2.6 C 45 %
720 07-03-2021 23:50:18 -3 C 45 %
721 08-03-2021 00:00:18 -3.2 C 45 %
722 08-03-2021 00:10:18 -3.2 C 45 %
723 08-03-2021 00:20:18 -3.4 C 45 %
724 08-03-2021 00:30:17 -3.4 C 45 %
725 08-03-2021 00:40:17 -3.5 C 46 %
Sensor: Nr:Datum:Temp:Feuchte:
Aussen-T/F 726 08-03-2021 00:50:18 -3.8 C 45 %
727 08-03-2021 01:00:17 -3.5 C 45 %
728 08-03-2021 01:10:17 -3.8 C 45 %
729 08-03-2021 01:20:18 -3.9 C 46 %
730 08-03-2021 01:30:17 -3.9 C 45 %
731 08-03-2021 01:40:17 -3.8 C 46 %
732 08-03-2021 01:50:17 -4.2 C 45 %
733 08-03-2021 02:00:17 -3.9 C 46 %
734 08-03-2021 02:10:17 -4.3 C 46 %
735 08-03-2021 02:20:17 -4.2 C 46 %
736 08-03-2021 02:30:17 -3.8 C 46 %
737 08-03-2021 02:40:17 -4 C 46 %
738 08-03-2021 02:50:17 -4.3 C 46 %
739 08-03-2021 03:00:17 -4.4 C 46 %
740 08-03-2021 03:10:17 -4 C 46 %
741 08-03-2021 03:20:18 -3.9 C 46 %
742 08-03-2021 03:30:17 -4.2 C 46 %
743 08-03-2021 03:40:17 -4.3 C 46 %
744 08-03-2021 03:50:18 -4.2 C 46 %
745 08-03-2021 04:00:17 -3.9 C 46 %
746 08-03-2021 04:10:17 -4.1 C 46 %
747 08-03-2021 04:20:17 -4.4 C 46 %
748 08-03-2021 04:30:17 -4 C 47 %
749 08-03-2021 04:40:17 -3.8 C 46 %
750 08-03-2021 04:50:17 -3.7 C 46 %
Sensor: Nr:Datum:Temp:Feuchte:
Aussen-T/F 751 08-03-2021 05:00:18 -3.6 C 47 %
752 08-03-2021 05:10:18 -3.3 C 46 %
753 08-03-2021 05:20:18 -4 C 45 %
754 08-03-2021 05:30:17 -4.3 C 45 %
755 08-03-2021 05:40:17 -4.7 C 45 %
756 08-03-2021 05:50:17 -4.5 C 46 %
757 08-03-2021 06:00:18 -4.6 C 46 %
758 08-03-2021 06:10:18 -4.5 C 46 %
759 08-03-2021 06:20:17 -4.8 C 46 %
760 08-03-2021 06:30:17 -4.5 C 47 %
761 08-03-2021 06:40:17 -4.6 C 47 %
762 08-03-2021 06:50:18 -4.6 C 46 %
763 08-03-2021 07:00:17 -4.4 C 47 %
764 08-03-2021 07:10:17 -4.6 C 46 %
765 08-03-2021 07:20:18 -4.6 C 46 %
766 08-03-2021 07:30:17 -4.1 C 47 %
767 08-03-2021 07:40:17 -4.1 C 46 %
768 08-03-2021 07:50:18 -3.8 C 47 %
769 08-03-2021 08:00:18 -3.7 C 47 %
770 08-03-2021 08:10:18 -3.4 C 47 %
771 08-03-2021 08:20:18 -2.8 C 47 %
772 08-03-2021 08:30:17 -2.3 C 45 %
773 08-03-2021 08:40:18 -2 C 45 %
774 08-03-2021 08:50:17 -1.6 C 44 %
775 08-03-2021 09:00:17 -1.2 C 44 %
Sensor: Nr:Datum:Temp:Feuchte:
Aussen-T/F 776 08-03-2021 09:10:17 -0.7 C 44 %
777 08-03-2021 09:20:18 -0.5 C 43 %
778 08-03-2021 09:30:18 -0.1 C 43 %
779 08-03-2021 09:40:18 0.5 C 43 %
780 08-03-2021 09:50:17 0.7 C 43 %
781 08-03-2021 10:00:17 1.6 C 42 %
782 08-03-2021 10:10:17 2.3 C 41 %
783 08-03-2021 10:20:17 2.7 C 41 %
784 08-03-2021 10:30:17 2.8 C 40 %
785 08-03-2021 10:40:17 3.5 C 40 %
786 08-03-2021 10:50:17 3.1 C 38 %
787 08-03-2021 11:00:18 3.2 C 37 %
788 08-03-2021 11:10:18 3.9 C 37 %
789 08-03-2021 11:20:18 4.7 C 36 %
790 08-03-2021 11:30:18 5.4 C 35 %
791 08-03-2021 11:40:18 5.6 C 35 %
792 08-03-2021 11:50:18 5.2 C 35 %
793 08-03-2021 12:00:17 5.9 C 35 %
794 08-03-2021 12:10:17 6.6 C 35 %
795 08-03-2021 12:20:18 6.1 C 34 %
796 08-03-2021 12:30:17 6 C 35 %
797 08-03-2021 12:40:17 6.8 C 35 %
798 08-03-2021 12:50:17 6 C 35 %
799 08-03-2021 13:00:17 6 C 34 %
800 08-03-2021 13:10:18 6.2 C 35 %
Sensor: Nr:Datum:Temp:Feuchte:
Aussen-T/F 801 08-03-2021 13:20:17 6 C 35 %
802 08-03-2021 13:30:17 6.5 C 35 %
803 08-03-2021 13:40:17 6.9 C 35 %
804 08-03-2021 13:50:18 7 C 34 %
805 08-03-2021 14:00:18 6.5 C 35 %
806 08-03-2021 14:10:18 6.5 C 35 %
807 08-03-2021 14:20:18 6.7 C 35 %
808 08-03-2021 14:30:18 6.7 C 35 %
809 08-03-2021 14:40:18 6.4 C 35 %
810 08-03-2021 14:50:17 6.9 C 35 %
811 08-03-2021 15:00:18 6.7 C 35 %
812 08-03-2021 15:10:18 6.4 C 35 %
813 08-03-2021 15:20:18 6.2 C 35 %
814 08-03-2021 15:30:17 6.5 C 35 %
815 08-03-2021 15:40:17 6.7 C 35 %
816 08-03-2021 15:50:17 6.5 C 35 %
817 08-03-2021 16:00:18 6.9 C 35 %
818 08-03-2021 16:10:18 6.8 C 35 %
819 08-03-2021 16:20:17 6.7 C 35 %
820 08-03-2021 16:30:18 6.5 C 35 %
821 08-03-2021 16:40:18 6.4 C 35 %
822 08-03-2021 16:50:18 6.1 C 35 %
823 08-03-2021 17:00:18 6 C 35 %
824 08-03-2021 17:10:18 6 C 35 %
825 08-03-2021 17:20:18 6 C 35 %
Sensor: Nr:Datum:Temp:Feuchte:
Aussen-T/F 826 08-03-2021 17:30:18 5.9 C 36 %
827 08-03-2021 17:40:18 5.8 C 36 %
828 08-03-2021 17:50:18 5.6 C 36 %
829 08-03-2021 18:00:17 5.4 C 36 %
830 08-03-2021 18:10:18 4.8 C 37 %
831 08-03-2021 18:20:17 4.2 C 39 %
832 08-03-2021 18:30:17 3.8 C 40 %
833 08-03-2021 18:40:17 3.3 C 40 %
834 08-03-2021 18:50:17 3.2 C 41 %
835 08-03-2021 19:00:18 3.1 C 41 %
836 08-03-2021 19:10:18 2.7 C 42 %
837 08-03-2021 19:20:18 2.6 C 42 %
838 08-03-2021 19:30:17 2.2 C 42 %
839 08-03-2021 19:40:17 2.1 C 43 %
840 08-03-2021 19:50:18 2.1 C 43 %
841 08-03-2021 20:00:17 1.6 C 44 %
842 08-03-2021 20:10:17 1.6 C 45 %
843 08-03-2021 20:20:17 0.8 C 46 %
844 08-03-2021 20:30:17 0.2 C 46 %
845 08-03-2021 20:40:17 0.2 C 47 %
846 08-03-2021 20:50:17 -0.1 C 48 %
847 08-03-2021 21:00:17 -0.1 C 48 %
848 08-03-2021 21:10:17 -0.3 C 49 %
849 08-03-2021 21:20:17 -0.6 C 49 %
850 08-03-2021 21:30:18 -0.6 C 50 %
Sensor: Nr:Datum:Temp:Feuchte:
Aussen-T/F 851 08-03-2021 21:40:18 -0.6 C 50 %
852 08-03-2021 21:50:17 -0.7 C 49 %
853 08-03-2021 22:00:18 -0.9 C 49 %
854 08-03-2021 22:10:18 -1 C 49 %
855 08-03-2021 22:20:18 -0.8 C 50 %
856 08-03-2021 22:30:17 -0.8 C 50 %
857 08-03-2021 22:40:17 -0.6 C 50 %
858 08-03-2021 22:50:17 -0.6 C 50 %
859 08-03-2021 23:00:18 -0.6 C 50 %
860 08-03-2021 23:10:18 -0.7 C 50 %
861 08-03-2021 23:20:17 -0.4 C 51 %
862 08-03-2021 23:30:18 -0.4 C 51 %
863 08-03-2021 23:40:18 -0.5 C 50 %
864 08-03-2021 23:50:17 -0.4 C 51 %
865 09-03-2021 00:00:17 -0.4 C 50 %
866 09-03-2021 00:10:17 -0.3 C 51 %
867 09-03-2021 00:20:17 -0.3 C 50 %
868 09-03-2021 00:30:17 -0.4 C 50 %
869 09-03-2021 00:40:17 -0.4 C 50 %
870 09-03-2021 00:50:18 -0.2 C 51 %
871 09-03-2021 01:00:17 -0.1 C 51 %
872 09-03-2021 01:10:17 -0.2 C 50 %
873 09-03-2021 01:20:18 -0.4 C 50 %
874 09-03-2021 01:30:18 0 C 51 %
875 09-03-2021 01:40:18 -0.3 C 50 %
Sensor: Nr:Datum:Temp:Feuchte:
Aussen-T/F 876 09-03-2021 01:50:17 -0.2 C 51 %
877 09-03-2021 02:00:17 -0.1 C 50 %
878 09-03-2021 02:10:17 -0.1 C 50 %
879 09-03-2021 02:20:18 -0.2 C 50 %
880 09-03-2021 02:30:18 -0.3 C 50 %
881 09-03-2021 02:40:18 -0.4 C 50 %
882 09-03-2021 02:50:17 -0.4 C 50 %
883 09-03-2021 03:00:17 -0.5 C 50 %
884 09-03-2021 03:10:17 -0.6 C 50 %
885 09-03-2021 03:20:17 -0.6 C 50 %
886 09-03-2021 03:30:18 -0.6 C 50 %
887 09-03-2021 03:40:18 -0.5 C 50 %
888 09-03-2021 03:50:18 -0.6 C 50 %
889 09-03-2021 04:00:17 -0.5 C 51 %
890 09-03-2021 04:10:17 -0.7 C 50 %
891 09-03-2021 04:20:18 -0.6 C 50 %
892 09-03-2021 04:30:17 -0.7 C 50 %
893 09-03-2021 04:40:17 -0.7 C 50 %
894 09-03-2021 04:50:18 -0.7 C 51 %
895 09-03-2021 05:00:18 -0.7 C 51 %
896 09-03-2021 05:10:18 -0.5 C 51 %
897 09-03-2021 05:20:17 -0.7 C 50 %
898 09-03-2021 05:30:17 -0.8 C 50 %
899 09-03-2021 05:40:17 -0.7 C 51 %
900 09-03-2021 05:50:18 -0.5 C 51 %
Sensor: Nr:Datum:Temp:Feuchte:
Aussen-T/F 901 09-03-2021 06:00:17 -0.7 C 50 %
902 09-03-2021 06:10:17 -0.6 C 50 %
903 09-03-2021 06:20:18 -0.6 C 50 %
904 09-03-2021 06:30:17 -0.7 C 51 %
905 09-03-2021 06:40:17 -0.8 C 50 %
906 09-03-2021 06:50:17 -0.9 C 50 %
907 09-03-2021 07:00:17 -0.9 C 50 %
908 09-03-2021 07:10:17 -0.9 C 50 %
909 09-03-2021 07:20:18 -0.8 C 50 %
910 09-03-2021 07:30:17 -0.9 C 50 %
911 09-03-2021 07:40:17 -1 C 50 %
912 09-03-2021 07:50:17 -0.9 C 50 %
913 09-03-2021 08:00:18 -0.8 C 50 %
914 09-03-2021 08:10:18 -0.3 C 51 %
915 09-03-2021 08:20:17 0.1 C 51 %
916 09-03-2021 08:30:18 0.2 C 51 %
917 09-03-2021 08:40:18 0.5 C 50 %
918 09-03-2021 08:50:18 1.1 C 49 %
919 09-03-2021 09:00:18 1.4 C 46 %
920 09-03-2021 09:10:18 1.5 C 45 %
921 09-03-2021 09:20:18 1.7 C 46 %
922 09-03-2021 09:30:18 2.6 C 44 %
923 09-03-2021 09:40:18 3.1 C 42 %
924 09-03-2021 09:50:18 3.4 C 41 %
925 09-03-2021 10:00:17 4.1 C 40 %
Sensor: Nr:Datum:Temp:Feuchte:
Aussen-T/F 926 09-03-2021 10:10:17 3.7 C 40 %
927 09-03-2021 10:20:17 4.5 C 40 %
928 09-03-2021 10:30:17 4.7 C 39 %
929 09-03-2021 10:40:17 5.6 C 38 %
930 09-03-2021 10:50:18 5.9 C 37 %
931 09-03-2021 11:00:17 5.4 C 37 %
932 09-03-2021 11:10:17 5.7 C 37 %
933 09-03-2021 11:20:18 5.4 C 37 %
934 09-03-2021 11:30:17 5.5 C 36 %
935 09-03-2021 11:40:17 5.2 C 37 %
936 09-03-2021 11:50:17 5.2 C 37 %
937 09-03-2021 12:00:17 5 C 37 %
938 09-03-2021 12:10:17 5.3 C 37 %
939 09-03-2021 12:20:17 5.3 C 37 %
940 09-03-2021 12:30:17 5.4 C 37 %
941 09-03-2021 12:40:17 4.8 C 40 %
942 09-03-2021 12:50:17 4.6 C 40 %
943 09-03-2021 13:00:18 4.6 C 40 %
944 09-03-2021 13:10:18 4.5 C 40 %
945 09-03-2021 13:20:17 4.7 C 41 %
946 09-03-2021 13:30:17 4.8 C 41 %
947 09-03-2021 13:40:17 4.5 C 41 %
948 09-03-2021 13:50:17 4.6 C 41 %
949 09-03-2021 14:00:17 4.7 C 41 %
950 09-03-2021 14:10:17 4.5 C 41 %
Sensor: Nr:Datum:Temp:Feuchte:
Aussen-T/F 951 09-03-2021 14:20:17 4.6 C 42 %
952 09-03-2021 14:30:18 5.1 C 41 %
953 09-03-2021 14:40:18 4.9 C 41 %
954 09-03-2021 14:50:18 5 C 41 %
955 09-03-2021 15:00:17 4.9 C 41 %
956 09-03-2021 15:10:17 4.5 C 42 %
957 09-03-2021 15:20:17 4.5 C 42 %
958 09-03-2021 15:30:18 4.7 C 42 %
959 09-03-2021 15:40:18 4.8 C 42 %
960 09-03-2021 15:50:18 4.8 C 42 %
961 09-03-2021 16:00:18 4.8 C 41 %
962 09-03-2021 16:10:18 4.9 C 41 %
963 09-03-2021 16:20:18 4.9 C 41 %
964 09-03-2021 16:30:18 4.9 C 41 %
965 09-03-2021 16:40:18 4.9 C 41 %
966 09-03-2021 16:50:18 5.2 C 41 %
967 09-03-2021 17:00:18 5.1 C 41 %
968 09-03-2021 17:10:18 5.2 C 41 %
969 09-03-2021 17:20:17 5.1 C 41 %
970 09-03-2021 17:30:17 4.6 C 43 %
971 09-03-2021 17:40:17 4.5 C 45 %
972 09-03-2021 17:50:18 4.4 C 46 %
973 09-03-2021 18:00:18 4.4 C 46 %
974 09-03-2021 18:10:18 4.3 C 46 %
975 09-03-2021 18:20:17 4.2 C 47 %
Sensor: Nr:Datum:Temp:Feuchte:
Aussen-T/F 976 09-03-2021 18:30:18 4.3 C 47 %
977 09-03-2021 18:40:18 4.3 C 47 %
978 09-03-2021 18:50:17 4.3 C 47 %
979 09-03-2021 19:00:17 4.3 C 47 %
980 09-03-2021 19:10:17 4.3 C 47 %
981 09-03-2021 19:20:17 4.3 C 48 %
982 09-03-2021 19:30:18 4.3 C 48 %
983 09-03-2021 19:40:18 4.2 C 48 %
984 09-03-2021 19:50:18 4.1 C 48 %
985 09-03-2021 20:00:17 4.2 C 48 %
986 09-03-2021 20:10:17 4.1 C 48 %
987 09-03-2021 20:20:18 4 C 48 %
988 09-03-2021 20:30:18 4.1 C 48 %
989 09-03-2021 20:40:18 4.1 C 48 %
990 09-03-2021 20:50:18 4 C 48 %
991 09-03-2021 21:00:17 4.1 C 48 %
992 09-03-2021 21:10:17 4 C 48 %
993 09-03-2021 21:20:17 4 C 48 %
994 09-03-2021 21:30:18 4.1 C 48 %
995 09-03-2021 21:40:18 4.1 C 48 %
996 09-03-2021 21:50:18 4 C 48 %
997 09-03-2021 22:00:18 4 C 48 %
998 09-03-2021 22:10:18 3.9 C 49 %
999 09-03-2021 22:20:18 3.8 C 49 %
1000 09-03-2021 22:30:17 3.8 C 49 %
Sensor: Nr:Datum:Temp:Feuchte:
Aussen-T/F 1001 09-03-2021 22:40:17 3.9 C 49 %
1002 09-03-2021 22:50:18 3.9 C 49 %
1003 09-03-2021 23:00:17 3.8 C 49 %
1004 09-03-2021 23:10:17 3.8 C 49 %
1005 09-03-2021 23:20:18 3.8 C 49 %
1006 09-03-2021 23:30:18 3.7 C 48 %
1007 09-03-2021 23:40:18 3.8 C 49 %
1008 09-03-2021 23:50:17 3.8 C 49 %
1009 10-03-2021 00:00:17 3.7 C 49 %
1010 10-03-2021 00:10:17 3.6 C 49 %
1011 10-03-2021 00:20:17 3.7 C 49 %
1012 10-03-2021 00:30:17 3.7 C 48 %
1013 10-03-2021 00:40:17 3.6 C 48 %
1014 10-03-2021 00:50:17 3.4 C 48 %
1015 10-03-2021 01:00:18 3.4 C 49 %
1016 10-03-2021 01:10:18 3.4 C 49 %
1017 10-03-2021 01:20:17 3.3 C 48 %
1018 10-03-2021 01:30:18 3.3 C 48 %
1019 10-03-2021 01:40:18 3.4 C 49 %
1020 10-03-2021 01:50:17 3.5 C 49 %
1021 10-03-2021 02:00:18 3.4 C 48 %
1022 10-03-2021 02:10:18 3.3 C 48 %
1023 10-03-2021 02:20:17 3.3 C 48 %
1024 10-03-2021 02:30:18 3.2 C 48 %
1025 10-03-2021 02:40:18 3.2 C 49 %
Sensor: Nr:Datum:Temp:Feuchte:
Aussen-T/F 1026 10-03-2021 02:50:17 3.2 C 49 %
1027 10-03-2021 03:00:17 3.4 C 49 %
1028 10-03-2021 03:10:17 3.5 C 48 %
1029 10-03-2021 03:20:18 3.4 C 47 %
1030 10-03-2021 03:30:17 3.2 C 48 %
1031 10-03-2021 03:40:17 3.2 C 48 %
1032 10-03-2021 03:50:17 3.2 C 48 %
1033 10-03-2021 04:00:17 3.2 C 48 %
1034 10-03-2021 04:10:17 3.4 C 47 %
1035 10-03-2021 04:20:17 3.3 C 47 %
1036 10-03-2021 04:30:17 3.2 C 47 %
1037 10-03-2021 04:40:17 3.3 C 47 %
1038 10-03-2021 04:50:17 3.4 C 46 %
1039 10-03-2021 05:00:18 3.3 C 46 %
1040 10-03-2021 05:10:18 3.3 C 47 %
1041 10-03-2021 05:20:17 3.2 C 47 %
1042 10-03-2021 05:30:17 3.2 C 46 %
1043 10-03-2021 05:40:17 3.2 C 46 %
1044 10-03-2021 05:50:17 3.3 C 45 %
1045 10-03-2021 06:00:17 3.3 C 45 %
1046 10-03-2021 06:10:17 3.3 C 46 %
1047 10-03-2021 06:20:17 3.1 C 46 %
1048 10-03-2021 06:30:17 3 C 46 %
1049 10-03-2021 06:40:17 2.9 C 47 %
1050 10-03-2021 06:50:18 3 C 47 %
Sensor: Nr:Datum:Temp:Feuchte:
Aussen-T/F 1051 10-03-2021 07:00:18 3.2 C 47 %
1052 10-03-2021 07:10:18 3.2 C 46 %
1053 10-03-2021 07:20:17 3.1 C 47 %
1054 10-03-2021 07:30:17 3 C 47 %
1055 10-03-2021 07:40:18 3.2 C 47 %
1056 10-03-2021 07:50:18 3.4 C 46 %
1057 10-03-2021 08:00:18 3.6 C 46 %
1058 10-03-2021 08:10:18 3.8 C 45 %
1059 10-03-2021 08:20:17 3.8 C 45 %
1060 10-03-2021 08:30:17 4 C 44 %
1061 10-03-2021 08:40:17 4.2 C 44 %
1062 10-03-2021 08:50:18 4.5 C 43 %
1063 10-03-2021 09:00:18 4.7 C 43 %
1064 10-03-2021 09:10:18 5 C 42 %
1065 10-03-2021 09:20:17 5.6 C 42 %
1066 10-03-2021 09:30:17 5.5 C 41 %
1067 10-03-2021 09:40:17 5.9 C 41 %
1068 10-03-2021 09:50:18 6.4 C 40 %
1069 10-03-2021 10:00:17 6.9 C 40 %
1070 10-03-2021 10:10:17 7 C 39 %
1071 10-03-2021 10:20:17 6.8 C 40 %
1072 10-03-2021 10:30:18 7.1 C 39 %
1073 10-03-2021 10:40:18 6.8 C 40 %
1074 10-03-2021 10:50:17 6.7 C 40 %
1075 10-03-2021 11:00:17 6.6 C 40 %
Sensor: Nr:Datum:Temp:Feuchte:
Aussen-T/F 1076 10-03-2021 11:10:17 6.6 C 40 %
1077 10-03-2021 11:20:18 6.8 C 40 %
1078 10-03-2021 11:30:18 6.7 C 40 %
1079 10-03-2021 11:40:18 6.9 C 40 %
1080 10-03-2021 11:50:17 7.1 C 40 %
1081 10-03-2021 12:00:18 7.5 C 39 %
1082 10-03-2021 12:10:18 7.4 C 39 %
1083 10-03-2021 12:20:17 7.6 C 39 %
1084 10-03-2021 12:30:17 7.9 C 39 %
1085 10-03-2021 12:40:17 8.2 C 38 %
1086 10-03-2021 12:50:17 8.6 C 38 %
1087 10-03-2021 13:00:17 9.2 C 37 %
1088 10-03-2021 13:10:17 9.8 C 36 %
1089 10-03-2021 13:20:17 10.1 C 36 %
1090 10-03-2021 13:30:17 10.7 C 35 %
1091 10-03-2021 13:40:18 10.6 C 35 %
1092 10-03-2021 13:50:18 10.8 C 34 %
1093 10-03-2021 14:00:17 10.9 C 33 %
1094 10-03-2021 14:10:17 11.1 C 33 %
1095 10-03-2021 14:20:18 11.3 C 32 %
1096 10-03-2021 14:30:18 12 C 31 %
1097 10-03-2021 14:40:18 11.6 C 31 %
1098 10-03-2021 14:50:18 11.5 C 31 %
1099 10-03-2021 15:00:18 11.9 C 31 %
1100 10-03-2021 15:10:18 11.8 C 31 %
Sensor: Nr:Datum:Temp:Feuchte:
Aussen-T/F 1101 10-03-2021 15:20:17 12.2 C 30 %
1102 10-03-2021 15:30:18 11.7 C 30 %
1103 10-03-2021 15:40:18 11.5 C 30 %
1104 10-03-2021 15:50:17 11.5 C 30 %
1105 10-03-2021 16:00:17 11.3 C 30 %
1106 10-03-2021 16:10:17 11.1 C 30 %
1107 10-03-2021 16:20:18 11 C 30 %
1108 10-03-2021 16:30:17 11.1 C 31 %
1109 10-03-2021 16:40:17 10.9 C 31 %
1110 10-03-2021 16:50:18 10.7 C 31 %
1111 10-03-2021 17:00:17 10.5 C 31 %
1112 10-03-2021 17:10:17 10.3 C 31 %
1113 10-03-2021 17:20:17 10.1 C 31 %
1114 10-03-2021 17:30:18 9.7 C 32 %
1115 10-03-2021 17:40:18 9.5 C 33 %
1116 10-03-2021 17:50:17 9.4 C 34 %
1117 10-03-2021 18:00:17 9.2 C 33 %
1118 10-03-2021 18:10:17 9.1 C 33 %
1119 10-03-2021 18:20:18 8.7 C 34 %
1120 10-03-2021 18:30:17 8.7 C 35 %
1121 10-03-2021 18:40:17 8.4 C 35 %
1122 10-03-2021 18:50:17 8.3 C 35 %
1123 10-03-2021 19:00:17 8.6 C 35 %
1124 10-03-2021 19:10:17 8.4 C 34 %
1125 10-03-2021 19:20:17 8.5 C 35 %
Sensor: Nr:Datum:Temp:Feuchte:
Aussen-T/F 1126 10-03-2021 19:30:18 8.2 C 35 %
1127 10-03-2021 19:40:18 7.9 C 35 %
1128 10-03-2021 19:50:17 7.6 C 35 %
1129 10-03-2021 20:00:17 7.8 C 36 %
1130 10-03-2021 20:10:17 7.6 C 36 %
1131 10-03-2021 20:20:18 7.3 C 36 %
1132 10-03-2021 20:30:17 7.3 C 36 %
1133 10-03-2021 20:40:17 7.3 C 37 %
1134 10-03-2021 20:50:18 7.1 C 37 %
1135 10-03-2021 21:00:18 7.3 C 36 %
1136 10-03-2021 21:10:18 7.4 C 36 %
1137 10-03-2021 21:20:18 7.4 C 36 %
1138 10-03-2021 21:30:18 7.2 C 37 %
1139 10-03-2021 21:40:18 7.2 C 36 %
1140 10-03-2021 21:50:17 7.9 C 35 %
1141 10-03-2021 22:00:17 8.1 C 35 %
1142 10-03-2021 22:10:17 8 C 35 %
1143 10-03-2021 22:20:18 8.1 C 35 %
1144 10-03-2021 22:30:17 8.2 C 34 %
1145 10-03-2021 22:40:18 8.3 C 34 %
1146 10-03-2021 22:50:18 7.5 C 36 %
1147 10-03-2021 23:00:17 6.9 C 37 %
1148 10-03-2021 23:10:17 6.7 C 39 %
1149 10-03-2021 23:20:17 6.3 C 40 %
1150 10-03-2021 23:30:18 6.4 C 41 %
Sensor: Nr:Datum:Temp:Feuchte:
Aussen-T/F 1151 10-03-2021 23:40:18 6.1 C 42 %
1152 10-03-2021 23:50:18 5.8 C 44 %
1153 11-03-2021 00:00:17 5.7 C 46 %
1154 11-03-2021 00:10:18 5.7 C 46 %
1155 11-03-2021 00:20:18 5.6 C 46 %
1156 11-03-2021 00:30:18 5.6 C 45 %
1157 11-03-2021 00:40:18 5.8 C 45 %
1158 11-03-2021 00:50:18 5.6 C 45 %
1159 11-03-2021 01:00:18 5.6 C 44 %
1160 11-03-2021 01:10:18 5.7 C 45 %
1161 11-03-2021 01:20:17 5.5 C 45 %
1162 11-03-2021 01:30:17 5.6 C 45 %
1163 11-03-2021 01:40:17 5.6 C 43 %
1164 11-03-2021 01:50:17 5.8 C 44 %
1165 11-03-2021 02:00:17 5.9 C 43 %
1166 11-03-2021 02:10:17 6.5 C 41 %
1167 11-03-2021 02:20:18 6.4 C 41 %
1168 11-03-2021 02:30:18 6.7 C 40 %
1169 11-03-2021 02:40:18 7.5 C 38 %
1170 11-03-2021 02:50:17 7.7 C 37 %
1171 11-03-2021 03:00:18 7.7 C 37 %
1172 11-03-2021 03:10:18 7.8 C 37 %
1173 11-03-2021 03:20:18 7.6 C 38 %
1174 11-03-2021 03:30:18 7.7 C 37 %
1175 11-03-2021 03:40:18 7.8 C 37 %
Sensor: Nr:Datum:Temp:Feuchte:
Aussen-T/F 1176 11-03-2021 03:50:17 7.9 C 38 %
1177 11-03-2021 04:00:18 7.8 C 38 %
1178 11-03-2021 04:10:18 7.7 C 38 %
1179 11-03-2021 04:20:18 7.7 C 38 %
1180 11-03-2021 04:30:17 7.8 C 38 %
1181 11-03-2021 04:40:17 7.8 C 38 %
1182 11-03-2021 04:50:18 8.1 C 37 %
1183 11-03-2021 05:00:18 8 C 38 %
1184 11-03-2021 05:10:18 7.9 C 38 %
1185 11-03-2021 05:20:17 8 C 38 %
1186 11-03-2021 05:30:17 8 C 38 %
1187 11-03-2021 05:40:17 7.9 C 39 %
1188 11-03-2021 05:50:17 7.8 C 40 %
1189 11-03-2021 06:00:18 7.8 C 40 %
1190 11-03-2021 06:10:18 7.6 C 40 %
1191 11-03-2021 06:20:18 7.8 C 40 %
1192 11-03-2021 06:30:18 7.8 C 40 %
1193 11-03-2021 06:40:18 7.8 C 40 %
1194 11-03-2021 06:50:17 8 C 40 %
1195 11-03-2021 07:00:17 8.1 C 40 %
1196 11-03-2021 07:10:17 8.3 C 40 %
1197 11-03-2021 07:20:17 8.5 C 40 %
1198 11-03-2021 07:30:17 8.7 C 39 %
1199 11-03-2021 07:40:17 8.7 C 40 %
1200 11-03-2021 07:50:18 8.9 C 40 %
Sensor: Nr:Datum:Temp:Feuchte:
Aussen-T/F 1201 11-03-2021 08:00:17 9 C 39 %
1202 11-03-2021 08:10:17 9.1 C 39 %
1203 11-03-2021 08:20:17 9.2 C 39 %
1204 11-03-2021 08:30:17 9.4 C 39 %
1205 11-03-2021 08:40:17 9.6 C 39 %
1206 11-03-2021 08:50:17 9.8 C 39 %
1207 11-03-2021 09:00:17 10 C 38 %
1208 11-03-2021 09:10:17 10.2 C 38 %
1209 11-03-2021 09:20:17 10.3 C 38 %
1210 11-03-2021 09:30:17 10.5 C 37 %
1211 11-03-2021 09:40:17 10.7 C 37 %
1212 11-03-2021 09:50:17 10.8 C 37 %
1213 11-03-2021 10:00:18 11.2 C 37 %
1214 11-03-2021 10:10:18 11.4 C 36 %
1215 11-03-2021 10:20:17 11.8 C 36 %
1216 11-03-2021 10:30:17 11.8 C 36 %
1217 11-03-2021 10:40:17 12.1 C 36 %
1218 11-03-2021 10:50:18 11.8 C 37 %
1219 11-03-2021 11:00:18 12 C 36 %
1220 11-03-2021 11:10:18 11.4 C 37 %
1221 11-03-2021 11:20:18 10.8 C 40 %
1222 11-03-2021 11:30:17 10.5 C 41 %
1223 11-03-2021 11:40:18 10.4 C 42 %
1224 11-03-2021 11:50:17 10.1 C 42 %
1225 11-03-2021 12:00:18 9.9 C 43 %
Sensor: Nr:Datum:Temp:Feuchte:
Aussen-T/F 1226 11-03-2021 12:10:18 10.3 C 42 %
1227 11-03-2021 12:20:18 10.3 C 42 %
1228 11-03-2021 12:30:18 11.3 C 40 %
1229 11-03-2021 12:40:18 11.8 C 38 %
1230 11-03-2021 12:50:17 14.4 C 35 %
1231 11-03-2021 13:00:18 13.9 C 35 %
1232 11-03-2021 13:10:18 15.3 C 34 %
1233 11-03-2021 13:20:18 15.8 C 33 %
1234 11-03-2021 13:30:18 13.6 C 35 %
1235 11-03-2021 13:40:18 13.2 C 35 %
1236 11-03-2021 13:50:18 13.8 C 34 %
1237 11-03-2021 14:00:18 12.9 C 35 %
1238 11-03-2021 14:10:18 8.8 C 41 %
1239 11-03-2021 14:20:18 9 C 41 %
1240 11-03-2021 14:30:17 9.9 C 40 %
1241 11-03-2021 14:40:17 10.3 C 40 %
1242 11-03-2021 14:50:17 10.1 C 40 %
1243 11-03-2021 15:00:17 8.5 C 41 %
1244 11-03-2021 15:10:17 8.8 C 41 %
1245 11-03-2021 15:20:18 9.5 C 39 %
1246 11-03-2021 15:30:17 11.8 C 36 %
1247 11-03-2021 15:40:17 13.2 C 33 %
1248 11-03-2021 15:50:17 14.2 C 31 %
1249 11-03-2021 16:00:17 14.4 C 31 %
1250 11-03-2021 16:10:17 14.6 C 30 %
Sensor: Nr:Datum:Temp:Feuchte:
Aussen-T/F 1251 11-03-2021 16:20:17 13.7 C 31 %
1252 11-03-2021 16:30:18 13.1 C 31 %
1253 11-03-2021 16:40:18 12.2 C 32 %
1254 11-03-2021 16:50:17 12.2 C 32 %
1255 11-03-2021 17:00:17 12.1 C 32 %
1256 11-03-2021 17:10:17 10.5 C 35 %
1257 11-03-2021 17:20:17 9.7 C 36 %
1258 11-03-2021 17:30:18 9.9 C 36 %
1259 11-03-2021 17:40:18 10 C 35 %
1260 11-03-2021 17:50:17 10.2 C 35 %
1261 11-03-2021 18:00:17 9.6 C 35 %
1262 11-03-2021 18:10:17 9.3 C 36 %
1263 11-03-2021 18:20:17 9.6 C 35 %
1264 11-03-2021 18:30:18 9.3 C 36 %
1265 11-03-2021 18:40:18 8.8 C 37 %
1266 11-03-2021 18:50:18 8.6 C 37 %
1267 11-03-2021 19:00:18 8.7 C 36 %
1268 11-03-2021 19:10:18 8.4 C 36 %
1269 11-03-2021 19:20:17 8.6 C 35 %
1270 11-03-2021 19:30:18 8.3 C 36 %
1271 11-03-2021 19:40:18 7.9 C 36 %
1272 11-03-2021 19:50:18 7.9 C 36 %
1273 11-03-2021 20:00:17 8.2 C 36 %
1274 11-03-2021 20:10:18 8.2 C 35 %
1275 11-03-2021 20:20:18 8.1 C 36 %
Sensor: Nr:Datum:Temp:Feuchte:
Aussen-T/F 1276 11-03-2021 20:30:17 8.2 C 35 %
1277 11-03-2021 20:40:17 8.2 C 35 %
1278 11-03-2021 20:50:17 8 C 36 %
1279 11-03-2021 21:00:18 7.9 C 36 %
1280 11-03-2021 21:10:18 7.6 C 36 %
1281 11-03-2021 21:20:17 7.4 C 36 %
1282 11-03-2021 21:30:17 7.8 C 36 %
1283 11-03-2021 21:40:17 8 C 36 %
1284 11-03-2021 21:50:18 7.9 C 36 %
1285 11-03-2021 22:00:18 8 C 36 %
1286 11-03-2021 22:10:18 7.4 C 36 %
1287 11-03-2021 22:20:17 7.4 C 36 %
1288 11-03-2021 22:30:18 7.1 C 36 %
1289 11-03-2021 22:40:18 7.3 C 36 %
1290 11-03-2021 22:50:18 7.6 C 36 %
1291 11-03-2021 23:00:18 7.8 C 36 %
1292 11-03-2021 23:10:18 7.7 C 36 %
1293 11-03-2021 23:20:18 6 C 40 %
1294 11-03-2021 23:30:17 4.7 C 43 %
1295 11-03-2021 23:40:17 4.6 C 44 %
1296 11-03-2021 23:50:17 4.4 C 44 %
1297 12-03-2021 00:00:17 4.9 C 43 %
1298 12-03-2021 00:10:17 4.9 C 42 %
1299 12-03-2021 00:20:17 5 C 41 %
1300 12-03-2021 00:30:17 4.5 C 42 %
Sensor: Nr:Datum:Temp:Feuchte:
Aussen-T/F 1301 12-03-2021 00:40:17 4.1 C 44 %
1302 12-03-2021 00:50:18 4.6 C 43 %
1303 12-03-2021 01:00:17 4.9 C 43 %
1304 12-03-2021 01:10:17 5.1 C 42 %
1305 12-03-2021 01:20:18 5.1 C 41 %
1306 12-03-2021 01:30:17 5.1 C 41 %
1307 12-03-2021 01:40:17 5.4 C 41 %
1308 12-03-2021 01:50:17 5.4 C 40 %
1309 12-03-2021 02:00:17 5.8 C 39 %
1310 12-03-2021 02:10:17 5.9 C 39 %
1311 12-03-2021 02:20:18 6.2 C 37 %
1312 12-03-2021 02:30:18 5.7 C 38 %
1313 12-03-2021 02:40:18 5.1 C 39 %
1314 12-03-2021 02:50:18 4.9 C 40 %
1315 12-03-2021 03:00:18 4.7 C 40 %
1316 12-03-2021 03:10:18 5.1 C 39 %
1317 12-03-2021 03:20:17 4.9 C 40 %
1318 12-03-2021 03:30:17 5.3 C 38 %
1319 12-03-2021 03:40:17 4.9 C 40 %
1320 12-03-2021 03:50:17 4.6 C 40 %
1321 12-03-2021 04:00:17 4.6 C 40 %
1322 12-03-2021 04:10:17 4.6 C 40 %
1323 12-03-2021 04:20:18 4.4 C 40 %
1324 12-03-2021 04:30:18 5.6 C 38 %
1325 12-03-2021 04:40:18 5.5 C 38 %
Sensor: Nr:Datum:Temp:Feuchte:
Aussen-T/F 1326 12-03-2021 04:50:17 5.3 C 39 %
1327 12-03-2021 05:00:18 5.2 C 39 %
1328 12-03-2021 05:10:18 5.2 C 39 %
1329 12-03-2021 05:20:17 5.3 C 39 %
1330 12-03-2021 05:30:18 5.1 C 39 %
1331 12-03-2021 05:40:18 5.2 C 39 %
1332 12-03-2021 05:50:17 5.2 C 38 %
1333 12-03-2021 06:00:17 4.9 C 40 %
1334 12-03-2021 06:10:18 4.9 C 40 %
1335 12-03-2021 06:20:18 4.6 C 40 %
1336 12-03-2021 06:30:18 4.5 C 40 %
1337 12-03-2021 06:40:18 4.6 C 40 %
1338 12-03-2021 06:50:17 4.9 C 40 %
1339 12-03-2021 07:00:18 4.6 C 40 %
1340 12-03-2021 07:10:18 4.4 C 41 %
1341 12-03-2021 07:20:17 5.1 C 40 %
1342 12-03-2021 07:30:17 5.2 C 39 %
1343 12-03-2021 07:40:17 5.4 C 39 %
1344 12-03-2021 07:50:18 5.6 C 39 %
1345 12-03-2021 08:00:17 5.7 C 39 %
1346 12-03-2021 08:10:17 5.9 C 38 %
1347 12-03-2021 08:20:17 6.1 C 37 %
1348 12-03-2021 08:30:17 6.2 C 37 %
1349 12-03-2021 08:40:17 6 C 38 %
1350 12-03-2021 08:50:18 6.3 C 38 %
Sensor: Nr:Datum:Temp:Feuchte:
Aussen-T/F 1351 12-03-2021 09:00:18 6.5 C 38 %
1352 12-03-2021 09:10:18 6.9 C 38 %
1353 12-03-2021 09:20:18 6.7 C 38 %
1354 12-03-2021 09:30:17 6.2 C 39 %
1355 12-03-2021 09:40:17 6.5 C 40 %
1356 12-03-2021 09:50:18 7 C 38 %
1357 12-03-2021 10:00:17 7.5 C 38 %
1358 12-03-2021 10:10:18 8 C 36 %
1359 12-03-2021 10:20:17 8.6 C 36 %
1360 12-03-2021 10:30:17 8.4 C 35 %
1361 12-03-2021 10:40:17 7.7 C 36 %
1362 12-03-2021 10:50:18 8 C 36 %
1363 12-03-2021 11:00:17 8.1 C 35 %
1364 12-03-2021 11:10:17 8.4 C 35 %
1365 12-03-2021 11:20:17 8.3 C 35 %
1366 12-03-2021 11:30:17 9.1 C 34 %
1367 12-03-2021 11:40:17 9.4 C 35 %
1368 12-03-2021 11:50:18 8.9 C 35 %
1369 12-03-2021 12:00:18 10.8 C 33 %
1370 12-03-2021 12:10:18 8.5 C 35 %
1371 12-03-2021 12:20:18 8.5 C 35 %
1372 12-03-2021 12:30:18 9.4 C 35 %
1373 12-03-2021 12:40:18 9.6 C 34 %
1374 12-03-2021 12:50:17 9.7 C 33 %
1375 12-03-2021 13:00:17 9.7 C 33 %
Sensor: Nr:Datum:Temp:Feuchte:
Aussen-T/F 1376 12-03-2021 13:10:18 10 C 31 %
1377 12-03-2021 13:20:17 10.2 C 31 %
1378 12-03-2021 13:30:18 10.1 C 31 %
1379 12-03-2021 13:40:18 11.1 C 30 %
1380 12-03-2021 13:50:17 10.1 C 31 %
1381 12-03-2021 14:00:17 9.1 C 32 %
1382 12-03-2021 14:10:17 9.6 C 33 %
1383 12-03-2021 14:20:17 10.6 C 32 %
1384 12-03-2021 14:30:18 11.5 C 30 %
1385 12-03-2021 14:40:18 11.3 C 30 %
1386 12-03-2021 14:50:18 11.3 C 30 %
1387 12-03-2021 15:00:18 10.8 C 30 %
1388 12-03-2021 15:10:18 11.2 C 30 %
1389 12-03-2021 15:20:17 11.7 C 30 %
1390 12-03-2021 15:30:17 12 C 29 %
1391 12-03-2021 15:40:17 10.9 C 30 %
1392 12-03-2021 15:50:18 10.7 C 30 %
1393 12-03-2021 16:00:17 10.7 C 30 %
1394 12-03-2021 16:10:17 11.5 C 30 %
1395 12-03-2021 16:20:17 12.1 C 28 %
1396 12-03-2021 16:30:17 11.7 C 30 %
1397 12-03-2021 16:40:18 12.3 C 28 %
1398 12-03-2021 16:50:17 11.3 C 30 %
1399 12-03-2021 17:00:18 10.9 C 30 %
1400 12-03-2021 17:10:18 10.4 C 30 %
Sensor: Nr:Datum:Temp:Feuchte:
Aussen-T/F 1401 12-03-2021 17:20:17 10 C 30 %
1402 12-03-2021 17:30:18 10 C 30 %
1403 12-03-2021 17:40:18 9.7 C 31 %
1404 12-03-2021 17:50:17 9.4 C 32 %
1405 12-03-2021 18:00:18 9.4 C 32 %
1406 12-03-2021 18:10:18 9.5 C 32 %
1407 12-03-2021 18:20:18 9.5 C 32 %
1408 12-03-2021 18:30:18 9.5 C 32 %
1409 12-03-2021 18:40:18 8 C 36 %
1410 12-03-2021 18:50:18 7.3 C 39 %
1411 12-03-2021 19:00:18 7.3 C 39 %
1412 12-03-2021 19:10:18 7 C 39 %
1413 12-03-2021 19:20:18 6.7 C 40 %
1414 12-03-2021 19:30:17 6.9 C 39 %
1415 12-03-2021 19:40:17 6.9 C 39 %
1416 12-03-2021 19:50:18 6.8 C 40 %
1417 12-03-2021 20:00:18 6.8 C 39 %
1418 12-03-2021 20:10:18 6.9 C 38 %
1419 12-03-2021 20:20:17 6.7 C 39 %
1420 12-03-2021 20:30:18 6.5 C 38 %
1421 12-03-2021 20:40:18 6.5 C 38 %
1422 12-03-2021 20:50:18 6.4 C 38 %
1423 12-03-2021 21:00:18 6.3 C 38 %
1424 12-03-2021 21:10:18 6 C 38 %
1425 12-03-2021 21:20:17 6.2 C 38 %
Sensor: Nr:Datum:Temp:Feuchte:
Aussen-T/F 1426 12-03-2021 21:30:17 6.2 C 38 %
1427 12-03-2021 21:40:17 6.2 C 38 %
1428 12-03-2021 21:50:17 6.2 C 38 %
1429 12-03-2021 22:00:18 6.3 C 38 %
1430 12-03-2021 22:10:18 6 C 38 %
1431 12-03-2021 22:20:17 6.1 C 39 %
1432 12-03-2021 22:30:17 6.2 C 39 %
1433 12-03-2021 22:40:17 6.2 C 39 %
1434 12-03-2021 22:50:18 5.9 C 40 %
1435 12-03-2021 23:00:17 5.8 C 40 %
1436 12-03-2021 23:10:18 5.6 C 40 %
1437 12-03-2021 23:20:18 5.7 C 40 %
1438 12-03-2021 23:30:18 6 C 40 %
1439 12-03-2021 23:40:18 6 C 40 %
1440 12-03-2021 23:50:17 6.2 C 39 %
1441 13-03-2021 00:00:17 6 C 40 %
1442 13-03-2021 00:10:17 6.3 C 39 %
1443 13-03-2021 00:20:18 6.3 C 39 %
1444 13-03-2021 00:30:17 6.5 C 39 %
1445 13-03-2021 00:40:17 6.6 C 39 %
1446 13-03-2021 00:50:18 6.3 C 39 %
1447 13-03-2021 01:00:18 6.3 C 39 %
1448 13-03-2021 01:10:18 6.4 C 39 %
1449 13-03-2021 01:20:18 6.7 C 39 %
1450 13-03-2021 01:30:17 5.9 C 41 %
Sensor: Nr:Datum:Temp:Feuchte:
Aussen-T/F 1451 13-03-2021 01:40:17 6 C 41 %
1452 13-03-2021 01:50:17 6.1 C 40 %
1453 13-03-2021 02:00:17 6.3 C 40 %
1454 13-03-2021 02:10:17 6.5 C 40 %
1455 13-03-2021 02:20:17 6.7 C 40 %
1456 13-03-2021 02:30:17 6.8 C 40 %
1457 13-03-2021 02:40:17 6.7 C 40 %
1458 13-03-2021 02:50:18 6.7 C 40 %
1459 13-03-2021 03:00:17 6.7 C 40 %
1460 13-03-2021 03:10:17 6.5 C 40 %
1461 13-03-2021 03:20:17 6.5 C 40 %
1462 13-03-2021 03:30:17 6.5 C 40 %
1463 13-03-2021 03:40:17 6.4 C 40 %
1464 13-03-2021 03:50:17 6.2 C 40 %
1465 13-03-2021 04:00:18 6 C 41 %
1466 13-03-2021 04:10:18 6.2 C 41 %
1467 13-03-2021 04:20:18 6.1 C 40 %
1468 13-03-2021 04:30:17 6.2 C 40 %
1469 13-03-2021 04:40:17 6.3 C 41 %
1470 13-03-2021 04:50:18 6.1 C 40 %
1471 13-03-2021 05:00:18 6.5 C 40 %
1472 13-03-2021 05:10:18 7.1 C 40 %
1473 13-03-2021 05:20:17 7.1 C 39 %
1474 13-03-2021 05:30:18 7.2 C 40 %
1475 13-03-2021 05:40:18 7.4 C 40 %
Sensor: Nr:Datum:Temp:Feuchte:
Aussen-T/F 1476 13-03-2021 05:50:17 7.6 C 39 %
1477 13-03-2021 06:00:18 7.3 C 40 %
1478 13-03-2021 06:10:18 6.9 C 40 %
1479 13-03-2021 06:20:18 6.9 C 41 %
1480 13-03-2021 06:30:17 7.5 C 39 %
1481 13-03-2021 06:40:17 7.5 C 39 %
1482 13-03-2021 06:50:17 7.6 C 39 %
1483 13-03-2021 07:00:17 7.6 C 39 %
1484 13-03-2021 07:10:17 7.4 C 40 %
1485 13-03-2021 07:20:18 7.9 C 39 %
1486 13-03-2021 07:30:18 8.4 C 37 %
1487 13-03-2021 07:40:18 8.5 C 37 %
1488 13-03-2021 07:50:18 8.1 C 38 %
1489 13-03-2021 08:00:17 7.6 C 40 %
1490 13-03-2021 08:10:17 7.6 C 40 %
1491 13-03-2021 08:20:18 7.3 C 40 %
1492 13-03-2021 08:30:17 7.1 C 41 %
1493 13-03-2021 08:40:18 7.2 C 41 %
1494 13-03-2021 08:50:17 7.4 C 41 %
1495 13-03-2021 09:00:17 7.6 C 40 %
1496 13-03-2021 09:10:17 7.7 C 40 %
1497 13-03-2021 09:20:18 7.7 C 40 %
1498 13-03-2021 09:30:17 7.9 C 40 %
1499 13-03-2021 09:40:17 7.9 C 40 %
1500 13-03-2021 09:50:17 8.2 C 40 %
Sensor: Nr:Datum:Temp:Feuchte:
Aussen-T/F 1501 13-03-2021 10:00:18 8 C 40 %
1502 13-03-2021 10:10:18 7.9 C 40 %
1503 13-03-2021 10:20:17 7.6 C 41 %
1504 13-03-2021 10:30:17 7.4 C 41 %
1505 13-03-2021 10:40:17 6.9 C 42 %
1506 13-03-2021 10:50:18 6.4 C 41 %
1507 13-03-2021 11:00:17 5.6 C 41 %
1508 13-03-2021 11:10:17 5.6 C 41 %
1509 13-03-2021 11:20:18 5.7 C 41 %
1510 13-03-2021 11:30:17 6 C 40 %
1511 13-03-2021 11:40:17 6.2 C 40 %
1512 13-03-2021 11:50:17 6.3 C 40 %
1513 13-03-2021 12:00:17 6.3 C 39 %
1514 13-03-2021 12:10:17 6.1 C 39 %
1515 13-03-2021 12:20:18 6.4 C 39 %
1516 13-03-2021 12:30:17 6.8 C 39 %
1517 13-03-2021 12:40:17 8 C 37 %
1518 13-03-2021 12:51:17 8.6 C 36 %
1519 13-03-2021 13:01:17 9 C 36 %
1520 13-03-2021 13:10:17 8.2 C 37 %
1521 13-03-2021 13:20:18 9.1 C 36 %
1522 13-03-2021 13:30:17 9.3 C 36 %
1523 13-03-2021 13:40:17 9.8 C 36 %
1524 13-03-2021 13:50:18 8.5 C 36 %
1525 13-03-2021 14:00:17 8.5 C 36 %
Sensor: Nr:Datum:Temp:Feuchte:
Aussen-T/F 1526 13-03-2021 14:10:17 10.1 C 35 %
1527 13-03-2021 14:21:17 10.2 C 35 %
1528 13-03-2021 14:30:17 9.6 C 35 %
1529 13-03-2021 14:40:18 8.2 C 36 %
1530 13-03-2021 14:50:18 9.7 C 36 %
1531 13-03-2021 15:00:18 9.7 C 35 %
1532 13-03-2021 15:10:18 9.6 C 35 %
1533 13-03-2021 15:20:17 10.9 C 32 %
1534 13-03-2021 15:31:17 11.9 C 31 %
1535 13-03-2021 15:41:17 10 C 32 %
1536 13-03-2021 15:51:17 7.9 C 34 %
1537 13-03-2021 16:01:17 7.3 C 36 %
1538 13-03-2021 16:10:17 6.9 C 37 %
1539 13-03-2021 16:21:17 5.7 C 40 %
1540 13-03-2021 16:31:17 7 C 37 %
1541 13-03-2021 16:41:17 9.1 C 34 %
1542 13-03-2021 16:50:18 9.3 C 33 %
1543 13-03-2021 17:00:18 9.1 C 33 %
1544 13-03-2021 17:10:18 8.5 C 34 %
1545 13-03-2021 17:21:17 8.3 C 35 %
1546 13-03-2021 17:30:18 7.6 C 35 %
1547 13-03-2021 17:40:18 7.9 C 35 %
1548 13-03-2021 17:50:19 7.7 C 35 %
1549 13-03-2021 18:01:17 7.3 C 35 %
1550 13-03-2021 18:11:17 5.4 C 41 %
Sensor: Nr:Datum:Temp:Feuchte:
Aussen-T/F 1551 13-03-2021 18:21:17 4.1 C 43 %
1552 13-03-2021 18:31:17 3.9 C 45 %
1553 13-03-2021 18:41:17 3.6 C 46 %
1554 13-03-2021 18:51:17 3.6 C 47 %
1555 13-03-2021 19:00:18 3.7 C 47 %
1556 13-03-2021 19:10:18 5 C 41 %
1557 13-03-2021 19:21:17 5.7 C 40 %
1558 13-03-2021 19:31:17 5.7 C 39 %
1559 13-03-2021 19:41:17 6 C 37 %
1560 13-03-2021 19:51:18 5.4 C 38 %
1561 13-03-2021 20:01:18 5.3 C 38 %
1562 13-03-2021 20:11:18 5.5 C 38 %
1563 13-03-2021 20:21:17 5.4 C 38 %
1564 13-03-2021 20:31:18 5.6 C 38 %
1565 13-03-2021 20:41:18 5.4 C 38 %
1566 13-03-2021 20:51:17 5.3 C 38 %
1567 13-03-2021 21:01:17 5.6 C 38 %
1568 13-03-2021 21:11:17 5.6 C 38 %
1569 13-03-2021 21:21:18 5.3 C 38 %
1570 13-03-2021 21:31:17 5.1 C 38 %
1571 13-03-2021 21:41:17 4.6 C 39 %
1572 13-03-2021 21:51:18 4.5 C 40 %
1573 13-03-2021 22:01:17 4.5 C 40 %
1574 13-03-2021 22:11:17 5.2 C 38 %
1575 13-03-2021 22:21:17 4.6 C 40 %
Sensor: Nr:Datum:Temp:Feuchte:
Aussen-T/F 1576 13-03-2021 22:31:17 4.8 C 39 %
1577 13-03-2021 22:41:17 4.4 C 40 %
1578 13-03-2021 22:51:17 4.2 C 40 %
1579 13-03-2021 23:01:17 4.6 C 40 %
1580 13-03-2021 23:11:17 4.7 C 39 %
1581 13-03-2021 23:21:18 4.6 C 40 %
1582 13-03-2021 23:31:17 4.6 C 40 %
1583 13-03-2021 23:41:17 4.6 C 40 %
1584 13-03-2021 23:51:17 4.2 C 40 %
1585 14-03-2021 00:01:18 4.3 C 40 %
1586 14-03-2021 00:11:18 4 C 40 %
1587 14-03-2021 00:21:17 3.5 C 42 %
1588 14-03-2021 00:31:17 4 C 41 %
1589 14-03-2021 00:41:17 4.6 C 40 %
1590 14-03-2021 00:51:17 4.6 C 40 %
1591 14-03-2021 01:01:17 4.4 C 40 %
1592 14-03-2021 01:11:17 3.3 C 43 %
1593 14-03-2021 01:21:17 2.8 C 46 %
1594 14-03-2021 01:31:17 2.7 C 48 %
1595 14-03-2021 01:41:17 2.7 C 49 %
1596 14-03-2021 01:51:17 3.1 C 48 %
1597 14-03-2021 02:01:18 3.2 C 46 %
1598 14-03-2021 02:11:18 3.2 C 46 %
1599 14-03-2021 02:21:17 3.2 C 46 %
1600 14-03-2021 02:31:17 3.2 C 45 %
Sensor: Nr:Datum:Temp:Feuchte:
Aussen-T/F 1601 14-03-2021 02:41:17 3 C 45 %
1602 14-03-2021 02:51:18 3.2 C 45 %
1603 14-03-2021 03:01:17 3.2 C 45 %
1604 14-03-2021 03:11:17 3.1 C 46 %
1605 14-03-2021 03:21:18 3.2 C 46 %
1606 14-03-2021 03:31:18 3.3 C 45 %
1607 14-03-2021 03:41:18 3.3 C 44 %
1608 14-03-2021 03:51:18 3.3 C 44 %
1609 14-03-2021 04:01:17 3.2 C 45 %
1610 14-03-2021 04:11:17 3.2 C 44 %
1611 14-03-2021 04:21:18 3.4 C 43 %
1612 14-03-2021 04:31:18 3.3 C 43 %
1613 14-03-2021 04:41:18 3.1 C 43 %
1614 14-03-2021 04:51:18 3 C 43 %
1615 14-03-2021 05:01:17 3 C 43 %
1616 14-03-2021 05:11:17 3.1 C 43 %
1617 14-03-2021 05:21:17 3 C 43 %
1618 14-03-2021 05:31:18 3.2 C 42 %
1619 14-03-2021 05:41:18 2.9 C 43 %
1620 14-03-2021 05:51:18 3.3 C 42 %
1621 14-03-2021 06:01:17 3.2 C 41 %
1622 14-03-2021 06:11:17 3.2 C 41 %
1623 14-03-2021 06:21:17 3 C 41 %
1624 14-03-2021 06:31:18 3.2 C 42 %
1625 14-03-2021 06:41:18 3.2 C 41 %
Sensor: Nr:Datum:Temp:Feuchte:
Aussen-T/F 1626 14-03-2021 06:51:18 3.3 C 41 %
1627 14-03-2021 07:01:17 3.4 C 41 %
1628 14-03-2021 07:11:17 3.5 C 41 %
1629 14-03-2021 07:21:18 3.6 C 41 %
1630 14-03-2021 07:31:17 3.6 C 41 %
1631 14-03-2021 07:41:18 3.8 C 41 %
1632 14-03-2021 07:51:18 4.3 C 40 %
1633 14-03-2021 08:01:18 4.3 C 40 %
1634 14-03-2021 08:11:18 4.2 C 40 %
1635 14-03-2021 08:21:17 4.4 C 40 %
1636 14-03-2021 08:31:18 4.6 C 40 %
1637 14-03-2021 08:41:18 4.6 C 40 %
1638 14-03-2021 08:51:18 4.6 C 39 %
1639 14-03-2021 09:01:18 4.6 C 39 %
1640 14-03-2021 09:11:18 5.1 C 38 %
1641 14-03-2021 09:21:17 5.6 C 38 %
1642 14-03-2021 09:31:18 5.9 C 38 %
1643 14-03-2021 09:41:18 5.9 C 38 %
1644 14-03-2021 09:51:17 5.8 C 38 %
1645 14-03-2021 10:01:17 6.2 C 37 %
1646 14-03-2021 10:11:17 6.1 C 37 %
1647 14-03-2021 10:21:18 6.3 C 37 %
1648 14-03-2021 10:31:17 6 C 37 %
1649 14-03-2021 10:41:17 5.9 C 38 %
1650 14-03-2021 10:51:17 5.7 C 38 %
Sensor: Nr:Datum:Temp:Feuchte:
Aussen-T/F 1651 14-03-2021 11:01:18 5.9 C 38 %
1652 14-03-2021 11:11:18 5.7 C 38 %
1653 14-03-2021 11:21:18 5.7 C 38 %
1654 14-03-2021 11:31:18 5.8 C 39 %
1655 14-03-2021 11:41:18 6.2 C 38 %
1656 14-03-2021 11:51:18 7.6 C 36 %
1657 14-03-2021 12:01:17 7.2 C 37 %
1658 14-03-2021 12:11:17 7 C 36 %
1659 14-03-2021 12:21:18 7.3 C 36 %
1660 14-03-2021 12:31:18 7.2 C 36 %
1661 14-03-2021 12:41:18 6.8 C 37 %
1662 14-03-2021 12:51:18 6.9 C 37 %
1663 14-03-2021 13:01:17 7 C 36 %
1664 14-03-2021 13:11:18 6.7 C 37 %
1665 14-03-2021 13:21:17 6.6 C 38 %
1666 14-03-2021 13:31:17 7.1 C 37 %
1667 14-03-2021 13:41:18 6.9 C 37 %
1668 14-03-2021 13:51:18 7.3 C 37 %
1669 14-03-2021 14:01:18 7.5 C 37 %
1670 14-03-2021 14:11:18 6.4 C 38 %
1671 14-03-2021 14:21:18 5.1 C 41 %
1672 14-03-2021 14:31:18 5.4 C 43 %
1673 14-03-2021 14:41:18 6.1 C 42 %
1674 14-03-2021 14:51:17 6.9 C 41 %
1675 14-03-2021 15:01:17 6.7 C 41 %
Sensor: Nr:Datum:Temp:Feuchte:
Aussen-T/F 1676 14-03-2021 15:11:17 7.6 C 40 %
1677 14-03-2021 15:21:18 7.7 C 40 %
1678 14-03-2021 15:31:18 8.1 C 38 %
1679 14-03-2021 15:41:18 8 C 37 %
1680 14-03-2021 15:51:17 7.9 C 37 %
1681 14-03-2021 16:01:17 7.9 C 36 %
1682 14-03-2021 16:11:17 7.3 C 37 %
1683 14-03-2021 16:21:17 5.4 C 40 %
1684 14-03-2021 16:31:18 5.4 C 41 %
1685 14-03-2021 16:41:18 7.7 C 39 %
1686 14-03-2021 16:51:18 9 C 37 %
1687 14-03-2021 17:01:17 7.1 C 39 %
1688 14-03-2021 17:11:17 6.8 C 41 %
1689 14-03-2021 17:21:18 6.1 C 42 %
1690 14-03-2021 17:31:18 5.6 C 45 %
1691 14-03-2021 17:41:18 5.3 C 45 %
1692 14-03-2021 17:51:18 5.6 C 42 %
1693 14-03-2021 18:01:17 5.2 C 45 %
1694 14-03-2021 18:11:17 4.8 C 46 %
1695 14-03-2021 18:21:18 4.7 C 45 %
1696 14-03-2021 18:31:17 4.6 C 44 %
1697 14-03-2021 18:41:18 4.6 C 44 %
1698 14-03-2021 18:51:18 4.6 C 43 %
1699 14-03-2021 19:01:18 4.3 C 42 %
1700 14-03-2021 19:11:18 4.1 C 43 %
Sensor: Nr:Datum:Temp:Feuchte:
Aussen-T/F 1701 14-03-2021 19:21:17 3.8 C 45 %
1702 14-03-2021 19:31:18 3.6 C 45 %
1703 14-03-2021 19:41:18 3.5 C 46 %
1704 14-03-2021 19:51:17 3.6 C 45 %
1705 14-03-2021 20:01:18 3.5 C 46 %
1706 14-03-2021 20:11:18 3.5 C 45 %
1707 14-03-2021 20:21:18 3.5 C 45 %
1708 14-03-2021 20:31:17 3.6 C 45 %
1709 14-03-2021 20:41:18 3.7 C 46 %
1710 14-03-2021 20:51:18 3.6 C 46 %
1711 14-03-2021 21:01:17 3.7 C 45 %
1712 14-03-2021 21:11:17 3.6 C 46 %
1713 14-03-2021 21:21:17 3.4 C 46 %
1714 14-03-2021 21:31:17 3.5 C 45 %
1715 14-03-2021 21:41:17 4.1 C 42 %
1716 14-03-2021 21:51:18 4.2 C 42 %
1717 14-03-2021 22:01:17 4.3 C 42 %
1718 14-03-2021 22:11:17 4.2 C 42 %
1719 14-03-2021 22:21:17 4.3 C 42 %
1720 14-03-2021 22:31:17 4.2 C 42 %
1721 14-03-2021 22:41:17 4.3 C 42 %
1722 14-03-2021 22:51:18 4.5 C 41 %
1723 14-03-2021 23:01:17 4.1 C 42 %
1724 14-03-2021 23:11:17 4.2 C 42 %
1725 14-03-2021 23:21:18 4.5 C 41 %
Sensor: Nr:Datum:Temp:Feuchte:
Aussen-T/F 1726 14-03-2021 23:31:18 4.2 C 41 %
1727 14-03-2021 23:41:18 4.3 C 41 %
1728 14-03-2021 23:51:17 4 C 42 %
1729 15-03-2021 00:01:18 3.6 C 43 %
1730 15-03-2021 00:11:18 3.5 C 43 %
1731 15-03-2021 00:21:17 3.3 C 44 %
1732 15-03-2021 00:31:18 3.2 C 44 %
1733 15-03-2021 00:41:18 3.2 C 44 %
1734 15-03-2021 00:51:17 3.4 C 44 %
1735 15-03-2021 01:01:17 4.2 C 42 %
1736 15-03-2021 01:11:17 3.9 C 43 %
1737 15-03-2021 01:21:18 4 C 42 %
1738 15-03-2021 01:31:17 3.8 C 43 %
1739 15-03-2021 01:41:17 4.4 C 42 %
1740 15-03-2021 01:51:17 4.6 C 41 %
1741 15-03-2021 02:01:17 4.4 C 42 %
1742 15-03-2021 02:11:17 4.2 C 42 %
1743 15-03-2021 02:21:17 4.2 C 42 %
1744 15-03-2021 02:31:18 4.3 C 42 %
1745 15-03-2021 02:41:18 4 C 44 %
1746 15-03-2021 02:51:18 3.9 C 45 %
1747 15-03-2021 03:01:18 4 C 44 %
1748 15-03-2021 03:11:18 3.8 C 46 %
1749 15-03-2021 03:21:18 3.8 C 48 %
1750 15-03-2021 03:31:18 3.8 C 48 %
Sensor: Nr:Datum:Temp:Feuchte:
Aussen-T/F 1751 15-03-2021 03:41:18 3.8 C 48 %
1752 15-03-2021 03:51:18 3.9 C 47 %
1753 15-03-2021 04:01:17 3.9 C 48 %
1754 15-03-2021 04:11:17 4.1 C 46 %
1755 15-03-2021 04:21:18 4.2 C 45 %
1756 15-03-2021 04:31:17 4.4 C 43 %
1757 15-03-2021 04:41:17 4.4 C 44 %
1758 15-03-2021 04:51:17 4.5 C 44 %
1759 15-03-2021 05:01:17 4.3 C 44 %
1760 15-03-2021 05:11:17 4.3 C 45 %
1761 15-03-2021 05:21:17 4.3 C 45 %
1762 15-03-2021 05:31:17 4.2 C 45 %
1763 15-03-2021 05:41:18 4.1 C 46 %
1764 15-03-2021 05:51:17 4.1 C 46 %
1765 15-03-2021 06:01:17 4.1 C 46 %
1766 15-03-2021 06:11:17 3.9 C 47 %
1767 15-03-2021 06:21:18 3.6 C 47 %
1768 15-03-2021 06:31:17 3.6 C 47 %
1769 15-03-2021 06:41:17 3.7 C 47 %
1770 15-03-2021 06:51:17 3.6 C 47 %
1771 15-03-2021 07:01:17 3.7 C 46 %
1772 15-03-2021 07:11:17 3.7 C 47 %
1773 15-03-2021 07:21:17 3.8 C 46 %
1774 15-03-2021 07:31:17 3.8 C 46 %
1775 15-03-2021 07:41:17 3.8 C 47 %
Sensor: Nr:Datum:Temp:Feuchte:
Aussen-T/F 1776 15-03-2021 07:51:17 3.8 C 46 %
1777 15-03-2021 08:01:18 3.8 C 47 %
1778 15-03-2021 08:11:18 3.8 C 48 %
1779 15-03-2021 08:21:17 3.8 C 49 %
1780 15-03-2021 08:31:17 4.3 C 48 %
1781 15-03-2021 08:41:17 4.5 C 47 %
1782 15-03-2021 08:51:18 4.6 C 45 %
1783 15-03-2021 09:01:17 4.7 C 44 %
1784 15-03-2021 09:11:17 5.1 C 43 %
1785 15-03-2021 09:21:17 5 C 43 %
1786 15-03-2021 09:31:18 5.2 C 43 %
1787 15-03-2021 09:41:18 5.5 C 42 %
1788 15-03-2021 09:51:17 5.5 C 42 %
1789 15-03-2021 10:01:17 5.7 C 42 %
1790 15-03-2021 10:11:17 6.4 C 41 %
1791 15-03-2021 10:21:18 6.5 C 40 %
1792 15-03-2021 10:31:17 6.2 C 41 %
1793 15-03-2021 10:41:17 6.3 C 41 %
1794 15-03-2021 10:51:17 6.9 C 40 %
1795 15-03-2021 11:01:17 7 C 39 %
1796 15-03-2021 11:11:17 7.9 C 38 %
1797 15-03-2021 11:21:17 8.1 C 37 %
1798 15-03-2021 11:31:17 7.2 C 37 %
1799 15-03-2021 11:41:17 6.5 C 39 %
1800 15-03-2021 11:51:17 6.4 C 39 %
Sensor: Nr:Datum:Temp:Feuchte:
Aussen-T/F 1801 15-03-2021 12:01:17 6.4 C 40 %
1802 15-03-2021 12:11:17 7.2 C 38 %
1803 15-03-2021 12:21:17 9.2 C 36 %
1804 15-03-2021 12:31:17 8.1 C 36 %
1805 15-03-2021 12:41:18 7.9 C 37 %
1806 15-03-2021 12:51:18 8.6 C 36 %
1807 15-03-2021 13:01:17 9 C 35 %
1808 15-03-2021 13:11:17 8.5 C 35 %
1809 15-03-2021 13:21:18 8.7 C 35 %
1810 15-03-2021 13:31:18 10.3 C 34 %
1811 15-03-2021 13:41:18 8.9 C 35 %
1812 15-03-2021 13:51:18 5.9 C 40 %
1813 15-03-2021 14:01:17 5.3 C 41 %
1814 15-03-2021 14:11:17 5.4 C 41 %
1815 15-03-2021 14:21:17 5.6 C 41 %
1816 15-03-2021 14:31:17 6.5 C 40 %
1817 15-03-2021 14:41:17 8.2 C 36 %
1818 15-03-2021 14:51:18 8.2 C 37 %
1819 15-03-2021 15:01:18 7.5 C 37 %
1820 15-03-2021 15:11:18 9.3 C 35 %
1821 15-03-2021 15:21:17 12.7 C 31 %
1822 15-03-2021 15:31:17 12 C 30 %
1823 15-03-2021 15:41:17 8.7 C 35 %
1824 15-03-2021 15:51:17 9.9 C 33 %
1825 15-03-2021 16:01:17 10.7 C 31 %
Sensor: Nr:Datum:Temp:Feuchte:
Aussen-T/F 1826 15-03-2021 16:11:17 11.1 C 31 %
1827 15-03-2021 16:21:18 10.8 C 32 %
1828 15-03-2021 16:31:17 11.1 C 31 %
1829 15-03-2021 16:41:17 11.9 C 31 %
1830 15-03-2021 16:51:17 10.9 C 32 %
1831 15-03-2021 17:01:17 9 C 33 %
1832 15-03-2021 17:11:18 8.4 C 34 %
1833 15-03-2021 17:21:17 8.7 C 33 %
1834 15-03-2021 17:31:17 8.4 C 33 %
1835 15-03-2021 17:41:17 7.9 C 35 %
1836 15-03-2021 17:51:18 7.8 C 35 %
1837 15-03-2021 18:01:17 6 C 39 %
1838 15-03-2021 18:11:17 5.3 C 42 %
1839 15-03-2021 18:21:18 4.7 C 44 %
1840 15-03-2021 18:31:17 5 C 44 %
1841 15-03-2021 18:41:17 5 C 43 %
1842 15-03-2021 18:51:17 4.9 C 45 %
1843 15-03-2021 19:01:18 4.8 C 44 %
1844 15-03-2021 19:11:18 4.6 C 44 %
1845 15-03-2021 19:21:17 4.9 C 44 %
1846 15-03-2021 19:31:17 4.9 C 44 %
1847 15-03-2021 19:41:17 5 C 42 %
1848 15-03-2021 19:51:18 5.2 C 42 %
1849 15-03-2021 20:01:17 5 C 42 %
1850 15-03-2021 20:11:17 4.9 C 43 %
Sensor: Nr:Datum:Temp:Feuchte:
Aussen-T/F 1851 15-03-2021 20:21:18 4.6 C 44 %
1852 15-03-2021 20:31:17 4.5 C 45 %
1853 15-03-2021 20:41:18 4.5 C 46 %
1854 15-03-2021 20:51:17 4.5 C 45 %
1855 15-03-2021 21:01:18 4.2 C 44 %
1856 15-03-2021 21:11:18 4.1 C 45 %
1857 15-03-2021 21:21:17 4.2 C 45 %
1858 15-03-2021 21:31:17 4.5 C 44 %
1859 15-03-2021 21:41:17 4.4 C 44 %
1860 15-03-2021 21:51:17 4.4 C 44 %
1861 15-03-2021 22:01:17 4.4 C 44 %
1862 15-03-2021 22:11:18 4.2 C 44 %
1863 15-03-2021 22:21:17 4.4 C 43 %
1864 15-03-2021 22:31:17 4.2 C 43 %
1865 15-03-2021 22:41:17 3.9 C 45 %
1866 15-03-2021 22:51:18 4.2 C 43 %
1867 15-03-2021 23:01:17 3.7 C 44 %
1868 15-03-2021 23:11:17 3.4 C 44 %
1869 15-03-2021 23:21:18 3.3 C 45 %
1870 15-03-2021 23:31:17 3.3 C 45 %
1871 15-03-2021 23:41:17 3.3 C 45 %
1872 15-03-2021 23:51:18 3.5 C 45 %
1873 16-03-2021 00:01:17 4.3 C 43 %
1874 16-03-2021 00:11:17 4.2 C 43 %
1875 16-03-2021 00:21:17 4.4 C 42 %
Sensor: Nr:Datum:Temp:Feuchte:
Aussen-T/F 1876 16-03-2021 00:31:17 4.1 C 43 %
1877 16-03-2021 00:41:17 4.5 C 42 %
1878 16-03-2021 00:51:17 4.6 C 42 %
1879 16-03-2021 01:01:18 4.7 C 42 %
1880 16-03-2021 01:11:18 4.6 C 42 %
1881 16-03-2021 01:21:18 4.6 C 42 %
1882 16-03-2021 01:31:18 4.1 C 42 %
1883 16-03-2021 01:41:18 3.7 C 44 %
1884 16-03-2021 01:51:17 3.8 C 44 %
1885 16-03-2021 02:01:18 3.4 C 45 %
1886 16-03-2021 02:11:18 3.4 C 45 %
1887 16-03-2021 02:21:18 3.4 C 45 %
1888 16-03-2021 02:31:17 3.5 C 45 %
1889 16-03-2021 02:41:17 3.5 C 45 %
1890 16-03-2021 02:51:18 3.5 C 46 %
1891 16-03-2021 03:01:17 3.3 C 47 %
1892 16-03-2021 03:11:17 3.2 C 47 %
1893 16-03-2021 03:21:17 3.2 C 48 %
1894 16-03-2021 03:31:18 3.3 C 48 %
1895 16-03-2021 03:41:18 3.3 C 48 %
1896 16-03-2021 03:51:17 3.5 C 48 %
1897 16-03-2021 04:01:18 3.8 C 45 %
1898 16-03-2021 04:11:18 3.9 C 45 %
1899 16-03-2021 04:21:17 4 C 43 %
1900 16-03-2021 04:31:18 3.8 C 45 %
Sensor: Nr:Datum:Temp:Feuchte:
Aussen-T/F 1901 16-03-2021 04:41:18 3.7 C 45 %
1902 16-03-2021 04:51:17 3.8 C 44 %
1903 16-03-2021 05:01:18 3.7 C 44 %
1904 16-03-2021 05:11:18 3.6 C 45 %
1905 16-03-2021 05:21:17 3.4 C 45 %
1906 16-03-2021 05:31:18 3.3 C 45 %
1907 16-03-2021 05:41:18 3.4 C 48 %
1908 16-03-2021 05:51:17 3.3 C 47 %
1909 16-03-2021 06:01:17 3.4 C 47 %
1910 16-03-2021 06:11:17 3.5 C 46 %
1911 16-03-2021 06:21:18 3.5 C 46 %
1912 16-03-2021 06:31:17 3.6 C 46 %
1913 16-03-2021 06:41:17 3.6 C 45 %
1914 16-03-2021 06:51:17 3.5 C 45 %
1915 16-03-2021 07:01:17 3.6 C 44 %
1916 16-03-2021 07:11:17 3.9 C 44 %
1917 16-03-2021 07:21:17 4.1 C 43 %
1918 16-03-2021 07:31:17 4.1 C 43 %
1919 16-03-2021 07:41:17 4.2 C 43 %
1920 16-03-2021 07:51:17 4.3 C 43 %
1921 16-03-2021 08:01:18 4.5 C 43 %
1922 16-03-2021 08:11:18 4.7 C 42 %
1923 16-03-2021 08:21:18 5.1 C 41 %
1924 16-03-2021 08:31:17 5.2 C 41 %
1925 16-03-2021 08:41:17 4.1 C 43 %
Sensor: Nr:Datum:Temp:Feuchte:
Aussen-T/F 1926 16-03-2021 08:51:18 4.3 C 44 %
1927 16-03-2021 09:01:17 4.5 C 44 %
1928 16-03-2021 09:11:17 4.4 C 43 %
1929 16-03-2021 09:21:17 4.1 C 43 %
1930 16-03-2021 09:31:17 4.9 C 42 %
1931 16-03-2021 09:41:17 6 C 40 %
1932 16-03-2021 09:51:18 6.3 C 39 %
1933 16-03-2021 10:01:18 6.6 C 39 %
1934 16-03-2021 10:11:18 6.8 C 38 %
1935 16-03-2021 10:21:17 6.7 C 37 %
1936 16-03-2021 10:31:18 6.8 C 37 %
1937 16-03-2021 10:41:18 7.4 C 36 %
1938 16-03-2021 10:51:18 5.2 C 41 %
1939 16-03-2021 11:01:17 5.2 C 41 %
1940 16-03-2021 11:11:17 5.9 C 41 %
1941 16-03-2021 11:21:17 6.2 C 40 %
1942 16-03-2021 11:31:17 6.9 C 40 %
1943 16-03-2021 11:41:17 6.2 C 38 %
1944 16-03-2021 11:51:17 5.4 C 41 %
1945 16-03-2021 12:01:17 5.5 C 41 %
1946 16-03-2021 12:11:17 5.6 C 41 %
1947 16-03-2021 12:21:17 5.7 C 41 %
1948 16-03-2021 12:31:17 6.3 C 40 %
1949 16-03-2021 12:41:17 7 C 39 %
1950 16-03-2021 12:51:17 7.5 C 38 %
Sensor: Nr:Datum:Temp:Feuchte:
Aussen-T/F 1951 16-03-2021 13:01:18 9.3 C 36 %
1952 16-03-2021 13:11:18 9.3 C 36 %
1953 16-03-2021 13:21:17 10.1 C 35 %
1954 16-03-2021 13:31:17 8.7 C 35 %
1955 16-03-2021 13:41:17 8.9 C 35 %
1956 16-03-2021 13:51:17 8 C 35 %
1957 16-03-2021 14:01:18 7.9 C 36 %
1958 16-03-2021 14:11:18 7.9 C 36 %
1959 16-03-2021 14:21:17 7.9 C 37 %
1960 16-03-2021 14:31:17 7.5 C 37 %
1961 16-03-2021 14:41:17 7.6 C 37 %
1962 16-03-2021 14:51:17 7.6 C 36 %
1963 16-03-2021 15:01:17 8.5 C 35 %
1964 16-03-2021 15:11:17 8.1 C 35 %
1965 16-03-2021 15:21:18 8.8 C 35 %
1966 16-03-2021 15:31:18 10.7 C 33 %
1967 16-03-2021 15:41:18 9.6 C 34 %
1968 16-03-2021 15:51:17 9.3 C 34 %
1969 16-03-2021 16:01:17 8.2 C 35 %
1970 16-03-2021 16:11:17 7.9 C 35 %
1971 16-03-2021 16:21:17 6 C 38 %
1972 16-03-2021 16:31:17 5.7 C 40 %
1973 16-03-2021 16:41:17 5.7 C 40 %
1974 16-03-2021 16:51:17 5.7 C 41 %
1975 16-03-2021 17:01:17 5.9 C 40 %
Sensor: Nr:Datum:Temp:Feuchte:
Aussen-T/F 1976 16-03-2021 17:11:17 6.2 C 40 %
1977 16-03-2021 17:21:17 6.3 C 40 %
1978 16-03-2021 17:31:17 6.3 C 40 %
1979 16-03-2021 17:41:17 6.4 C 40 %
1980 16-03-2021 17:51:17 6.2 C 40 %
1981 16-03-2021 18:01:18 5.9 C 40 %
1982 16-03-2021 18:11:18 5.7 C 40 %
1983 16-03-2021 18:21:17 5.4 C 40 %
1984 16-03-2021 18:31:18 5.7 C 40 %
1985 16-03-2021 18:41:18 5.4 C 39 %
1986 16-03-2021 18:51:17 5.2 C 40 %
1987 16-03-2021 19:01:17 5.2 C 40 %
1988 16-03-2021 19:11:17 5.2 C 40 %
1989 16-03-2021 19:21:18 5 C 40 %
1990 16-03-2021 19:31:18 5 C 41 %
1991 16-03-2021 19:41:18 5 C 41 %
1992 16-03-2021 19:51:17 5.1 C 40 %
1993 16-03-2021 20:01:18 5 C 41 %
1994 16-03-2021 20:11:18 5.1 C 40 %
1995 16-03-2021 20:21:17 5.1 C 40 %
1996 16-03-2021 20:31:17 4.8 C 41 %
1997 16-03-2021 20:41:17 4.9 C 41 %
1998 16-03-2021 20:51:17 4.8 C 41 %
1999 16-03-2021 21:01:17 5 C 40 %
2000 16-03-2021 21:11:17 4.8 C 42 %
Sensor: Nr:Datum:Temp:Feuchte:
Aussen-T/F 2001 16-03-2021 21:21:17 4.7 C 42 %
2002 16-03-2021 21:31:18 4.8 C 42 %
2003 16-03-2021 21:41:18 4.6 C 42 %
2004 16-03-2021 21:51:18 4.6 C 42 %
2005 16-03-2021 22:01:17 4.6 C 42 %
2006 16-03-2021 22:11:17 4.6 C 43 %
2007 16-03-2021 22:21:18 4.6 C 42 %
2008 16-03-2021 22:31:17 4.6 C 42 %
2009 16-03-2021 22:41:17 4.5 C 43 %
2010 16-03-2021 22:51:18 4.2 C 43 %
2011 16-03-2021 23:01:17 4 C 43 %
2012 16-03-2021 23:11:17 4.1 C 44 %
2013 16-03-2021 23:21:17 3.9 C 45 %
2014 16-03-2021 23:31:17 4.1 C 45 %
2015 16-03-2021 23:41:17 4.1 C 45 %
2016 16-03-2021 23:51:18 3.9 C 47 %
2017 17-03-2021 00:01:17 4 C 46 %
2018 17-03-2021 00:11:17 4 C 46 %
2019 17-03-2021 00:21:18 4 C 47 %
2020 17-03-2021 00:31:18 4 C 47 %
2021 17-03-2021 00:41:18 4 C 48 %
2022 17-03-2021 00:51:18 4 C 48 %
2023 17-03-2021 01:01:17 3.9 C 49 %
2024 17-03-2021 01:11:17 4 C 48 %
2025 17-03-2021 01:21:17 4 C 48 %
Sensor: Nr:Datum:Temp:Feuchte:
Aussen-T/F 2026 17-03-2021 01:31:18 3.9 C 49 %
2027 17-03-2021 01:41:18 3.8 C 49 %
2028 17-03-2021 01:51:17 3.8 C 49 %
2029 17-03-2021 02:01:17 3.8 C 49 %
2030 17-03-2021 02:11:17 3.8 C 49 %
2031 17-03-2021 02:21:17 3.8 C 49 %
2032 17-03-2021 02:31:18 3.8 C 49 %
2033 17-03-2021 02:41:18 3.7 C 48 %
2034 17-03-2021 02:51:17 3.7 C 48 %
2035 17-03-2021 03:01:17 3.8 C 48 %
2036 17-03-2021 03:11:17 3.7 C 48 %
2037 17-03-2021 03:21:17 3.7 C 48 %
2038 17-03-2021 03:31:18 3.6 C 48 %
2039 17-03-2021 03:41:18 3.6 C 48 %
2040 17-03-2021 03:51:17 3.5 C 48 %
2041 17-03-2021 04:01:18 3.4 C 48 %
2042 17-03-2021 04:11:18 3.4 C 48 %
2043 17-03-2021 04:21:18 3.4 C 48 %
2044 17-03-2021 04:31:18 3.4 C 49 %
2045 17-03-2021 04:41:18 3.4 C 49 %
2046 17-03-2021 04:51:18 3.4 C 49 %
2047 17-03-2021 05:01:17 3.5 C 49 %
2048 17-03-2021 05:11:17 3.5 C 49 %
2049 17-03-2021 05:21:18 3.5 C 49 %
2050 17-03-2021 05:31:18 3.5 C 49 %
Sensor: Nr:Datum:Temp:Feuchte:
Aussen-T/F 2051 17-03-2021 05:41:18 3.5 C 49 %
2052 17-03-2021 05:51:17 3.5 C 49 %
2053 17-03-2021 06:01:17 3.5 C 49 %
2054 17-03-2021 06:11:17 3.5 C 49 %
2055 17-03-2021 06:21:17 3.5 C 49 %
2056 17-03-2021 06:31:17 3.5 C 49 %
2057 17-03-2021 06:41:18 3.6 C 49 %
2058 17-03-2021 06:51:17 3.6 C 49 %
2059 17-03-2021 07:01:18 3.6 C 50 %
2060 17-03-2021 07:11:18 3.7 C 49 %
2061 17-03-2021 07:21:17 3.5 C 48 %
2062 17-03-2021 07:31:18 3.6 C 47 %
2063 17-03-2021 07:41:18 3.6 C 46 %
2064 17-03-2021 07:51:17 3.6 C 46 %
2065 17-03-2021 08:01:17 3.7 C 46 %
2066 17-03-2021 08:11:17 3.7 C 46 %
2067 17-03-2021 08:21:18 3.6 C 46 %
2068 17-03-2021 08:31:18 3.6 C 46 %
2069 17-03-2021 08:41:18 3.6 C 46 %
2070 17-03-2021 08:51:17 3.6 C 45 %
2071 17-03-2021 09:01:17 3.6 C 46 %
2072 17-03-2021 09:11:17 3.6 C 45 %
2073 17-03-2021 09:21:17 3.7 C 45 %
2074 17-03-2021 09:31:17 4 C 44 %
2075 17-03-2021 09:41:17 3.8 C 45 %
Sensor: Nr:Datum:Temp:Feuchte:
Aussen-T/F 2076 17-03-2021 09:51:18 3.8 C 45 %
2077 17-03-2021 10:01:17 3.8 C 45 %
2078 17-03-2021 10:11:17 3.8 C 45 %
2079 17-03-2021 10:21:17 4 C 44 %
2080 17-03-2021 10:31:18 4.2 C 44 %
2081 17-03-2021 10:41:18 4.8 C 43 %
2082 17-03-2021 10:51:18 6 C 41 %
2083 17-03-2021 11:01:17 5 C 41 %
2084 17-03-2021 11:11:17 4.7 C 42 %
2085 17-03-2021 11:21:18 5.3 C 41 %
2086 17-03-2021 11:31:17 5.5 C 40 %
2087 17-03-2021 11:41:17 6.1 C 40 %
2088 17-03-2021 11:51:17 6.5 C 39 %
2089 17-03-2021 12:01:17 6.4 C 39 %
2090 17-03-2021 12:11:17 7.3 C 39 %
2091 17-03-2021 12:21:17 8.6 C 36 %
2092 17-03-2021 12:31:17 8.8 C 35 %
2093 17-03-2021 12:41:18 7.1 C 35 %
2094 17-03-2021 12:51:18 6 C 36 %
2095 17-03-2021 13:01:17 5.9 C 37 %
2096 17-03-2021 13:11:17 5.4 C 38 %
2097 17-03-2021 13:21:17 6 C 36 %
2098 17-03-2021 13:31:18 6.4 C 36 %
2099 17-03-2021 13:41:18 6.4 C 35 %
2100 17-03-2021 13:51:17 7.4 C 35 %
Sensor: Nr:Datum:Temp:Feuchte:
Aussen-T/F 2101 17-03-2021 14:01:17 7.6 C 33 %
2102 17-03-2021 14:11:18 6.7 C 35 %
2103 17-03-2021 14:21:17 6.4 C 35 %
2104 17-03-2021 14:31:17 6.3 C 35 %
2105 17-03-2021 14:41:17 5.9 C 35 %
2106 17-03-2021 14:51:18 5.8 C 36 %
2107 17-03-2021 15:01:17 5.3 C 36 %
2108 17-03-2021 15:11:17 4.8 C 38 %
2109 17-03-2021 15:21:18 4.2 C 39 %
2110 17-03-2021 15:31:17 4.8 C 39 %
2111 17-03-2021 15:41:17 5.6 C 37 %
2112 17-03-2021 15:51:18 5.7 C 36 %
2113 17-03-2021 16:01:18 5.9 C 36 %
2114 17-03-2021 16:11:18 6.2 C 36 %
2115 17-03-2021 16:21:18 6.3 C 35 %
2116 17-03-2021 16:31:18 5.9 C 35 %
2117 17-03-2021 16:41:18 5.7 C 34 %
2118 17-03-2021 16:51:18 5.7 C 34 %
2119 17-03-2021 17:01:17 5.7 C 34 %
2120 17-03-2021 17:11:17 5.6 C 34 %
2121 17-03-2021 17:21:17 5.6 C 34 %
2122 17-03-2021 17:31:18 5.5 C 34 %
2123 17-03-2021 17:41:18 5.4 C 34 %
2124 17-03-2021 17:51:17 5.4 C 34 %
2125 17-03-2021 18:01:17 5.3 C 33 %
Sensor: Nr:Datum:Temp:Feuchte:
Aussen-T/F 2126 17-03-2021 18:11:17 5.2 C 34 %
2127 17-03-2021 18:21:18 5.2 C 34 %
2128 17-03-2021 18:31:18 5 C 35 %
2129 17-03-2021 18:41:18 4.8 C 35 %
2130 17-03-2021 18:51:18 4.6 C 35 %
2131 17-03-2021 19:01:17 4.6 C 36 %
2132 17-03-2021 19:11:17 4.4 C 35 %
2133 17-03-2021 19:21:18 4.3 C 36 %
2134 17-03-2021 19:31:18 4.2 C 37 %
2135 17-03-2021 19:41:18 4 C 38 %
2136 17-03-2021 19:51:17 3.9 C 40 %
2137 17-03-2021 20:01:18 3.8 C 39 %
2138 17-03-2021 20:11:18 3.8 C 39 %
2139 17-03-2021 20:21:17 3.7 C 40 %
2140 17-03-2021 20:31:18 3.5 C 38 %
2141 17-03-2021 20:41:18 2.8 C 40 %
2142 17-03-2021 20:51:18 2.6 C 40 %
2143 17-03-2021 21:01:17 2.2 C 41 %
2144 17-03-2021 21:11:17 2.4 C 41 %
2145 17-03-2021 21:21:18 2.7 C 41 %
2146 17-03-2021 21:31:18 2.7 C 43 %
2147 17-03-2021 21:41:18 2.9 C 43 %
2148 17-03-2021 21:51:18 3.1 C 41 %
2149 17-03-2021 22:01:17 3.1 C 41 %
2150 17-03-2021 22:11:17 3.1 C 41 %
Sensor: Nr:Datum:Temp:Feuchte:
Aussen-T/F 2151 17-03-2021 22:21:18 3 C 41 %
2152 17-03-2021 22:31:17 2.8 C 42 %
2153 17-03-2021 22:41:17 2.6 C 44 %
2154 17-03-2021 22:51:17 2.2 C 44 %
2155 17-03-2021 23:01:17 2.4 C 44 %
2156 17-03-2021 23:11:17 2.5 C 43 %
2157 17-03-2021 23:21:17 2.4 C 43 %
2158 17-03-2021 23:31:18 1.7 C 45 %
2159 17-03-2021 23:41:18 1.1 C 45 %
2160 17-03-2021 23:51:18 1.2 C 45 %
2161 18-03-2021 00:01:17 0.8 C 46 %
2162 18-03-2021 00:11:17 0.7 C 46 %
2163 18-03-2021 00:21:18 0.9 C 46 %
2164 18-03-2021 00:31:18 0.8 C 46 %
2165 18-03-2021 00:41:18 0.7 C 46 %
2166 18-03-2021 00:51:17 0.7 C 46 %
2167 18-03-2021 01:01:18 0.6 C 46 %
2168 18-03-2021 01:11:18 0.6 C 46 %
2169 18-03-2021 01:21:18 0.1 C 46 %
2170 18-03-2021 01:31:17 -0.1 C 49 %
2171 18-03-2021 01:41:17 -0.8 C 47 %
2172 18-03-2021 01:51:17 -1.1 C 48 %
2173 18-03-2021 02:01:17 -1.1 C 50 %
2174 18-03-2021 02:11:17 -1.1 C 49 %
2175 18-03-2021 02:21:17 -1.4 C 49 %
Sensor: Nr:Datum:Temp:Feuchte:
Aussen-T/F 2176 18-03-2021 02:31:17 -1.8 C 49 %
2177 18-03-2021 02:41:17 -1.7 C 50 %
2178 18-03-2021 02:51:18 -1.5 C 50 %
2179 18-03-2021 03:01:18 -1.4 C 50 %
2180 18-03-2021 03:11:18 -1.5 C 50 %
2181 18-03-2021 03:21:18 -1.5 C 50 %
2182 18-03-2021 03:31:18 -1.5 C 50 %
2183 18-03-2021 03:41:18 -1.6 C 50 %
2184 18-03-2021 03:51:18 -1.8 C 50 %
2185 18-03-2021 04:01:17 -1.9 C 50 %
2186 18-03-2021 04:11:18 -1.7 C 50 %
2187 18-03-2021 04:21:17 -2.1 C 50 %
2188 18-03-2021 04:31:18 -2.3 C 50 %
2189 18-03-2021 04:41:18 -2.2 C 50 %
2190 18-03-2021 04:51:18 -2.3 C 50 %
2191 18-03-2021 05:01:18 -2.4 C 50 %
2192 18-03-2021 05:11:18 -2.3 C 50 %
2193 18-03-2021 05:21:17 -2.3 C 50 %
2194 18-03-2021 05:31:17 -0.8 C 51 %
2195 18-03-2021 05:41:17 -0.6 C 51 %
2196 18-03-2021 05:51:18 -0.4 C 51 %
2197 18-03-2021 06:01:18 -0.4 C 51 %
2198 18-03-2021 06:11:18 -0.4 C 50 %
2199 18-03-2021 06:21:18 -0.4 C 50 %
2200 18-03-2021 06:31:17 -0.3 C 50 %
Sensor: Nr:Datum:Temp:Feuchte:
Aussen-T/F 2201 18-03-2021 06:41:17 -0.1 C 50 %
2202 18-03-2021 06:51:17 0.1 C 51 %
2203 18-03-2021 07:01:18 0.1 C 51 %
2204 18-03-2021 07:11:18 0.2 C 51 %
2205 18-03-2021 07:21:18 0.5 C 51 %
2206 18-03-2021 07:31:17 0.4 C 50 %
2207 18-03-2021 07:41:17 0.5 C 50 %
2208 18-03-2021 07:51:17 0.5 C 50 %
2209 18-03-2021 08:01:17 0.6 C 50 %
2210 18-03-2021 08:11:17 0.9 C 50 %
2211 18-03-2021 08:21:18 1.2 C 49 %
2212 18-03-2021 08:31:18 1.1 C 47 %
2213 18-03-2021 08:41:18 1.3 C 47 %
2214 18-03-2021 08:51:18 1.4 C 47 %
2215 18-03-2021 09:01:17 1.5 C 46 %
2216 18-03-2021 09:11:18 1.7 C 46 %
2217 18-03-2021 09:21:18 1.9 C 46 %
2218 18-03-2021 09:31:18 2.2 C 45 %
2219 18-03-2021 09:41:18 2.2 C 44 %
2220 18-03-2021 09:51:18 2.7 C 43 %
2221 18-03-2021 10:01:17 3.1 C 42 %
2222 18-03-2021 10:11:17 4.2 C 40 %
2223 18-03-2021 10:21:18 3.7 C 41 %
2224 18-03-2021 10:31:17 3.2 C 41 %
2225 18-03-2021 10:41:17 3.3 C 41 %
Sensor: Nr:Datum:Temp:Feuchte:
Aussen-T/F 2226 18-03-2021 10:51:17 3.1 C 41 %
2227 18-03-2021 11:01:18 3.3 C 41 %
2228 18-03-2021 11:11:18 3.7 C 41 %
2229 18-03-2021 11:21:18 3.8 C 41 %
2230 18-03-2021 11:31:17 4 C 40 %
2231 18-03-2021 11:41:17 3.6 C 41 %
2232 18-03-2021 11:51:17 4.1 C 40 %
2233 18-03-2021 12:01:17 5.2 C 38 %
2234 18-03-2021 12:11:17 4.5 C 39 %
2235 18-03-2021 12:21:17 4.8 C 39 %
2236 18-03-2021 12:31:18 5.2 C 38 %
2237 18-03-2021 12:41:18 6.2 C 37 %
2238 18-03-2021 12:51:18 7.7 C 35 %
2239 18-03-2021 13:01:18 7.1 C 35 %
2240 18-03-2021 13:11:18 7 C 34 %
2241 18-03-2021 13:21:17 7.8 C 34 %
2242 18-03-2021 13:31:17 9.4 C 32 %
2243 18-03-2021 13:41:17 8.3 C 32 %
2244 18-03-2021 13:51:17 7.7 C 33 %
2245 18-03-2021 14:01:17 7.8 C 33 %
2246 18-03-2021 14:11:17 7 C 34 %
2247 18-03-2021 14:21:17 7.8 C 33 %
2248 18-03-2021 14:31:18 8.1 C 32 %
2249 18-03-2021 14:41:18 6.8 C 35 %
2250 18-03-2021 14:51:17 7.5 C 33 %
Sensor: Nr:Datum:Temp:Feuchte:
Aussen-T/F 2251 18-03-2021 15:01:18 9.2 C 32 %
2252 18-03-2021 15:11:18 6.7 C 34 %
2253 18-03-2021 15:21:17 6.9 C 35 %
2254 18-03-2021 15:31:17 6.9 C 34 %
2255 18-03-2021 15:41:17 7.1 C 33 %
2256 18-03-2021 15:51:18 7.5 C 33 %
2257 18-03-2021 16:01:17 6.8 C 35 %
2258 18-03-2021 16:11:17 6.8 C 35 %
2259 18-03-2021 16:21:18 7 C 34 %
2260 18-03-2021 16:31:17 7.4 C 33 %
2261 18-03-2021 16:41:18 7 C 33 %
2262 18-03-2021 16:51:17 6.9 C 35 %
2263 18-03-2021 17:01:17 6.7 C 34 %
2264 18-03-2021 17:11:17 6.7 C 34 %
2265 18-03-2021 17:21:18 6.6 C 34 %
2266 18-03-2021 17:31:17 6.3 C 34 %
2267 18-03-2021 17:41:17 6.1 C 34 %
2268 18-03-2021 17:51:17 5.9 C 35 %
2269 18-03-2021 18:01:17 5.8 C 35 %
2270 18-03-2021 18:11:17 5.6 C 35 %
2271 18-03-2021 18:21:17 5.4 C 35 %
2272 18-03-2021 18:31:18 5.2 C 36 %
2273 18-03-2021 18:41:18 5.1 C 36 %
2274 18-03-2021 18:51:17 5.2 C 36 %
2275 18-03-2021 19:01:17 4.8 C 37 %
Sensor: Nr:Datum:Temp:Feuchte:
Aussen-T/F 2276 18-03-2021 19:11:17 4.7 C 37 %
2277 18-03-2021 19:21:17 4.6 C 37 %
2278 18-03-2021 19:31:17 4.7 C 37 %
2279 18-03-2021 19:41:18 4.5 C 38 %
2280 18-03-2021 19:51:17 4.4 C 38 %
2281 18-03-2021 20:01:17 4.4 C 39 %
2282 18-03-2021 20:11:17 4.2 C 40 %
2283 18-03-2021 20:21:17 4.2 C 39 %
2284 18-03-2021 20:31:17 4.4 C 39 %
2285 18-03-2021 20:41:17 4.2 C 40 %
2286 18-03-2021 20:51:18 4.3 C 40 %
2287 18-03-2021 21:01:17 3.8 C 42 %
2288 18-03-2021 21:11:17 3.8 C 42 %
2289 18-03-2021 21:21:18 3.6 C 44 %
2290 18-03-2021 21:31:17 3.6 C 44 %
2291 18-03-2021 21:41:17 3.5 C 43 %
2292 18-03-2021 21:51:17 3.5 C 45 %
2293 18-03-2021 22:01:18 3.2 C 45 %
2294 18-03-2021 22:11:18 3.1 C 45 %
2295 18-03-2021 22:21:17 3.2 C 46 %
2296 18-03-2021 22:31:18 3.2 C 46 %
2297 18-03-2021 22:41:18 3.1 C 47 %
2298 18-03-2021 22:51:18 3.1 C 47 %
2299 18-03-2021 23:01:18 3.2 C 47 %
2300 18-03-2021 23:11:18 3.1 C 47 %
Sensor: Nr:Datum:Temp:Feuchte:
Aussen-T/F 2301 18-03-2021 23:21:18 2.9 C 49 %
2302 18-03-2021 23:31:17 2.7 C 49 %
2303 18-03-2021 23:41:17 2.5 C 49 %
2304 18-03-2021 23:51:17 2.3 C 49 %
2305 19-03-2021 00:01:17 1.9 C 50 %
2306 19-03-2021 00:11:17 1.7 C 50 %
2307 19-03-2021 00:21:18 1.5 C 50 %
2308 19-03-2021 00:31:17 1.4 C 50 %
2309 19-03-2021 00:41:17 1.3 C 50 %
2310 19-03-2021 00:51:18 1.1 C 50 %
2311 19-03-2021 01:01:17 1.2 C 50 %
2312 19-03-2021 01:11:18 1.2 C 50 %
2313 19-03-2021 01:21:18 1.3 C 50 %
2314 19-03-2021 01:31:18 1.4 C 50 %
2315 19-03-2021 01:41:18 1.4 C 50 %
2316 19-03-2021 01:51:17 1.5 C 50 %
2317 19-03-2021 02:01:18 1.5 C 50 %
2318 19-03-2021 02:11:18 1.5 C 50 %
2319 19-03-2021 02:21:18 1.5 C 50 %
2320 19-03-2021 02:31:17 1.5 C 50 %
2321 19-03-2021 02:41:18 1.5 C 50 %
2322 19-03-2021 02:51:18 1.6 C 50 %
2323 19-03-2021 03:01:17 1.7 C 50 %
2324 19-03-2021 03:11:17 1.7 C 50 %
2325 19-03-2021 03:21:18 1.8 C 50 %
Sensor: Nr:Datum:Temp:Feuchte:
Aussen-T/F 2326 19-03-2021 03:31:17 1.8 C 50 %
2327 19-03-2021 03:41:17 1.8 C 50 %
2328 19-03-2021 03:51:18 1.9 C 50 %
2329 19-03-2021 04:01:18 1.9 C 50 %
2330 19-03-2021 04:11:18 1.9 C 50 %
2331 19-03-2021 04:21:17 1.9 C 50 %
2332 19-03-2021 04:31:17 1.9 C 50 %
2333 19-03-2021 04:41:17 1.9 C 50 %
2334 19-03-2021 04:51:17 1.9 C 50 %
2335 19-03-2021 05:01:18 1.8 C 50 %
2336 19-03-2021 05:11:18 1.7 C 50 %
2337 19-03-2021 05:21:17 1.7 C 50 %
2338 19-03-2021 05:31:17 1.3 C 50 %
2339 19-03-2021 05:41:17 1.3 C 50 %
2340 19-03-2021 05:51:17 1.4 C 50 %
2341 19-03-2021 06:01:17 1.2 C 50 %
2342 19-03-2021 06:11:17 0.9 C 51 %
2343 19-03-2021 06:21:18 0.6 C 51 %
2344 19-03-2021 06:31:17 0.3 C 51 %
2345 19-03-2021 06:41:17 0.4 C 51 %
2346 19-03-2021 06:51:18 0.5 C 51 %
2347 19-03-2021 07:01:18 0.4 C 51 %
2348 19-03-2021 07:11:18 0.5 C 51 %
2349 19-03-2021 07:21:18 0.6 C 51 %
2350 19-03-2021 07:31:17 0.7 C 51 %
Sensor: Nr:Datum:Temp:Feuchte:
Aussen-T/F 2351 19-03-2021 07:41:17 0.6 C 51 %
2352 19-03-2021 07:51:17 0.6 C 51 %
2353 19-03-2021 08:01:17 0.3 C 51 %
2354 19-03-2021 08:11:17 0.5 C 51 %
2355 19-03-2021 08:21:17 1.2 C 50 %
2356 19-03-2021 08:31:17 1.6 C 45 %
2357 19-03-2021 08:41:17 1.7 C 44 %
2358 19-03-2021 08:51:18 2.3 C 42 %
2359 19-03-2021 09:01:17 3.1 C 40 %
2360 19-03-2021 09:11:17 2.8 C 40 %
2361 19-03-2021 09:21:17 2.9 C 40 %
2362 19-03-2021 09:31:18 3 C 40 %
2363 19-03-2021 09:41:18 2.9 C 40 %
2364 19-03-2021 09:51:17 3.6 C 39 %
2365 19-03-2021 10:01:18 3.5 C 39 %
2366 19-03-2021 10:11:18 3.6 C 38 %
2367 19-03-2021 10:21:17 3.4 C 38 %
2368 19-03-2021 10:31:18 3.4 C 38 %
2369 19-03-2021 10:41:18 3.4 C 38 %
2370 19-03-2021 10:51:17 4.5 C 36 %
2371 19-03-2021 11:01:17 5.7 C 32 %
2372 19-03-2021 11:11:17 5.8 C 33 %
2373 19-03-2021 11:21:17 5.3 C 33 %
2374 19-03-2021 11:31:18 4.9 C 33 %
2375 19-03-2021 11:41:18 7.8 C 30 %
Sensor: Nr:Datum:Temp:Feuchte:
Aussen-T/F 2376 19-03-2021 11:51:18 6.6 C 30 %
2377 19-03-2021 12:01:17 6.8 C 30 %
2378 19-03-2021 12:11:17 5.9 C 30 %
2379 19-03-2021 12:21:18 7.2 C 27 %
2380 19-03-2021 12:31:17 7.1 C 26 %
2381 19-03-2021 12:41:17 7.1 C 26 %
2382 19-03-2021 12:51:17 8.2 C 26 %
2383 19-03-2021 13:01:18 7.4 C 25 %
2384 19-03-2021 13:11:18 7.8 C 26 %
2385 19-03-2021 13:21:17 8.9 C 26 %
2386 19-03-2021 13:31:17 8.3 C 25 %
2387 19-03-2021 13:41:17 8.1 C 25 %
2388 19-03-2021 13:51:17 7.8 C 25 %
2389 19-03-2021 14:01:18 8.1 C 26 %
2390 19-03-2021 14:11:18 7.1 C 26 %
2391 19-03-2021 14:21:18 8.5 C 26 %
2392 19-03-2021 14:31:18 8 C 25 %
2393 19-03-2021 14:41:18 8.9 C 25 %
2394 19-03-2021 14:51:17 7.6 C 26 %
2395 19-03-2021 15:01:18 7.2 C 26 %
2396 19-03-2021 15:11:18 6.8 C 27 %
2397 19-03-2021 15:21:17 6.8 C 27 %
2398 19-03-2021 15:31:17 8.9 C 26 %
2399 19-03-2021 15:41:17 8.1 C 25 %
2400 19-03-2021 15:51:17 9.2 C 25 %
Sensor: Nr:Datum:Temp:Feuchte:
Aussen-T/F 2401 19-03-2021 16:01:17 8.4 C 25 %
2402 19-03-2021 16:11:17 7.8 C 25 %
2403 19-03-2021 16:21:18 6.5 C 28 %
2404 19-03-2021 16:31:17 6.5 C 29 %
2405 19-03-2021 16:41:17 6.2 C 27 %
2406 19-03-2021 16:51:17 7.4 C 26 %
2407 19-03-2021 17:01:18 6.8 C 27 %
2408 19-03-2021 17:11:18 6.8 C 27 %
2409 19-03-2021 17:21:17 6.9 C 27 %
2410 19-03-2021 17:31:18 6.8 C 27 %
2411 19-03-2021 17:41:18 6.5 C 28 %
2412 19-03-2021 17:51:17 6.9 C 26 %
2413 19-03-2021 18:01:17 7 C 25 %
2414 19-03-2021 18:11:17 6.8 C 26 %
2415 19-03-2021 18:21:17 6 C 27 %
2416 19-03-2021 18:31:17 5.7 C 28 %
2417 19-03-2021 18:41:17 5.2 C 29 %
2418 19-03-2021 18:51:17 4.4 C 32 %
2419 19-03-2021 19:01:17 4.4 C 31 %
2420 19-03-2021 19:11:17 4.4 C 31 %
2421 19-03-2021 19:21:18 3.9 C 35 %
2422 19-03-2021 19:31:18 3.7 C 33 %
2423 19-03-2021 19:41:18 3 C 37 %
2424 19-03-2021 19:51:18 2.5 C 38 %
2425 19-03-2021 20:01:18 2.3 C 38 %
Sensor: Nr:Datum:Temp:Feuchte:
Aussen-T/F 2426 19-03-2021 20:11:18 2.1 C 38 %
2427 19-03-2021 20:21:18 1.9 C 40 %
2428 19-03-2021 20:31:18 1.9 C 40 %
2429 19-03-2021 20:41:18 1.5 C 40 %
2430 19-03-2021 20:51:17 1.3 C 41 %
2431 19-03-2021 21:01:18 1.4 C 42 %
2432 19-03-2021 21:11:18 1.5 C 42 %
2433 19-03-2021 21:21:17 1.1 C 42 %
2434 19-03-2021 21:31:17 1 C 42 %
2435 19-03-2021 21:41:17 1.1 C 42 %
2436 19-03-2021 21:51:17 1.1 C 42 %
2437 19-03-2021 22:01:18 0.5 C 44 %
2438 19-03-2021 22:11:18 1.1 C 41 %
2439 19-03-2021 22:21:17 0.3 C 44 %
2440 19-03-2021 22:31:18 0.2 C 45 %
2441 19-03-2021 22:41:18 0.1 C 45 %
2442 19-03-2021 22:51:17 -0.2 C 45 %
2443 19-03-2021 23:01:17 -0.4 C 46 %
2444 19-03-2021 23:11:17 -0.4 C 44 %
2445 19-03-2021 23:21:17 -0.5 C 45 %
2446 19-03-2021 23:31:18 -1 C 46 %
2447 19-03-2021 23:41:18 -1.3 C 46 %
2448 19-03-2021 23:51:17 0.3 C 45 %
2449 20-03-2021 00:01:17 0 C 45 %
2450 20-03-2021 00:11:17 0.3 C 44 %
Sensor: Nr:Datum:Temp:Feuchte:
Aussen-T/F 2451 20-03-2021 00:21:18 0.6 C 44 %
2452 20-03-2021 00:31:18 0.7 C 44 %
2453 20-03-2021 00:41:18 0.8 C 44 %
2454 20-03-2021 00:51:17 0.6 C 45 %
2455 20-03-2021 01:01:17 0.6 C 44 %
2456 20-03-2021 01:11:17 0.4 C 44 %
2457 20-03-2021 01:21:18 0 C 45 %
2458 20-03-2021 01:31:17 -1.1 C 45 %
2459 20-03-2021 01:41:17 -1.1 C 47 %
2460 20-03-2021 01:51:18 -1.2 C 48 %
2461 20-03-2021 02:01:17 -1.6 C 47 %
2462 20-03-2021 02:11:17 -1.3 C 49 %
2463 20-03-2021 02:21:18 -1.3 C 48 %
2464 20-03-2021 02:31:18 -1.8 C 47 %
2465 20-03-2021 02:41:18 -1.8 C 48 %
2466 20-03-2021 02:51:18 -1.7 C 49 %
2467 20-03-2021 03:01:17 -2.2 C 48 %
2468 20-03-2021 03:11:17 -2.4 C 48 %
2469 20-03-2021 03:21:18 -2.4 C 48 %
2470 20-03-2021 03:31:18 -2.4 C 49 %
2471 20-03-2021 03:41:18 -2.5 C 49 %
2472 20-03-2021 03:51:17 -2.6 C 49 %
2473 20-03-2021 04:01:18 -2.3 C 50 %
2474 20-03-2021 04:11:18 -2.4 C 50 %
2475 20-03-2021 04:21:17 -2.1 C 50 %
Sensor: Nr:Datum:Temp:Feuchte:
Aussen-T/F 2476 20-03-2021 04:31:18 -2.1 C 50 %
2477 20-03-2021 04:41:18 -2.3 C 49 %
2478 20-03-2021 04:51:17 -2.3 C 50 %
2479 20-03-2021 05:01:17 -2.4 C 49 %
2480 20-03-2021 05:11:17 -2.3 C 50 %
2481 20-03-2021 05:21:18 -1.8 C 50 %
2482 20-03-2021 05:31:18 -1.4 C 50 %
2483 20-03-2021 05:41:18 -1.3 C 50 %
2484 20-03-2021 05:51:17 -1.4 C 50 %
2485 20-03-2021 06:01:18 -1.3 C 50 %
2486 20-03-2021 06:11:18 -1.5 C 50 %
2487 20-03-2021 06:21:18 -1.8 C 50 %
2488 20-03-2021 06:31:17 -1.3 C 51 %
2489 20-03-2021 06:41:17 -1.5 C 50 %
2490 20-03-2021 06:51:18 -1.6 C 50 %
2491 20-03-2021 07:01:18 -1.2 C 50 %
2492 20-03-2021 07:11:18 -0.9 C 51 %
2493 20-03-2021 07:21:17 -0.6 C 51 %
2494 20-03-2021 07:31:18 -0.7 C 50 %
2495 20-03-2021 07:41:18 -0.5 C 50 %
2496 20-03-2021 07:51:17 -0.5 C 50 %
2497 20-03-2021 08:01:17 -0.7 C 49 %
2498 20-03-2021 08:11:17 -0.4 C 50 %
2499 20-03-2021 08:21:17 0.2 C 50 %
2500 20-03-2021 08:31:17 0.5 C 46 %
Sensor: Nr:Datum:Temp:Feuchte:
Aussen-T/F 2501 20-03-2021 08:41:18 0.4 C 46 %
2502 20-03-2021 08:51:17 0.8 C 46 %
2503 20-03-2021 09:01:17 1.4 C 44 %
2504 20-03-2021 09:11:18 1.5 C 43 %
2505 20-03-2021 09:21:17 2.6 C 42 %
2506 20-03-2021 09:31:17 2.2 C 40 %
2507 20-03-2021 09:41:17 2.5 C 39 %
2508 20-03-2021 09:51:17 2.4 C 38 %
2509 20-03-2021 10:01:18 3.2 C 37 %
2510 20-03-2021 10:11:18 3.1 C 37 %
2511 20-03-2021 10:21:17 3.1 C 37 %
2512 20-03-2021 10:31:17 3.1 C 37 %
2513 20-03-2021 10:41:18 3.7 C 37 %
2514 20-03-2021 10:51:17 3.9 C 36 %
2515 20-03-2021 11:01:18 4.3 C 34 %
2516 20-03-2021 11:11:18 4.9 C 32 %
2517 20-03-2021 11:21:17 5.8 C 31 %
2518 20-03-2021 11:31:17 6.8 C 30 %
2519 20-03-2021 11:41:17 6.8 C 30 %
2520 20-03-2021 11:51:17 5.2 C 30 %
2521 20-03-2021 12:01:18 6.6 C 29 %
2522 20-03-2021 12:11:18 7 C 27 %
2523 20-03-2021 12:21:17 5.6 C 28 %
2524 20-03-2021 12:31:17 5.6 C 29 %
2525 20-03-2021 12:41:17 6.2 C 30 %
Sensor: Nr:Datum:Temp:Feuchte:
Aussen-T/F 2526 20-03-2021 12:51:17 7.2 C 28 %
2527 20-03-2021 13:01:17 7.2 C 27 %
2528 20-03-2021 13:11:17 10.8 C 26 %
2529 20-03-2021 13:21:17 9.3 C 25 %
2530 20-03-2021 13:31:18 12 C 20 %
2531 20-03-2021 13:41:18 10 C 22 %
2532 20-03-2021 13:51:18 9.7 C 25 %
2533 20-03-2021 14:01:18 9.5 C 25 %
2534 20-03-2021 14:11:18 9.7 C 21 %
2535 20-03-2021 14:21:17 9.7 C 21 %
2536 20-03-2021 14:31:17 9.5 C 25 %
2537 20-03-2021 14:41:17 9.4 C 25 %
2538 20-03-2021 14:51:18 8.6 C 25 %
2539 20-03-2021 15:01:17 11.2 C 20 %
2540 20-03-2021 15:11:17 12.5 C 20 %
2541 20-03-2021 15:21:17 13.8 C 20 %
2542 20-03-2021 15:31:18 13 C 20 %
2543 20-03-2021 15:41:18 12.3 C 20 %
2544 20-03-2021 15:51:18 12 C 20 %
2545 20-03-2021 16:01:17 13.6 C 20 %
2546 20-03-2021 16:11:17 10.2 C 20 %
2547 20-03-2021 16:21:18 13.2 C 20 %
2548 20-03-2021 16:31:17 12.4 C 20 %
2549 20-03-2021 16:41:17 12.8 C 20 %
2550 20-03-2021 16:51:18 10.7 C 20 %
Sensor: Nr:Datum:Temp:Feuchte:
Aussen-T/F 2551 20-03-2021 17:01:18 8.9 C 20 %
2552 20-03-2021 17:11:18 7.9 C 20 %
2553 20-03-2021 17:21:17 7.9 C 20 %
2554 20-03-2021 17:31:18 7.9 C 20 %
2555 20-03-2021 17:41:18 7.8 C 20 %
2556 20-03-2021 17:51:19 7.4 C 20 %
2557 20-03-2021 18:01:17 7.2 C 20 %
2558 20-03-2021 18:11:17 6.9 C 21 %
2559 20-03-2021 18:21:17 6.8 C 23 %
2560 20-03-2021 18:31:18 6.6 C 23 %
2561 20-03-2021 18:41:18 6.3 C 23 %
2562 20-03-2021 18:51:18 6.1 C 25 %
2563 20-03-2021 19:01:18 6 C 25 %
2564 20-03-2021 19:11:18 5.9 C 25 %
2565 20-03-2021 19:21:18 5.8 C 25 %
2566 20-03-2021 19:31:17 5.6 C 26 %
2567 20-03-2021 19:41:17 5.6 C 26 %
2568 20-03-2021 19:51:17 5.5 C 26 %
2569 20-03-2021 20:01:18 5.3 C 26 %
2570 20-03-2021 20:11:18 5.4 C 25 %
2571 20-03-2021 20:21:17 5.2 C 26 %
2572 20-03-2021 20:31:17 5.2 C 26 %
2573 20-03-2021 20:41:17 5 C 27 %
2574 20-03-2021 20:51:17 4.8 C 30 %
2575 20-03-2021 21:01:18 4.6 C 30 %
Sensor: Nr:Datum:Temp:Feuchte:
Aussen-T/F 2576 20-03-2021 21:11:18 4.6 C 30 %
2577 20-03-2021 21:21:17 4.5 C 31 %
2578 20-03-2021 21:31:17 4.6 C 31 %
2579 20-03-2021 21:41:17 4.7 C 31 %
2580 20-03-2021 21:51:18 4.5 C 32 %
2581 20-03-2021 22:01:18 4.4 C 32 %
2582 20-03-2021 22:11:18 4.3 C 32 %
2583 20-03-2021 22:21:17 4.4 C 32 %
2584 20-03-2021 22:31:17 4.2 C 33 %
2585 20-03-2021 22:41:17 4.2 C 33 %
2586 20-03-2021 22:51:18 4.2 C 34 %
2587 20-03-2021 23:01:17 4.2 C 33 %
2588 20-03-2021 23:11:17 4.2 C 34 %
2589 20-03-2021 23:21:17 4.1 C 34 %
2590 20-03-2021 23:31:17 4 C 34 %
2591 20-03-2021 23:41:18 4 C 34 %
2592 20-03-2021 23:51:17 4.2 C 33 %
2593 21-03-2021 00:01:18 4.1 C 35 %
2594 21-03-2021 00:11:18 4.1 C 35 %
2595 21-03-2021 00:21:18 4.2 C 33 %
2596 21-03-2021 00:31:17 4.5 C 32 %
2597 21-03-2021 00:41:17 4.4 C 32 %
2598 21-03-2021 00:51:18 4.3 C 33 %
2599 21-03-2021 01:01:17 4.3 C 33 %
2600 21-03-2021 01:11:17 4.2 C 33 %
Sensor: Nr:Datum:Temp:Feuchte:
Aussen-T/F 2601 21-03-2021 01:21:18 4.3 C 33 %
2602 21-03-2021 01:31:17 4.3 C 32 %
2603 21-03-2021 01:41:17 4.3 C 34 %
2604 21-03-2021 01:51:17 4.2 C 35 %
2605 21-03-2021 02:01:17 4.4 C 33 %
2606 21-03-2021 02:11:17 4.4 C 34 %
2607 21-03-2021 02:21:17 4.4 C 35 %
2608 21-03-2021 02:31:17 4.4 C 35 %
2609 21-03-2021 02:41:17 4.5 C 35 %
2610 21-03-2021 02:51:17 4.6 C 35 %
2611 21-03-2021 03:01:18 4.6 C 36 %
2612 21-03-2021 03:11:18 4.8 C 37 %
2613 21-03-2021 03:21:18 5 C 37 %
2614 21-03-2021 03:31:18 4.7 C 39 %
2615 21-03-2021 03:41:18 4.5 C 40 %
2616 21-03-2021 03:51:17 4.3 C 40 %
2617 21-03-2021 04:01:18 4.2 C 41 %
2618 21-03-2021 04:11:18 4.3 C 41 %
2619 21-03-2021 04:21:18 4.2 C 41 %
2620 21-03-2021 04:31:17 4.1 C 41 %
2621 21-03-2021 04:41:17 4 C 42 %
2622 21-03-2021 04:51:17 4 C 42 %
2623 21-03-2021 05:01:18 3.7 C 45 %
2624 21-03-2021 05:11:18 3.6 C 45 %
2625 21-03-2021 05:21:17 3.6 C 45 %
Sensor: Nr:Datum:Temp:Feuchte:
Aussen-T/F 2626 21-03-2021 05:31:17 3.7 C 45 %
2627 21-03-2021 05:41:17 3.7 C 44 %
2628 21-03-2021 05:51:17 3.7 C 45 %
2629 21-03-2021 06:01:17 3.5 C 45 %
2630 21-03-2021 06:11:17 3.6 C 45 %
2631 21-03-2021 06:21:17 3.5 C 46 %
2632 21-03-2021 06:31:17 3.5 C 46 %
2633 21-03-2021 06:41:17 3.6 C 46 %
2634 21-03-2021 06:51:17 3.6 C 46 %
2635 21-03-2021 07:01:18 3.6 C 46 %
2636 21-03-2021 07:11:18 3.6 C 47 %
2637 21-03-2021 07:21:17 3.7 C 47 %
2638 21-03-2021 07:31:17 3.7 C 47 %
2639 21-03-2021 07:41:17 3.8 C 46 %
2640 21-03-2021 07:51:17 3.8 C 46 %
2641 21-03-2021 08:01:18 4 C 45 %
2642 21-03-2021 08:11:18 4.2 C 45 %
2643 21-03-2021 08:21:18 4.3 C 45 %
2644 21-03-2021 08:31:17 4.4 C 45 %
2645 21-03-2021 08:41:17 4.4 C 45 %
2646 21-03-2021 08:51:17 4.5 C 45 %
2647 21-03-2021 09:01:18 4.6 C 45 %
2648 21-03-2021 09:11:18 4.8 C 45 %
2649 21-03-2021 09:21:18 5.1 C 44 %
2650 21-03-2021 09:31:18 5.3 C 44 %
Sensor: Nr:Datum:Temp:Feuchte:
Aussen-T/F 2651 21-03-2021 09:41:18 5.5 C 43 %
2652 21-03-2021 09:51:17 5.5 C 44 %
2653 21-03-2021 10:01:18 5.7 C 44 %
2654 21-03-2021 10:11:18 6.3 C 41 %
2655 21-03-2021 10:21:17 6.5 C 40 %
2656 21-03-2021 10:31:18 6.5 C 40 %
2657 21-03-2021 10:41:18 6.7 C 40 %
2658 21-03-2021 10:51:18 6.4 C 40 %
2659 21-03-2021 11:01:17 6.7 C 40 %
2660 21-03-2021 11:11:17 7.1 C 39 %
2661 21-03-2021 11:21:17 7.5 C 39 %
2662 21-03-2021 11:31:17 7.3 C 39 %
2663 21-03-2021 11:41:17 7.4 C 39 %
2664 21-03-2021 11:51:17 7.5 C 38 %
2665 21-03-2021 12:01:18 7.3 C 38 %
2666 21-03-2021 12:11:18 7.4 C 38 %
2667 21-03-2021 12:21:18 7.2 C 38 %
2668 21-03-2021 12:31:18 7.9 C 37 %
2669 21-03-2021 12:41:18 8.2 C 36 %
2670 21-03-2021 12:51:18 8.1 C 36 %
2671 21-03-2021 13:01:17 7.9 C 37 %
2672 21-03-2021 13:11:17 8.9 C 36 %
2673 21-03-2021 13:21:17 8.3 C 35 %
2674 21-03-2021 13:31:17 8.2 C 35 %
2675 21-03-2021 13:41:17 8.5 C 34 %
Sensor: Nr:Datum:Temp:Feuchte:
Aussen-T/F 2676 21-03-2021 13:51:18 8.3 C 34 %
2677 21-03-2021 14:01:17 9.2 C 33 %
2678 21-03-2021 14:11:17 8.4 C 33 %
2679 21-03-2021 14:21:17 8.5 C 34 %
2680 21-03-2021 14:31:18 8.6 C 33 %
2681 21-03-2021 14:41:18 8.8 C 33 %
2682 21-03-2021 14:51:17 8.6 C 34 %
2683 21-03-2021 15:01:18 9.2 C 33 %
2684 21-03-2021 15:11:18 8.9 C 33 %
2685 21-03-2021 15:21:18 8.2 C 33 %
2686 21-03-2021 15:31:18 8.6 C 33 %
2687 21-03-2021 15:41:18 8.7 C 33 %
2688 21-03-2021 15:51:18 8.8 C 33 %
2689 21-03-2021 16:01:17 8.5 C 33 %
2690 21-03-2021 16:11:17 8.5 C 33 %
2691 21-03-2021 16:21:17 9.2 C 32 %
2692 21-03-2021 16:31:18 8.8 C 32 %
2693 21-03-2021 16:41:18 9.1 C 32 %
2694 21-03-2021 16:51:17 9.3 C 32 %
2695 21-03-2021 17:01:18 8.2 C 32 %
2696 21-03-2021 17:11:18 8 C 32 %
2697 21-03-2021 17:21:18 8 C 32 %
2698 21-03-2021 17:31:17 8 C 32 %
2699 21-03-2021 17:41:17 7.8 C 33 %
2700 21-03-2021 17:51:17 7.5 C 33 %
Sensor: Nr:Datum:Temp:Feuchte:
Aussen-T/F 2701 21-03-2021 18:01:18 7.4 C 33 %
2702 21-03-2021 18:11:18 7 C 34 %
2703 21-03-2021 18:21:18 6.8 C 35 %
2704 21-03-2021 18:31:17 6.5 C 35 %
2705 21-03-2021 18:41:17 6.4 C 35 %
2706 21-03-2021 18:51:18 6.3 C 35 %
2707 21-03-2021 19:01:18 6 C 35 %
2708 21-03-2021 19:11:18 5.7 C 35 %
2709 21-03-2021 19:21:17 5.5 C 35 %
2710 21-03-2021 19:31:18 5.6 C 36 %
2711 21-03-2021 19:41:18 5.4 C 36 %
2712 21-03-2021 19:51:18 5.3 C 36 %
2713 21-03-2021 20:01:18 5.3 C 36 %
2714 21-03-2021 20:11:18 5.2 C 36 %
2715 21-03-2021 20:21:17 5.3 C 36 %
2716 21-03-2021 20:31:17 5.2 C 36 %
2717 21-03-2021 20:41:17 5 C 36 %
2718 21-03-2021 20:51:17 5.2 C 36 %
2719 21-03-2021 21:01:18 5.2 C 36 %
2720 21-03-2021 21:11:18 5.3 C 36 %
2721 21-03-2021 21:21:17 5.4 C 36 %
2722 21-03-2021 21:31:17 5.3 C 36 %
2723 21-03-2021 21:41:17 4.7 C 38 %
2724 21-03-2021 21:51:17 4.5 C 38 %
2725 21-03-2021 22:01:17 4.4 C 38 %
Sensor: Nr:Datum:Temp:Feuchte:
Aussen-T/F 2726 21-03-2021 22:11:17 4.1 C 39 %
2727 21-03-2021 22:21:18 4.2 C 39 %
2728 21-03-2021 22:31:17 4.6 C 38 %
2729 21-03-2021 22:41:17 3.9 C 39 %
2730 21-03-2021 22:51:18 3.6 C 40 %
2731 21-03-2021 23:01:18 3.9 C 40 %
2732 21-03-2021 23:11:18 4 C 38 %
2733 21-03-2021 23:21:17 3.9 C 40 %
2734 21-03-2021 23:31:18 3.4 C 40 %
2735 21-03-2021 23:41:18 3.4 C 40 %
2736 21-03-2021 23:51:17 3.8 C 40 %
2737 22-03-2021 00:01:17 3.7 C 40 %
2738 22-03-2021 00:11:17 3.5 C 40 %
2739 22-03-2021 00:21:18 3.5 C 40 %
2740 22-03-2021 00:31:17 3.3 C 40 %
2741 22-03-2021 00:41:17 2.9 C 40 %
2742 22-03-2021 00:51:17 3.2 C 40 %
2743 22-03-2021 01:01:17 3.4 C 40 %
2744 22-03-2021 01:11:17 3.2 C 40 %
2745 22-03-2021 01:21:18 3.5 C 40 %
2746 22-03-2021 01:31:18 3.6 C 40 %
2747 22-03-2021 01:41:18 3.5 C 40 %
2748 22-03-2021 01:51:18 3.8 C 40 %
2749 22-03-2021 02:01:18 3.8 C 40 %
2750 22-03-2021 02:11:18 3.8 C 41 %
Sensor: Nr:Datum:Temp:Feuchte:
Aussen-T/F 2751 22-03-2021 02:21:18 3.8 C 40 %
2752 22-03-2021 02:31:18 3.9 C 40 %
2753 22-03-2021 02:41:18 4 C 40 %
2754 22-03-2021 02:51:18 3.9 C 40 %
2755 22-03-2021 03:01:17 4 C 39 %
2756 22-03-2021 03:11:17 3.9 C 40 %
2757 22-03-2021 03:21:17 3.8 C 40 %
2758 22-03-2021 03:31:18 3.9 C 40 %
2759 22-03-2021 03:41:18 3.8 C 40 %
2760 22-03-2021 03:51:18 3.8 C 40 %
2761 22-03-2021 04:01:17 3.8 C 40 %
2762 22-03-2021 04:11:18 3.9 C 40 %
2763 22-03-2021 04:21:18 3.9 C 40 %
2764 22-03-2021 04:31:18 3.8 C 41 %
2765 22-03-2021 04:41:18 3.9 C 41 %
2766 22-03-2021 04:51:18 3.8 C 41 %
2767 22-03-2021 05:01:18 3.9 C 41 %
2768 22-03-2021 05:11:18 3.9 C 41 %
2769 22-03-2021 05:21:18 3.7 C 41 %
2770 22-03-2021 05:31:18 3.8 C 41 %
2771 22-03-2021 05:41:18 3.8 C 41 %
2772 22-03-2021 05:51:17 3.7 C 41 %
2773 22-03-2021 06:01:17 3.6 C 42 %
2774 22-03-2021 06:11:18 3.7 C 41 %
2775 22-03-2021 06:21:18 3.6 C 41 %
Sensor: Nr:Datum:Temp:Feuchte:
Aussen-T/F 2776 22-03-2021 06:31:18 3.2 C 42 %
2777 22-03-2021 06:41:18 3.4 C 42 %
2778 22-03-2021 06:51:18 3.6 C 42 %
2779 22-03-2021 07:01:17 3.7 C 42 %
2780 22-03-2021 07:11:17 3.8 C 42 %
2781 22-03-2021 07:21:17 3.9 C 42 %
2782 22-03-2021 07:31:17 4 C 41 %
2783 22-03-2021 07:41:17 4 C 41 %
2784 22-03-2021 07:51:17 4.3 C 41 %
2785 22-03-2021 08:01:17 4.3 C 41 %
2786 22-03-2021 08:11:18 4.7 C 41 %
2787 22-03-2021 08:21:18 4.8 C 41 %
2788 22-03-2021 08:31:17 5.1 C 40 %
2789 22-03-2021 08:41:17 5.2 C 40 %
2790 22-03-2021 08:51:18 5.6 C 39 %
2791 22-03-2021 09:01:17 5.8 C 39 %
2792 22-03-2021 09:11:17 5.8 C 39 %
2793 22-03-2021 09:21:17 6.1 C 38 %
2794 22-03-2021 09:31:17 5.9 C 38 %
2795 22-03-2021 09:41:17 6.1 C 38 %
2796 22-03-2021 09:51:17 5.9 C 39 %
2797 22-03-2021 10:01:17 5.7 C 39 %
2798 22-03-2021 10:11:17 6.3 C 39 %
2799 22-03-2021 10:21:17 6.2 C 39 %
2800 22-03-2021 10:31:18 6.5 C 38 %
Sensor: Nr:Datum:Temp:Feuchte:
Aussen-T/F 2801 22-03-2021 10:41:18 6.1 C 38 %
2802 22-03-2021 10:51:18 6.2 C 39 %
2803 22-03-2021 11:01:17 6.2 C 38 %
2804 22-03-2021 11:11:17 6.2 C 38 %
2805 22-03-2021 11:21:17 6.5 C 39 %
2806 22-03-2021 11:31:17 6.3 C 38 %
2807 22-03-2021 11:41:17 8.2 C 36 %
2808 22-03-2021 11:51:18 7.4 C 36 %
2809 22-03-2021 12:01:17 7.3 C 36 %
2810 22-03-2021 12:11:17 7.1 C 36 %
2811 22-03-2021 12:21:17 6.4 C 36 %
2812 22-03-2021 12:31:18 6.4 C 37 %
2813 22-03-2021 12:41:18 6 C 37 %
2814 22-03-2021 12:51:17 7 C 36 %
2815 22-03-2021 13:01:17 7.5 C 36 %
2816 22-03-2021 13:11:17 7 C 36 %
2817 22-03-2021 13:21:17 6.8 C 36 %
2818 22-03-2021 13:31:17 7.1 C 36 %
2819 22-03-2021 13:41:17 7.1 C 36 %
2820 22-03-2021 13:51:17 7.4 C 35 %
2821 22-03-2021 14:01:18 7.7 C 35 %
2822 22-03-2021 14:11:18 7.4 C 35 %
2823 22-03-2021 14:21:17 7.4 C 35 %
2824 22-03-2021 14:31:18 7.7 C 35 %
2825 22-03-2021 14:41:18 7.6 C 35 %
Sensor: Nr:Datum:Temp:Feuchte:
Aussen-T/F 2826 22-03-2021 14:51:17 7.1 C 35 %
2827 22-03-2021 15:01:17 7.1 C 36 %
2828 22-03-2021 15:11:17 7.3 C 36 %
2829 22-03-2021 15:21:18 7.3 C 36 %
2830 22-03-2021 15:31:17 7.3 C 36 %
2831 22-03-2021 15:41:17 7.5 C 36 %
2832 22-03-2021 15:51:18 7.3 C 36 %
2833 22-03-2021 16:01:17 7.1 C 36 %
2834 22-03-2021 16:11:17 7.3 C 36 %
2835 22-03-2021 16:21:17 7.4 C 36 %
2836 22-03-2021 16:31:18 7.5 C 36 %
2837 22-03-2021 16:41:18 7.3 C 36 %
2838 22-03-2021 16:51:17 7.1 C 36 %
2839 22-03-2021 17:01:18 6.9 C 37 %
2840 22-03-2021 17:11:18 6.8 C 37 %
2841 22-03-2021 17:21:17 6.7 C 37 %
2842 22-03-2021 17:31:17 6.7 C 37 %
2843 22-03-2021 17:41:17 6.7 C 37 %
2844 22-03-2021 17:51:18 6.7 C 37 %
2845 22-03-2021 18:01:18 6.6 C 37 %
2846 22-03-2021 18:11:18 6.6 C 37 %
2847 22-03-2021 18:21:17 6.5 C 37 %
2848 22-03-2021 18:31:17 6.4 C 37 %
2849 22-03-2021 18:41:17 6.3 C 37 %
2850 22-03-2021 18:51:17 6.3 C 37 %
Sensor: Nr:Datum:Temp:Feuchte:
Aussen-T/F 2851 22-03-2021 19:01:18 6.2 C 37 %
2852 22-03-2021 19:11:18 6.1 C 38 %
2853 22-03-2021 19:21:18 6 C 38 %
2854 22-03-2021 19:31:17 5.9 C 38 %
2855 22-03-2021 19:41:18 5.9 C 39 %
2856 22-03-2021 19:51:18 5.9 C 38 %
2857 22-03-2021 20:01:18 5.8 C 39 %
2858 22-03-2021 20:11:18 5.8 C 39 %
2859 22-03-2021 20:21:17 5.7 C 39 %
2860 22-03-2021 20:31:18 5.6 C 39 %
2861 22-03-2021 20:41:18 5.7 C 39 %
2862 22-03-2021 20:51:17 5.6 C 40 %
2863 22-03-2021 21:01:17 5.5 C 40 %
2864 22-03-2021 21:11:17 5.5 C 40 %
2865 22-03-2021 21:21:18 5.5 C 39 %
2866 22-03-2021 21:31:18 5.7 C 39 %
2867 22-03-2021 21:41:18 5.7 C 39 %
2868 22-03-2021 21:51:17 5.7 C 39 %
2869 22-03-2021 22:01:17 5.8 C 38 %
2870 22-03-2021 22:11:17 5.7 C 39 %
2871 22-03-2021 22:21:17 5.7 C 38 %
2872 22-03-2021 22:31:17 5.6 C 39 %
2873 22-03-2021 22:41:17 5.4 C 40 %
2874 22-03-2021 22:51:18 5.3 C 40 %
2875 22-03-2021 23:01:18 5.3 C 40 %
Sensor: Nr:Datum:Temp:Feuchte:
Aussen-T/F 2876 22-03-2021 23:11:18 5.1 C 40 %
2877 22-03-2021 23:21:17 5.2 C 40 %
2878 22-03-2021 23:31:17 5.1 C 40 %
2879 22-03-2021 23:41:18 5.2 C 40 %
2880 22-03-2021 23:51:18 5.1 C 40 %
2881 23-03-2021 00:01:17 5.1 C 40 %
2882 23-03-2021 00:11:17 4.9 C 41 %
2883 23-03-2021 00:21:17 4.8 C 41 %
2884 23-03-2021 00:31:17 4.8 C 41 %
2885 23-03-2021 00:41:18 4.7 C 41 %
2886 23-03-2021 00:51:18 4.7 C 41 %
2887 23-03-2021 01:01:17 4.7 C 41 %
2888 23-03-2021 01:11:17 4.7 C 41 %
2889 23-03-2021 01:21:18 4.7 C 41 %
2890 23-03-2021 01:31:17 4.6 C 42 %
2891 23-03-2021 01:41:17 4.5 C 42 %
2892 23-03-2021 01:51:17 4.5 C 41 %
2893 23-03-2021 02:01:18 4.5 C 41 %
2894 23-03-2021 02:11:18 4.4 C 42 %
2895 23-03-2021 02:21:18 4.3 C 42 %
2896 23-03-2021 02:31:18 4.3 C 42 %
2897 23-03-2021 02:41:18 4.3 C 41 %
2898 23-03-2021 02:51:17 4.4 C 41 %
2899 23-03-2021 03:01:17 4.3 C 41 %
2900 23-03-2021 03:11:17 4.3 C 41 %
Sensor: Nr:Datum:Temp:Feuchte:
Aussen-T/F 2901 23-03-2021 03:21:17 4.4 C 41 %
2902 23-03-2021 03:31:17 4.3 C 41 %
2903 23-03-2021 03:41:17 4.5 C 41 %
2904 23-03-2021 03:51:17 4.6 C 40 %
2905 23-03-2021 04:01:17 4.5 C 41 %
2906 23-03-2021 04:11:17 4.5 C 41 %
2907 23-03-2021 04:21:17 4.6 C 40 %
2908 23-03-2021 04:31:17 4.6 C 40 %
2909 23-03-2021 04:41:18 4.7 C 40 %
2910 23-03-2021 04:51:18 5 C 39 %
2911 23-03-2021 05:01:18 5.1 C 39 %
2912 23-03-2021 05:11:18 4.8 C 39 %
2913 23-03-2021 05:21:17 4.8 C 40 %
2914 23-03-2021 05:31:18 4.7 C 40 %
2915 23-03-2021 05:41:18 4.8 C 40 %
2916 23-03-2021 05:51:17 4.9 C 39 %
2917 23-03-2021 06:01:18 5.1 C 38 %
2918 23-03-2021 06:11:18 5.1 C 38 %
2919 23-03-2021 06:21:18 5.1 C 38 %
2920 23-03-2021 06:31:17 5.1 C 37 %
2921 23-03-2021 06:41:17 5.2 C 37 %
2922 23-03-2021 06:51:18 5.2 C 37 %
2923 23-03-2021 07:01:17 5.2 C 37 %
2924 23-03-2021 07:11:17 5.3 C 37 %
2925 23-03-2021 07:21:17 5.4 C 37 %
Sensor: Nr:Datum:Temp:Feuchte:
Aussen-T/F 2926 23-03-2021 07:31:17 5.3 C 37 %
2927 23-03-2021 07:41:17 5.3 C 37 %
2928 23-03-2021 07:51:18 5.5 C 37 %
2929 23-03-2021 08:01:17 5.6 C 37 %
2930 23-03-2021 08:11:17 5.7 C 37 %
2931 23-03-2021 08:21:17 5.8 C 37 %
2932 23-03-2021 08:31:17 5.9 C 36 %
2933 23-03-2021 08:41:17 5.9 C 36 %
2934 23-03-2021 08:51:17 6 C 36 %
2935 23-03-2021 09:01:17 6.3 C 36 %
2936 23-03-2021 09:11:17 6.3 C 35 %
2937 23-03-2021 09:21:17 6.2 C 35 %
2938 23-03-2021 09:31:17 6.4 C 35 %
2939 23-03-2021 09:41:17 6.4 C 35 %
2940 23-03-2021 09:51:17 6.5 C 35 %
2941 23-03-2021 10:01:17 6.5 C 35 %
2942 23-03-2021 10:11:18 6.8 C 35 %
2943 23-03-2021 10:21:18 7.1 C 35 %
2944 23-03-2021 10:31:17 7.1 C 35 %
2945 23-03-2021 10:41:18 7.1 C 35 %
2946 23-03-2021 10:51:18 7.4 C 35 %
2947 23-03-2021 11:01:17 7.4 C 35 %
2948 23-03-2021 11:11:17 7.5 C 35 %
2949 23-03-2021 11:21:18 7.4 C 35 %
2950 23-03-2021 11:31:17 8.1 C 34 %
Sensor: Nr:Datum:Temp:Feuchte:
Aussen-T/F 2951 23-03-2021 11:41:17 8.1 C 34 %
2952 23-03-2021 11:51:18 9.3 C 33 %
2953 23-03-2021 12:01:18 8.8 C 33 %
2954 23-03-2021 12:11:18 8.9 C 33 %
2955 23-03-2021 12:21:18 9.8 C 32 %
2956 23-03-2021 12:31:18 10.8 C 31 %
2957 23-03-2021 12:41:18 10.6 C 31 %
2958 23-03-2021 12:51:17 10.8 C 31 %
2959 23-03-2021 13:01:17 10.8 C 31 %
2960 23-03-2021 13:11:17 10.2 C 31 %
2961 23-03-2021 13:21:17 10.7 C 31 %
2962 23-03-2021 13:31:18 10.3 C 31 %
2963 23-03-2021 13:41:18 10.9 C 31 %
2964 23-03-2021 13:51:18 11.5 C 30 %
2965 23-03-2021 14:01:17 11.1 C 30 %
2966 23-03-2021 14:11:17 11.7 C 30 %
2967 23-03-2021 14:21:17 11.6 C 30 %
2968 23-03-2021 14:31:18 11 C 30 %
2969 23-03-2021 14:41:18 11.8 C 30 %
2970 23-03-2021 14:51:17 12 C 30 %
2971 23-03-2021 15:01:18 13 C 28 %
2972 23-03-2021 15:11:18 13.8 C 27 %
2973 23-03-2021 15:21:18 13.8 C 27 %
2974 23-03-2021 15:31:18 15.6 C 25 %
2975 23-03-2021 15:41:18 13.4 C 27 %
Sensor: Nr:Datum:Temp:Feuchte:
Aussen-T/F 2976 23-03-2021 15:51:17 15.3 C 25 %
2977 23-03-2021 16:01:17 14.3 C 26 %
2978 23-03-2021 16:11:17 13.2 C 26 %
2979 23-03-2021 16:21:17 13.3 C 26 %
2980 23-03-2021 16:31:18 13.7 C 26 %
2981 23-03-2021 16:41:18 14.6 C 26 %
2982 23-03-2021 16:51:18 13.4 C 26 %
2983 23-03-2021 17:01:18 11.9 C 29 %
2984 23-03-2021 17:11:18 11.7 C 29 %
2985 23-03-2021 17:21:17 11.5 C 30 %
2986 23-03-2021 17:31:17 11.4 C 30 %
2987 23-03-2021 17:41:18 10.8 C 30 %
2988 23-03-2021 17:51:17 10.7 C 30 %
2989 23-03-2021 18:01:17 10.1 C 30 %
2990 23-03-2021 18:11:17 9.6 C 33 %
2991 23-03-2021 18:21:18 8.7 C 35 %
2992 23-03-2021 18:31:18 8.2 C 35 %
2993 23-03-2021 18:41:18 7.7 C 35 %
2994 23-03-2021 18:51:17 7.3 C 36 %
2995 23-03-2021 19:01:17 6.7 C 37 %
2996 23-03-2021 19:11:17 6.4 C 37 %
2997 23-03-2021 19:21:17 6.3 C 37 %
2998 23-03-2021 19:31:18 6.1 C 37 %
2999 23-03-2021 19:41:18 6.1 C 37 %
3000 23-03-2021 19:51:17 5.5 C 39 %
Sensor: Nr:Datum:Temp:Feuchte:
Aussen-T/F 3001 23-03-2021 20:01:17 5.2 C 40 %
3002 23-03-2021 20:11:17 4.2 C 41 %
3003 23-03-2021 20:21:17 3.8 C 43 %
3004 23-03-2021 20:31:17 3.6 C 43 %
3005 23-03-2021 20:41:17 3.7 C 43 %
3006 23-03-2021 20:51:18 3.2 C 43 %
3007 23-03-2021 21:01:17 2.8 C 45 %
3008 23-03-2021 21:11:17 2.5 C 45 %
3009 23-03-2021 21:21:17 2.4 C 45 %
3010 23-03-2021 21:31:18 2.2 C 45 %
3011 23-03-2021 21:41:18 2 C 45 %
3012 23-03-2021 21:51:17 2.1 C 46 %
3013 23-03-2021 22:01:17 2 C 46 %
3014 23-03-2021 22:11:17 1.6 C 46 %
3015 23-03-2021 22:21:18 1.5 C 47 %
3016 23-03-2021 22:31:18 1.5 C 47 %
3017 23-03-2021 22:41:18 1.4 C 47 %
3018 23-03-2021 22:51:18 1.2 C 47 %
3019 23-03-2021 23:01:17 0.9 C 48 %
3020 23-03-2021 23:11:17 1 C 48 %
3021 23-03-2021 23:21:17 0.8 C 49 %
3022 23-03-2021 23:31:17 0.7 C 49 %
3023 23-03-2021 23:41:18 0.7 C 50 %
3024 23-03-2021 23:51:18 0.5 C 50 %
3025 24-03-2021 00:01:17 0.4 C 49 %
Sensor: Nr:Datum:Temp:Feuchte:
Aussen-T/F 3026 24-03-2021 00:11:17 0.1 C 50 %
3027 24-03-2021 00:21:18 0.2 C 50 %
3028 24-03-2021 00:31:17 0.1 C 50 %
3029 24-03-2021 00:41:17 -0.2 C 50 %
3030 24-03-2021 00:51:17 -0.1 C 50 %
3031 24-03-2021 01:01:17 0 C 50 %
3032 24-03-2021 01:11:17 0 C 50 %
3033 24-03-2021 01:21:17 -0.2 C 50 %
3034 24-03-2021 01:31:17 -0.3 C 50 %
3035 24-03-2021 01:41:17 -0.4 C 50 %
3036 24-03-2021 01:51:17 -0.6 C 50 %
3037 24-03-2021 02:01:17 -0.7 C 50 %
3038 24-03-2021 02:11:17 -0.8 C 50 %
3039 24-03-2021 02:21:17 -0.9 C 50 %
3040 24-03-2021 02:31:18 -1 C 50 %
3041 24-03-2021 02:41:18 -1.1 C 50 %
3042 24-03-2021 02:51:17 -1.3 C 50 %
3043 24-03-2021 03:01:17 -1.3 C 50 %
3044 24-03-2021 03:11:17 -1.2 C 50 %
3045 24-03-2021 03:21:17 -1.2 C 51 %
3046 24-03-2021 03:31:17 -1.4 C 51 %
3047 24-03-2021 03:41:17 -1.3 C 50 %
3048 24-03-2021 03:51:18 -1.2 C 51 %
3049 24-03-2021 04:01:18 -1.3 C 51 %
3050 24-03-2021 04:11:18 -1.1 C 51 %
Sensor: Nr:Datum:Temp:Feuchte:
Aussen-T/F 3051 24-03-2021 04:21:17 -1.5 C 50 %
3052 24-03-2021 04:31:17 -1.1 C 51 %
3053 24-03-2021 04:41:17 -1.2 C 51 %
3054 24-03-2021 04:51:17 -1.6 C 50 %
3055 24-03-2021 05:01:17 -1.3 C 51 %
3056 24-03-2021 05:11:17 -1.6 C 50 %
3057 24-03-2021 05:21:18 -1.6 C 50 %
3058 24-03-2021 05:31:18 -1.4 C 51 %
3059 24-03-2021 05:41:18 -1.7 C 50 %
3060 24-03-2021 05:51:18 -1.4 C 51 %
3061 24-03-2021 06:01:17 -1.6 C 51 %
3062 24-03-2021 06:11:17 -1.7 C 51 %
3063 24-03-2021 06:21:18 -1.7 C 50 %
3064 24-03-2021 06:31:17 -1.9 C 50 %
3065 24-03-2021 06:41:17 -1.7 C 50 %
3066 24-03-2021 06:51:18 -1.8 C 50 %
3067 24-03-2021 07:01:18 -1.4 C 51 %
3068 24-03-2021 07:11:18 -1.6 C 50 %
3069 24-03-2021 07:21:17 -1.4 C 50 %
3070 24-03-2021 07:31:18 -1.2 C 50 %
3071 24-03-2021 07:41:18 -1.2 C 50 %
3072 24-03-2021 07:51:17 -0.7 C 51 %
3073 24-03-2021 08:01:17 -0.8 C 50 %
3074 24-03-2021 08:11:18 -0.5 C 51 %
3075 24-03-2021 08:21:17 -0.3 C 51 %
Sensor: Nr:Datum:Temp:Feuchte:
Aussen-T/F 3076 24-03-2021 08:31:17 -0.1 C 51 %
3077 24-03-2021 08:41:17 0.2 C 51 %
3078 24-03-2021 08:51:17 0.7 C 51 %
3079 24-03-2021 09:01:18 0.7 C 51 %
3080 24-03-2021 09:11:18 0.8 C 51 %
3081 24-03-2021 09:21:17 1.2 C 50 %
3082 24-03-2021 09:31:18 1.7 C 50 %
3083 24-03-2021 09:41:18 2.5 C 49 %
3084 24-03-2021 09:51:17 3.1 C 48 %
3085 24-03-2021 10:01:17 4.6 C 46 %
3086 24-03-2021 10:11:17 5.1 C 44 %
3087 24-03-2021 10:21:17 5.8 C 43 %
3088 24-03-2021 10:31:17 6.9 C 41 %
3089 24-03-2021 10:41:17 8.4 C 40 %
3090 24-03-2021 10:51:18 9.3 C 37 %
3091 24-03-2021 11:01:17 10.6 C 36 %
3092 24-03-2021 11:11:17 12.9 C 31 %
3093 24-03-2021 11:21:18 13.8 C 30 %
3094 24-03-2021 11:31:17 14.7 C 28 %
3095 24-03-2021 11:41:17 13.2 C 29 %
3096 24-03-2021 11:51:17 13 C 29 %
3097 24-03-2021 12:01:18 15 C 26 %
3098 24-03-2021 12:11:18 15.4 C 26 %
3099 24-03-2021 12:21:18 15.5 C 26 %
3100 24-03-2021 12:31:17 15.2 C 26 %
Sensor: Nr:Datum:Temp:Feuchte:
Aussen-T/F 3101 24-03-2021 12:41:17 14.7 C 27 %
3102 24-03-2021 12:51:17 15.5 C 26 %
3103 24-03-2021 13:01:18 15.6 C 26 %
3104 24-03-2021 13:11:18 17 C 25 %
3105 24-03-2021 13:21:17 18.3 C 22 %
3106 24-03-2021 13:31:18 20.1 C 21 %
3107 24-03-2021 13:41:18 18.1 C 21 %
3108 24-03-2021 13:51:17 18.8 C 21 %
3109 24-03-2021 14:01:17 18.1 C 21 %
3110 24-03-2021 14:11:17 18.3 C 20 %
3111 24-03-2021 14:21:17 19.4 C 20 %
3112 24-03-2021 14:31:18 21.4 C 20 %
3113 24-03-2021 14:41:18 22.3 C 20 %
3114 24-03-2021 14:51:17 22.3 C 20 %
3115 24-03-2021 15:01:17 21.4 C 20 %
3116 24-03-2021 15:11:17 21.9 C 20 %
3117 24-03-2021 15:21:17 23 C 20 %
3118 24-03-2021 15:31:17 22.8 C 20 %
3119 24-03-2021 15:41:17 22.9 C 20 %
3120 24-03-2021 15:51:18 22.2 C 20 %
3121 24-03-2021 16:01:17 21.4 C 20 %
3122 24-03-2021 16:11:17 22.7 C 20 %
3123 24-03-2021 16:21:17 22 C 20 %
3124 24-03-2021 16:31:18 20.6 C 20 %
3125 24-03-2021 16:41:18 20.7 C 20 %
Sensor: Nr:Datum:Temp:Feuchte:
Aussen-T/F 3126 24-03-2021 16:51:18 18.7 C 20 %
3127 24-03-2021 17:01:18 18.3 C 20 %
3128 24-03-2021 17:11:18 17.6 C 20 %
3129 24-03-2021 17:21:17 17.5 C 20 %
3130 24-03-2021 17:31:18 17.2 C 20 %
3131 24-03-2021 17:41:18 16.8 C 21 %
3132 24-03-2021 17:51:18 16.4 C 22 %
3133 24-03-2021 18:01:18 15.6 C 23 %
3134 24-03-2021 18:11:18 14.4 C 25 %
3135 24-03-2021 18:21:17 13.5 C 26 %
3136 24-03-2021 18:31:17 12.9 C 28 %
3137 24-03-2021 18:41:17 11.9 C 30 %
3138 24-03-2021 18:51:17 11.7 C 30 %
3139 24-03-2021 19:01:18 11.4 C 30 %
3140 24-03-2021 19:11:18 11.2 C 30 %
3141 24-03-2021 19:21:18 11.1 C 30 %
3142 24-03-2021 19:31:18 10.6 C 31 %
3143 24-03-2021 19:41:18 10.5 C 31 %
3144 24-03-2021 19:51:18 10.2 C 31 %
3145 24-03-2021 20:01:18 10.2 C 31 %
3146 24-03-2021 20:11:18 9.8 C 33 %
3147 24-03-2021 20:21:18 9.7 C 33 %
3148 24-03-2021 20:31:17 9.4 C 33 %
3149 24-03-2021 20:41:17 9.2 C 34 %
3150 24-03-2021 20:51:18 8.6 C 35 %
Sensor: Nr:Datum:Temp:Feuchte:
Aussen-T/F 3151 24-03-2021 21:01:18 7.9 C 36 %
3152 24-03-2021 21:11:18 7.6 C 36 %
3153 24-03-2021 21:21:17 7.5 C 37 %
3154 24-03-2021 21:31:18 7.8 C 36 %
3155 24-03-2021 21:41:18 8.8 C 35 %
3156 24-03-2021 21:51:18 8.7 C 35 %
3157 24-03-2021 22:01:18 7.7 C 36 %
3158 24-03-2021 22:11:18 6.9 C 37 %
3159 24-03-2021 22:21:17 6 C 37 %
3160 24-03-2021 22:31:18 5.5 C 39 %
3161 24-03-2021 22:41:18 5.2 C 40 %
3162 24-03-2021 22:51:18 4.8 C 41 %
3163 24-03-2021 23:01:17 4.8 C 41 %
3164 24-03-2021 23:11:18 4.5 C 41 %
3165 24-03-2021 23:21:17 4.2 C 41 %
3166 24-03-2021 23:31:18 4.3 C 41 %
3167 24-03-2021 23:41:18 4.3 C 42 %
3168 24-03-2021 23:51:18 3.9 C 42 %
3169 25-03-2021 00:01:18 4.2 C 42 %
3170 25-03-2021 00:11:18 4 C 42 %
3171 25-03-2021 00:21:17 3.9 C 43 %
3172 25-03-2021 00:31:17 4.1 C 42 %
3173 25-03-2021 00:41:17 4.2 C 42 %
3174 25-03-2021 00:51:18 3.8 C 43 %
3175 25-03-2021 01:01:18 3.6 C 43 %
Sensor: Nr:Datum:Temp:Feuchte:
Aussen-T/F 3176 25-03-2021 01:11:18 3.8 C 43 %
3177 25-03-2021 01:21:17 3.5 C 43 %
3178 25-03-2021 01:31:18 3.2 C 44 %
3179 25-03-2021 01:41:18 3 C 44 %
3180 25-03-2021 01:51:18 2.7 C 45 %
3181 25-03-2021 02:01:17 2.6 C 46 %
3182 25-03-2021 02:11:17 2.3 C 46 %
3183 25-03-2021 02:21:17 2.2 C 46 %
3184 25-03-2021 02:31:17 2.2 C 46 %
3185 25-03-2021 02:41:17 2.1 C 47 %
3186 25-03-2021 02:51:18 1.8 C 47 %
3187 25-03-2021 03:01:17 1.8 C 48 %
3188 25-03-2021 03:11:17 1.6 C 48 %
3189 25-03-2021 03:21:17 1.6 C 48 %
3190 25-03-2021 03:31:17 1.5 C 48 %
3191 25-03-2021 03:41:17 1.4 C 49 %
3192 25-03-2021 03:51:17 1.4 C 49 %
3193 25-03-2021 04:01:17 1.5 C 49 %
3194 25-03-2021 04:11:17 1.2 C 49 %
3195 25-03-2021 04:21:17 1.4 C 49 %
3196 25-03-2021 04:31:17 1.2 C 49 %
3197 25-03-2021 04:41:18 1.5 C 50 %
3198 25-03-2021 04:51:17 1.1 C 49 %
3199 25-03-2021 05:01:17 1.2 C 50 %
3200 25-03-2021 05:11:17 1.1 C 50 %
Sensor: Nr:Datum:Temp:Feuchte:
Aussen-T/F 3201 25-03-2021 05:21:18 0.9 C 50 %
3202 25-03-2021 05:31:18 0.8 C 50 %
3203 25-03-2021 05:41:18 1 C 50 %
3204 25-03-2021 05:51:18 0.7 C 50 %
3205 25-03-2021 06:01:18 0.6 C 51 %
3206 25-03-2021 06:11:18 0.3 C 50 %
3207 25-03-2021 06:21:17 0.5 C 51 %
3208 25-03-2021 06:31:17 0.8 C 51 %
3209 25-03-2021 06:41:17 0.8 C 51 %
3210 25-03-2021 06:51:17 0.9 C 51 %
3211 25-03-2021 07:01:17 1.1 C 50 %
3212 25-03-2021 07:11:17 1.3 C 50 %
3213 25-03-2021 07:21:18 1.5 C 50 %
3214 25-03-2021 07:31:17 2.2 C 50 %
3215 25-03-2021 07:41:17 3.2 C 49 %
3216 25-03-2021 07:52:17 3.7 C 48 %
3217 25-03-2021 08:01:18 4.1 C 45 %
3218 25-03-2021 08:11:18 4.7 C 42 %
3219 25-03-2021 08:21:18 5.1 C 42 %
3220 25-03-2021 08:31:17 5.1 C 41 %
3221 25-03-2021 08:41:17 5 C 40 %
3222 25-03-2021 08:51:17 5.4 C 40 %
3223 25-03-2021 09:01:18 5.9 C 40 %
3224 25-03-2021 09:11:18 6.5 C 40 %
3225 25-03-2021 09:21:18 6.8 C 38 %
Sensor: Nr:Datum:Temp:Feuchte:
Aussen-T/F 3226 25-03-2021 09:32:17 7.5 C 38 %
3227 25-03-2021 09:42:17 8.7 C 37 %
3228 25-03-2021 09:51:18 9.5 C 36 %
3229 25-03-2021 10:01:17 10.2 C 35 %
3230 25-03-2021 10:11:17 10.5 C 35 %
3231 25-03-2021 10:21:17 10.6 C 35 %
3232 25-03-2021 10:31:17 11.8 C 34 %
3233 25-03-2021 10:41:17 12.3 C 32 %
3234 25-03-2021 10:51:17 12.4 C 32 %
3235 25-03-2021 11:01:17 13 C 31 %
3236 25-03-2021 11:11:18 13.6 C 31 %
3237 25-03-2021 11:21:18 13.6 C 30 %
3238 25-03-2021 11:31:18 14.1 C 30 %
3239 25-03-2021 11:41:18 14.8 C 30 %
3240 25-03-2021 11:52:17 14.6 C 30 %
3241 25-03-2021 12:01:17 13.6 C 30 %
3242 25-03-2021 12:11:17 13.6 C 30 %
3243 25-03-2021 12:21:17 14.2 C 30 %
3244 25-03-2021 12:31:18 14 C 30 %
3245 25-03-2021 12:41:18 14.2 C 30 %
3246 25-03-2021 12:52:17 14.7 C 30 %
3247 25-03-2021 13:01:18 16 C 28 %
3248 25-03-2021 13:11:18 15.7 C 29 %
3249 25-03-2021 13:22:17 17.7 C 27 %
3250 25-03-2021 13:31:18 18.4 C 26 %
Sensor: Nr:Datum:Temp:Feuchte:
Aussen-T/F 3251 25-03-2021 13:41:18 18.7 C 25 %
3252 25-03-2021 13:52:17 18.3 C 25 %
3253 25-03-2021 14:01:18 16.5 C 26 %
3254 25-03-2021 14:11:18 18.1 C 26 %
3255 25-03-2021 14:22:17 20.1 C 24 %
3256 25-03-2021 14:31:18 21.1 C 22 %
3257 25-03-2021 14:41:18 21.7 C 22 %
3258 25-03-2021 14:51:18 19.8 C 23 %
3259 25-03-2021 15:02:17 21.8 C 21 %
3260 25-03-2021 15:12:17 20.9 C 22 %
3261 25-03-2021 15:22:17 21.7 C 21 %
3262 25-03-2021 15:31:18 18.7 C 25 %
3263 25-03-2021 15:41:18 17.9 C 25 %
3264 25-03-2021 15:52:17 16.5 C 26 %
3265 25-03-2021 16:02:18 15.7 C 26 %
3266 25-03-2021 16:11:18 15.3 C 27 %
3267 25-03-2021 16:21:18 15.3 C 26 %
3268 25-03-2021 16:31:18 15.3 C 26 %
3269 25-03-2021 16:41:18 15.1 C 26 %
3270 25-03-2021 16:51:18 15 C 26 %
3271 25-03-2021 17:02:17 14.7 C 27 %
3272 25-03-2021 17:12:17 14.3 C 27 %
3273 25-03-2021 17:21:18 14.1 C 28 %
3274 25-03-2021 17:32:17 13.7 C 29 %
3275 25-03-2021 17:42:18 13.5 C 29 %
Sensor: Nr:Datum:Temp:Feuchte:
Aussen-T/F 3276 25-03-2021 17:52:17 13.1 C 30 %
3277 25-03-2021 18:02:18 12.8 C 30 %
3278 25-03-2021 18:11:18 12.5 C 31 %
3279 25-03-2021 18:22:17 12.4 C 31 %
3280 25-03-2021 18:32:18 12.1 C 32 %
3281 25-03-2021 18:42:18 12.1 C 31 %
3282 25-03-2021 18:52:17 12 C 31 %
3283 25-03-2021 19:02:17 11.9 C 32 %
3284 25-03-2021 19:12:17 11.6 C 33 %
3285 25-03-2021 19:22:17 11.6 C 33 %
3286 25-03-2021 19:32:18 11.3 C 33 %
3287 25-03-2021 19:42:18 10.7 C 35 %
3288 25-03-2021 19:52:17 10.6 C 35 %
3289 25-03-2021 20:02:18 10.7 C 35 %
3290 25-03-2021 20:11:18 10.7 C 35 %
3291 25-03-2021 20:22:17 10.6 C 35 %
3292 25-03-2021 20:32:18 10.4 C 36 %
3293 25-03-2021 20:42:18 10.1 C 36 %
3294 25-03-2021 20:51:18 10.2 C 36 %
3295 25-03-2021 21:02:17 10.2 C 36 %
3296 25-03-2021 21:12:18 9.9 C 37 %
3297 25-03-2021 21:21:18 9.4 C 38 %
3298 25-03-2021 21:32:17 9.2 C 38 %
3299 25-03-2021 21:42:17 9.1 C 38 %
3300 25-03-2021 21:52:18 8.5 C 39 %
Sensor: Nr:Datum:Temp:Feuchte:
Aussen-T/F 3301 25-03-2021 22:01:18 8.9 C 39 %
3302 25-03-2021 22:11:18 8.1 C 39 %
3303 25-03-2021 22:22:18 8.2 C 40 %
3304 25-03-2021 22:32:17 7.6 C 40 %
3305 25-03-2021 22:42:17 7.5 C 41 %
3306 25-03-2021 22:52:18 7.3 C 40 %
3307 25-03-2021 23:02:17 7 C 41 %
3308 25-03-2021 23:12:17 6.7 C 42 %
3309 25-03-2021 23:22:18 6.3 C 42 %
3310 25-03-2021 23:32:17 6.1 C 43 %
3311 25-03-2021 23:42:18 6.1 C 44 %
3312 25-03-2021 23:52:18 6.1 C 44 %
3313 26-03-2021 00:02:18 6 C 44 %
3314 26-03-2021 00:12:18 5.9 C 45 %
3315 26-03-2021 00:22:18 5.5 C 45 %
3316 26-03-2021 00:32:17 5.3 C 45 %
3317 26-03-2021 00:42:18 5 C 45 %
3318 26-03-2021 00:52:18 5.1 C 45 %
3319 26-03-2021 01:02:18 5.4 C 46 %
3320 26-03-2021 01:12:18 5.6 C 46 %
3321 26-03-2021 01:21:18 5.5 C 46 %
3322 26-03-2021 01:32:17 5.7 C 46 %
3323 26-03-2021 01:42:17 6 C 45 %
3324 26-03-2021 01:52:18 6 C 45 %
3325 26-03-2021 02:02:18 6 C 45 %
Sensor: Nr:Datum:Temp:Feuchte:
Aussen-T/F 3326 26-03-2021 02:12:19 5.9 C 45 %
3327 26-03-2021 02:22:18 6 C 45 %
3328 26-03-2021 02:32:18 5.9 C 45 %
3329 26-03-2021 02:42:19 5.7 C 45 %
3330 26-03-2021 02:52:18 5.7 C 45 %
3331 26-03-2021 03:02:17 5.8 C 45 %
3332 26-03-2021 03:12:18 5.9 C 45 %
3333 26-03-2021 03:22:18 6.3 C 44 %
3334 26-03-2021 03:32:18 6.1 C 44 %
3335 26-03-2021 03:42:18 6.1 C 44 %
3336 26-03-2021 03:52:17 6.3 C 43 %
3337 26-03-2021 04:02:17 6 C 43 %
3338 26-03-2021 04:12:17 5.5 C 44 %
3339 26-03-2021 04:22:18 4.8 C 45 %
3340 26-03-2021 04:32:17 4.4 C 45 %
3341 26-03-2021 04:42:17 4 C 46 %
3342 26-03-2021 04:52:18 3.8 C 47 %
3343 26-03-2021 05:02:17 3.7 C 47 %
3344 26-03-2021 05:12:17 3.7 C 48 %
3345 26-03-2021 05:22:18 3.4 C 47 %
3346 26-03-2021 05:32:17 3.2 C 48 %
3347 26-03-2021 05:42:17 3.1 C 48 %
3348 26-03-2021 05:52:18 3 C 48 %
3349 26-03-2021 06:02:18 2.8 C 49 %
3350 26-03-2021 06:12:18 2.7 C 49 %
Sensor: Nr:Datum:Temp:Feuchte:
Aussen-T/F 3351 26-03-2021 06:22:18 2.5 C 49 %
3352 26-03-2021 06:32:17 2.5 C 50 %
3353 26-03-2021 06:42:17 2.4 C 50 %
3354 26-03-2021 06:52:18 2.6 C 50 %
3355 26-03-2021 07:02:17 2.9 C 50 %
3356 26-03-2021 07:12:17 3.5 C 49 %
3357 26-03-2021 07:22:17 3.8 C 49 %
3358 26-03-2021 07:32:18 3.9 C 49 %
3359 26-03-2021 07:42:18 3.8 C 49 %
3360 26-03-2021 07:52:17 3.7 C 49 %
3361 26-03-2021 08:02:17 3.7 C 49 %
3362 26-03-2021 08:12:17 3.8 C 49 %
3363 26-03-2021 08:22:18 4 C 48 %
3364 26-03-2021 08:32:17 4.3 C 48 %
3365 26-03-2021 08:42:17 4.6 C 49 %
3366 26-03-2021 08:52:18 5 C 48 %
3367 26-03-2021 09:02:18 5.4 C 48 %
3368 26-03-2021 09:12:18 5.7 C 48 %
3369 26-03-2021 09:22:17 6.1 C 47 %
3370 26-03-2021 09:32:18 6.4 C 47 %
3371 26-03-2021 09:42:18 7 C 46 %
3372 26-03-2021 09:52:18 7.9 C 45 %
3373 26-03-2021 10:02:18 8.9 C 42 %
3374 26-03-2021 10:12:18 9.7 C 40 %
3375 26-03-2021 10:22:18 10.5 C 40 %
Sensor: Nr:Datum:Temp:Feuchte:
Aussen-T/F 3376 26-03-2021 10:32:17 11.3 C 38 %
3377 26-03-2021 10:42:17 11.4 C 36 %
3378 26-03-2021 10:52:18 12.3 C 34 %
3379 26-03-2021 11:02:17 13.2 C 31 %
3380 26-03-2021 11:12:17 13.3 C 31 %
3381 26-03-2021 11:22:18 15.7 C 29 %
3382 26-03-2021 11:32:18 16.6 C 27 %
3383 26-03-2021 11:42:18 16.8 C 26 %
3384 26-03-2021 11:52:17 16.5 C 26 %
3385 26-03-2021 12:02:17 15.5 C 26 %
3386 26-03-2021 12:12:18 14.8 C 27 %
3387 26-03-2021 12:22:18 15.9 C 26 %
3388 26-03-2021 12:32:18 16.6 C 26 %
3389 26-03-2021 12:42:18 15.7 C 27 %
3390 26-03-2021 12:52:17 16.8 C 26 %
3391 26-03-2021 13:02:17 17.3 C 26 %
3392 26-03-2021 13:12:17 16.6 C 26 %
3393 26-03-2021 13:22:17 16.9 C 25 %
3394 26-03-2021 13:32:18 16.9 C 25 %
3395 26-03-2021 13:42:18 18.1 C 25 %
3396 26-03-2021 13:52:18 18.9 C 24 %
3397 26-03-2021 14:02:18 15.7 C 25 %
3398 26-03-2021 14:12:18 18.4 C 24 %
3399 26-03-2021 14:22:18 18.9 C 23 %
3400 26-03-2021 14:32:17 20.8 C 22 %
Sensor: Nr:Datum:Temp:Feuchte:
Aussen-T/F 3401 26-03-2021 14:42:17 17.6 C 23 %
3402 26-03-2021 14:52:17 17.3 C 24 %
3403 26-03-2021 15:02:18 19 C 22 %
3404 26-03-2021 15:12:18 17.8 C 23 %
3405 26-03-2021 15:22:18 18.4 C 23 %
3406 26-03-2021 15:32:17 20.9 C 21 %
3407 26-03-2021 15:42:17 16.9 C 24 %
3408 26-03-2021 15:52:18 17 C 25 %
3409 26-03-2021 16:02:17 16.9 C 24 %
3410 26-03-2021 16:12:17 16.9 C 25 %
3411 26-03-2021 16:22:18 17.3 C 23 %
3412 26-03-2021 16:32:18 17.3 C 24 %
3413 26-03-2021 16:42:18 17.1 C 23 %
3414 26-03-2021 16:52:18 16.8 C 24 %
3415 26-03-2021 17:02:18 15.7 C 25 %
3416 26-03-2021 17:12:18 15.7 C 25 %
3417 26-03-2021 17:22:18 15.6 C 25 %
3418 26-03-2021 17:32:17 15.4 C 25 %
3419 26-03-2021 17:42:17 15.7 C 25 %
3420 26-03-2021 17:52:18 15.7 C 25 %
3421 26-03-2021 18:02:17 15.3 C 25 %
3422 26-03-2021 18:12:17 15.1 C 25 %
3423 26-03-2021 18:22:18 14.8 C 26 %
3424 26-03-2021 18:32:18 14.6 C 26 %
3425 26-03-2021 18:42:18 13.5 C 28 %
Sensor: Nr:Datum:Temp:Feuchte:
Aussen-T/F 3426 26-03-2021 18:52:17 12.7 C 30 %
3427 26-03-2021 19:02:17 12 C 30 %
3428 26-03-2021 19:12:17 11.9 C 32 %
3429 26-03-2021 19:22:18 11.7 C 32 %
3430 26-03-2021 19:32:17 11.8 C 32 %
3431 26-03-2021 19:42:18 11.3 C 31 %
3432 26-03-2021 19:52:18 11.4 C 31 %
3433 26-03-2021 20:02:17 11.2 C 32 %
3434 26-03-2021 20:12:17 11.4 C 31 %
3435 26-03-2021 20:22:17 11 C 31 %
3436 26-03-2021 20:32:17 11.1 C 31 %
3437 26-03-2021 20:42:18 10.5 C 32 %
3438 26-03-2021 20:52:17 10.3 C 32 %
3439 26-03-2021 21:02:18 10.2 C 32 %
3440 26-03-2021 21:12:18 10 C 32 %
3441 26-03-2021 21:22:18 9.5 C 34 %
3442 26-03-2021 21:32:17 9.2 C 35 %
3443 26-03-2021 21:42:17 9.3 C 35 %
3444 26-03-2021 21:52:17 9.2 C 35 %
3445 26-03-2021 22:02:17 8.8 C 35 %
3446 26-03-2021 22:12:17 8.6 C 36 %
3447 26-03-2021 22:22:18 8.7 C 35 %
3448 26-03-2021 22:32:18 8.5 C 36 %
3449 26-03-2021 22:42:18 8.7 C 36 %
3450 26-03-2021 22:52:18 8.4 C 36 %
Sensor: Nr:Datum:Temp:Feuchte:
Aussen-T/F 3451 26-03-2021 23:02:18 8.9 C 35 %
3452 26-03-2021 23:12:18 8.8 C 36 %
3453 26-03-2021 23:22:17 8.5 C 35 %
3454 26-03-2021 23:32:17 7.8 C 36 %
3455 26-03-2021 23:42:17 7.6 C 37 %
3456 26-03-2021 23:52:18 7.5 C 37 %
3457 27-03-2021 00:02:18 7.4 C 37 %
3458 27-03-2021 00:12:18 7.4 C 37 %
3459 27-03-2021 00:22:18 7.7 C 38 %
3460 27-03-2021 00:32:17 9 C 35 %
3461 27-03-2021 00:42:17 9.2 C 35 %
3462 27-03-2021 00:52:18 9.3 C 35 %
3463 27-03-2021 01:02:18 9 C 36 %
3464 27-03-2021 01:12:18 8.7 C 39 %
3465 27-03-2021 01:22:17 9.5 C 36 %
3466 27-03-2021 01:32:17 10.1 C 35 %
3467 27-03-2021 01:42:18 10.3 C 35 %
3468 27-03-2021 01:52:18 10.2 C 35 %
3469 27-03-2021 02:02:18 9.6 C 36 %
3470 27-03-2021 02:12:18 9.5 C 36 %
3471 27-03-2021 02:22:17 10.3 C 35 %
3472 27-03-2021 02:32:17 10.2 C 35 %
3473 27-03-2021 02:42:17 9.9 C 36 %
3474 27-03-2021 02:52:17 8.6 C 36 %
3475 27-03-2021 03:02:18 8.4 C 35 %
Sensor: Nr:Datum:Temp:Feuchte:
Aussen-T/F 3476 27-03-2021 03:12:18 7.5 C 36 %
3477 27-03-2021 03:22:17 7.1 C 37 %
3478 27-03-2021 03:32:18 7 C 36 %
3479 27-03-2021 03:42:18 6.7 C 37 %
3480 27-03-2021 03:52:17 7 C 36 %
3481 27-03-2021 04:02:18 7 C 36 %
3482 27-03-2021 04:12:18 6.9 C 37 %
3483 27-03-2021 04:22:17 6.8 C 37 %
3484 27-03-2021 04:32:17 6.9 C 36 %
3485 27-03-2021 04:42:17 6.9 C 36 %
3486 27-03-2021 04:52:17 6.7 C 37 %
3487 27-03-2021 05:02:18 6.6 C 36 %
3488 27-03-2021 05:12:18 6.6 C 36 %
3489 27-03-2021 05:22:17 6.4 C 36 %
3490 27-03-2021 05:32:17 6.2 C 36 %
3491 27-03-2021 05:42:18 6 C 36 %
3492 27-03-2021 05:52:17 5.8 C 36 %
3493 27-03-2021 06:02:17 5.3 C 37 %
3494 27-03-2021 06:12:17 5.3 C 37 %
3495 27-03-2021 06:22:18 5.4 C 37 %
3496 27-03-2021 06:32:17 5.4 C 37 %
3497 27-03-2021 06:42:18 5.1 C 37 %
3498 27-03-2021 06:52:18 5.3 C 37 %
3499 27-03-2021 07:02:17 5.3 C 37 %
3500 27-03-2021 07:12:17 5.6 C 37 %
Sensor: Nr:Datum:Temp:Feuchte:
Aussen-T/F 3501 27-03-2021 07:22:18 5.4 C 37 %
3502 27-03-2021 07:32:17 5.8 C 37 %
3503 27-03-2021 07:42:17 6 C 36 %
3504 27-03-2021 07:52:17 6.2 C 36 %
3505 27-03-2021 08:02:18 6.2 C 36 %
3506 27-03-2021 08:12:18 6.1 C 36 %
3507 27-03-2021 08:22:17 6.7 C 36 %
3508 27-03-2021 08:32:17 6.9 C 36 %
3509 27-03-2021 08:42:17 7.1 C 35 %
3510 27-03-2021 08:52:18 6.9 C 36 %
3511 27-03-2021 09:02:17 5.8 C 39 %
3512 27-03-2021 09:12:17 6.9 C 37 %
3513 27-03-2021 09:22:18 7.4 C 35 %
3514 27-03-2021 09:32:18 7.6 C 35 %
3515 27-03-2021 09:42:18 8 C 35 %
3516 27-03-2021 09:52:18 7.9 C 35 %
3517 27-03-2021 10:02:17 8.4 C 34 %
3518 27-03-2021 10:12:17 7.9 C 34 %
3519 27-03-2021 10:22:18 7.3 C 35 %
3520 27-03-2021 10:32:18 4.7 C 40 %
3521 27-03-2021 10:42:18 4.1 C 42 %
3522 27-03-2021 10:52:17 4.5 C 42 %
3523 27-03-2021 11:02:17 5.5 C 40 %
3524 27-03-2021 11:12:17 6 C 39 %
3525 27-03-2021 11:22:17 7 C 38 %
Sensor: Nr:Datum:Temp:Feuchte:
Aussen-T/F 3526 27-03-2021 11:32:17 7.5 C 37 %
3527 27-03-2021 11:42:17 7.9 C 37 %
3528 27-03-2021 11:52:17 7.7 C 35 %
3529 27-03-2021 12:02:18 5.7 C 40 %
3530 27-03-2021 12:12:18 7 C 39 %
3531 27-03-2021 12:22:17 9.1 C 36 %
3532 27-03-2021 12:32:17 9.2 C 35 %
3533 27-03-2021 12:42:17 9.2 C 35 %
3534 27-03-2021 12:52:18 8.8 C 36 %
3535 27-03-2021 13:02:18 7.8 C 36 %
3536 27-03-2021 13:12:18 6.3 C 39 %
3537 27-03-2021 13:22:17 6.8 C 39 %
3538 27-03-2021 13:32:18 7.9 C 37 %
3539 27-03-2021 13:42:18 7 C 36 %
3540 27-03-2021 13:52:18 6.6 C 37 %
3541 27-03-2021 14:02:18 6.5 C 37 %
3542 27-03-2021 14:12:18 7.1 C 36 %
3543 27-03-2021 14:22:18 10.1 C 32 %
3544 27-03-2021 14:32:18 11.1 C 30 %
3545 27-03-2021 14:42:18 12.8 C 30 %
3546 27-03-2021 14:52:18 11.4 C 29 %
3547 27-03-2021 15:02:18 8.9 C 31 %
3548 27-03-2021 15:12:18 9.1 C 31 %
3549 27-03-2021 15:22:17 9.2 C 30 %
3550 27-03-2021 15:32:17 9.5 C 30 %
Sensor: Nr:Datum:Temp:Feuchte:
Aussen-T/F 3551 27-03-2021 15:42:17 9.4 C 30 %
3552 27-03-2021 15:52:17 9.8 C 30 %
3553 27-03-2021 16:02:17 9.8 C 30 %
3554 27-03-2021 16:12:17 10 C 30 %
3555 27-03-2021 16:22:18 9.6 C 31 %
3556 27-03-2021 16:32:18 9.5 C 31 %
3557 27-03-2021 16:42:18 9.6 C 31 %
3558 27-03-2021 16:52:18 9.5 C 31 %
3559 27-03-2021 17:02:18 9.2 C 32 %
3560 27-03-2021 17:12:18 9.3 C 32 %
3561 27-03-2021 17:22:17 9 C 32 %
3562 27-03-2021 17:32:18 9 C 33 %
3563 27-03-2021 17:42:18 8.2 C 33 %
3564 27-03-2021 17:52:19 7.9 C 35 %
3565 27-03-2021 18:02:18 6.9 C 37 %
3566 27-03-2021 18:12:18 5.7 C 38 %
3567 27-03-2021 18:22:17 5.3 C 42 %
3568 27-03-2021 18:32:18 5.1 C 42 %
3569 27-03-2021 18:42:18 4.7 C 43 %
3570 27-03-2021 18:52:18 4.5 C 44 %
3571 27-03-2021 19:02:18 4.3 C 45 %
3572 27-03-2021 19:12:18 4.3 C 45 %
3573 27-03-2021 19:22:18 4.9 C 42 %
3574 27-03-2021 19:32:18 4.6 C 43 %
3575 27-03-2021 19:42:18 4.8 C 42 %
Sensor: Nr:Datum:Temp:Feuchte:
Aussen-T/F 3576 27-03-2021 19:52:17 4.8 C 42 %
3577 27-03-2021 20:02:18 4.6 C 42 %
3578 27-03-2021 20:12:18 4.1 C 43 %
3579 27-03-2021 20:22:17 4.2 C 43 %
3580 27-03-2021 20:32:17 4.2 C 43 %
3581 27-03-2021 20:42:17 4.9 C 42 %
3582 27-03-2021 20:52:17 4.9 C 42 %
3583 27-03-2021 21:02:17 4.9 C 42 %
3584 27-03-2021 21:12:17 5.3 C 41 %
3585 27-03-2021 21:22:18 4.9 C 42 %
3586 27-03-2021 21:32:18 5 C 41 %
3587 27-03-2021 21:42:18 4.3 C 42 %
3588 27-03-2021 21:52:18 4.1 C 43 %
3589 27-03-2021 22:02:17 3.7 C 44 %
3590 27-03-2021 22:12:17 3.9 C 45 %
3591 27-03-2021 22:22:18 3.7 C 44 %
3592 27-03-2021 22:32:17 4.3 C 42 %
3593 27-03-2021 22:42:17 3.9 C 43 %
3594 27-03-2021 22:52:17 4.1 C 42 %
3595 27-03-2021 23:02:18 3.5 C 43 %
3596 27-03-2021 23:12:18 3.2 C 45 %
3597 27-03-2021 23:22:18 3.1 C 46 %
3598 27-03-2021 23:32:17 3.1 C 46 %
3599 27-03-2021 23:42:17 3.6 C 44 %
3600 27-03-2021 23:52:18 3.7 C 44 %
Sensor: Nr:Datum:Temp:Feuchte:
Aussen-T/F 3601 28-03-2021 00:02:17 3.5 C 44 %
3602 28-03-2021 00:12:17 3.3 C 44 %
3603 28-03-2021 00:22:17 3.8 C 44 %
3604 28-03-2021 00:32:17 3.7 C 44 %
3605 28-03-2021 00:42:17 3.5 C 44 %
3606 28-03-2021 00:52:18 3 C 45 %
3607 28-03-2021 01:02:17 3.4 C 45 %
3608 28-03-2021 01:12:17 3.5 C 45 %
3609 28-03-2021 01:22:17 4.1 C 44 %
3610 28-03-2021 01:32:17 4.1 C 44 %
3611 28-03-2021 01:42:17 4.2 C 43 %
3612 28-03-2021 01:52:17 4.4 C 43 %
3613 28-03-2021 02:02:17 4.4 C 43 %
3614 28-03-2021 02:12:17 4.4 C 42 %
3615 28-03-2021 02:22:17 4.4 C 43 %
3616 28-03-2021 02:32:17 4.6 C 43 %
3617 28-03-2021 02:42:18 4.7 C 42 %
3618 28-03-2021 02:52:18 4.6 C 43 %
3619 28-03-2021 04:02:18 4.7 C 43 %
3620 28-03-2021 04:12:18 4.8 C 43 %
3621 28-03-2021 04:22:18 4.8 C 43 %
3622 28-03-2021 04:32:17 4.8 C 43 %
3623 28-03-2021 04:42:17 4.8 C 43 %
3624 28-03-2021 04:52:18 4.8 C 43 %
3625 28-03-2021 05:02:17 4.6 C 43 %
Sensor: Nr:Datum:Temp:Feuchte:
Aussen-T/F 3626 28-03-2021 05:12:17 4.3 C 43 %
3627 28-03-2021 05:22:17 4.5 C 43 %
3628 28-03-2021 05:32:18 4.2 C 43 %
3629 28-03-2021 05:42:18 4 C 43 %
3630 28-03-2021 05:52:18 3.9 C 45 %
3631 28-03-2021 06:02:17 3.8 C 45 %
3632 28-03-2021 06:12:18 3.8 C 45 %
3633 28-03-2021 06:22:17 3.8 C 45 %
3634 28-03-2021 06:32:17 3.7 C 45 %
3635 28-03-2021 06:42:17 3.9 C 45 %
3636 28-03-2021 06:52:17 3.9 C 45 %
3637 28-03-2021 07:02:18 4.1 C 43 %
3638 28-03-2021 07:12:18 4.3 C 43 %
3639 28-03-2021 07:22:17 4.7 C 42 %
3640 28-03-2021 07:32:18 4.8 C 42 %
3641 28-03-2021 07:42:18 5.3 C 41 %
3642 28-03-2021 07:52:18 5.3 C 41 %
3643 28-03-2021 08:02:17 5.4 C 41 %
3644 28-03-2021 08:12:18 5.4 C 41 %
3645 28-03-2021 08:22:17 5.6 C 41 %
3646 28-03-2021 08:32:18 5.7 C 41 %
3647 28-03-2021 08:42:18 6 C 40 %
3648 28-03-2021 08:52:18 5.8 C 41 %
3649 28-03-2021 09:02:17 6 C 40 %
3650 28-03-2021 09:12:17 6.4 C 40 %
Sensor: Nr:Datum:Temp:Feuchte:
Aussen-T/F 3651 28-03-2021 09:22:18 6.7 C 40 %
3652 28-03-2021 09:32:18 7.1 C 39 %
3653 28-03-2021 09:42:18 7.2 C 39 %
3654 28-03-2021 09:52:18 7.5 C 39 %
3655 28-03-2021 10:02:17 7.6 C 38 %
3656 28-03-2021 10:12:18 7 C 39 %
3657 28-03-2021 10:22:18 7 C 40 %
3658 28-03-2021 10:32:17 8.5 C 37 %
3659 28-03-2021 10:42:17 10.3 C 35 %
3660 28-03-2021 10:52:17 10.8 C 35 %
3661 28-03-2021 11:02:17 10.8 C 34 %
3662 28-03-2021 11:12:17 11.4 C 33 %
3663 28-03-2021 11:22:17 11.2 C 33 %
3664 28-03-2021 11:32:17 11.8 C 33 %
3665 28-03-2021 11:42:17 12.5 C 32 %
3666 28-03-2021 11:52:17 12.2 C 31 %
3667 28-03-2021 12:02:18 13.1 C 30 %
3668 28-03-2021 12:12:18 13 C 29 %
3669 28-03-2021 12:22:18 13.2 C 28 %
3670 28-03-2021 12:32:18 14.4 C 27 %
3671 28-03-2021 12:42:18 13.1 C 27 %
3672 28-03-2021 12:52:17 13.7 C 28 %
3673 28-03-2021 13:02:17 13.8 C 27 %
3674 28-03-2021 13:12:17 14.4 C 26 %
3675 28-03-2021 13:22:18 13.4 C 26 %
Sensor: Nr:Datum:Temp:Feuchte:
Aussen-T/F 3676 28-03-2021 13:32:18 14.8 C 26 %
3677 28-03-2021 13:42:18 14 C 26 %
3678 28-03-2021 13:52:18 14.4 C 26 %
3679 28-03-2021 14:02:18 14.7 C 26 %
3680 28-03-2021 14:12:18 15.6 C 25 %
3681 28-03-2021 14:22:18 16.2 C 25 %
3682 28-03-2021 14:32:18 16.3 C 25 %
3683 28-03-2021 14:42:18 15.3 C 25 %
3684 28-03-2021 14:52:18 16.5 C 25 %
3685 28-03-2021 15:02:18 15.9 C 25 %
3686 28-03-2021 15:12:18 17.3 C 24 %
3687 28-03-2021 15:22:18 18.1 C 22 %
3688 28-03-2021 15:32:18 18.2 C 22 %
3689 28-03-2021 15:42:18 17.2 C 22 %
3690 28-03-2021 15:52:18 16.6 C 22 %
3691 28-03-2021 16:02:18 18.1 C 21 %
3692 28-03-2021 16:12:18 17.2 C 22 %
3693 28-03-2021 16:22:18 17.6 C 22 %
3694 28-03-2021 16:32:17 17.6 C 22 %
3695 28-03-2021 16:42:18 17.1 C 22 %
3696 28-03-2021 16:52:17 16.7 C 22 %
3697 28-03-2021 17:02:18 16.7 C 22 %
3698 28-03-2021 17:12:18 15.8 C 23 %
3699 28-03-2021 17:22:18 15.6 C 23 %
3700 28-03-2021 17:32:18 15.7 C 23 %
Sensor: Nr:Datum:Temp:Feuchte:
Aussen-T/F 3701 28-03-2021 17:42:18 15.8 C 24 %
3702 28-03-2021 17:52:18 16 C 23 %
3703 28-03-2021 18:02:17 15.8 C 23 %
3704 28-03-2021 18:12:17 15.8 C 24 %
3705 28-03-2021 18:22:17 15.6 C 23 %
3706 28-03-2021 18:32:17 15.7 C 23 %
3707 28-03-2021 18:42:17 15.1 C 23 %
3708 28-03-2021 18:52:17 14.7 C 25 %
3709 28-03-2021 19:02:18 14.4 C 25 %
3710 28-03-2021 19:12:18 14.1 C 25 %
3711 28-03-2021 19:22:18 13.5 C 26 %
3712 28-03-2021 19:32:18 13.5 C 26 %
3713 28-03-2021 19:42:18 12.6 C 28 %
3714 28-03-2021 19:52:18 12.4 C 27 %
3715 28-03-2021 20:02:18 12.7 C 27 %
3716 28-03-2021 20:12:18 12.4 C 27 %
3717 28-03-2021 20:22:17 12 C 28 %
3718 28-03-2021 20:32:18 12 C 27 %
3719 28-03-2021 20:42:18 11.3 C 30 %
3720 28-03-2021 20:52:17 10.3 C 31 %
3721 28-03-2021 21:02:18 10 C 31 %
3722 28-03-2021 21:12:18 9.9 C 32 %
3723 28-03-2021 21:22:17 9.6 C 32 %
3724 28-03-2021 21:32:17 9.2 C 33 %
3725 28-03-2021 21:42:17 8.9 C 34 %
Sensor: Nr:Datum:Temp:Feuchte:
Aussen-T/F 3726 28-03-2021 21:52:18 8.6 C 34 %
3727 28-03-2021 22:02:17 8.6 C 35 %
3728 28-03-2021 22:12:18 8.4 C 35 %
3729 28-03-2021 22:22:18 8.4 C 35 %
3730 28-03-2021 22:32:18 8.4 C 35 %
3731 28-03-2021 22:42:18 8.4 C 35 %
3732 28-03-2021 22:52:18 8.4 C 35 %
3733 28-03-2021 23:02:18 8.2 C 35 %
3734 28-03-2021 23:12:18 8.2 C 35 %
3735 28-03-2021 23:22:18 8 C 35 %
3736 28-03-2021 23:32:18 8 C 35 %
3737 28-03-2021 23:42:18 7.7 C 36 %
3738 28-03-2021 23:52:17 7.7 C 36 %
3739 29-03-2021 00:02:17 7.6 C 36 %
3740 29-03-2021 00:12:17 7.4 C 36 %
3741 29-03-2021 00:22:17 7.2 C 37 %
3742 29-03-2021 00:32:17 7.3 C 36 %
3743 29-03-2021 00:42:17 6.7 C 37 %
3744 29-03-2021 00:52:17 6.8 C 37 %
3745 29-03-2021 01:02:17 6.6 C 37 %
3746 29-03-2021 01:12:18 6.3 C 38 %
3747 29-03-2021 01:22:17 6.1 C 38 %
3748 29-03-2021 01:32:17 5.4 C 39 %
3749 29-03-2021 01:42:17 5 C 40 %
3750 29-03-2021 01:52:18 4.8 C 40 %
Sensor: Nr:Datum:Temp:Feuchte:
Aussen-T/F 3751 29-03-2021 02:02:17 5.1 C 40 %
3752 29-03-2021 02:12:17 5.1 C 40 %
3753 29-03-2021 02:22:17 5 C 40 %
3754 29-03-2021 02:32:17 4.7 C 41 %
3755 29-03-2021 02:42:17 4.5 C 41 %
3756 29-03-2021 02:52:17 4.1 C 42 %
3757 29-03-2021 03:02:18 4 C 42 %
3758 29-03-2021 03:12:18 4 C 42 %
3759 29-03-2021 03:22:17 3.7 C 43 %
3760 29-03-2021 03:32:17 3.6 C 44 %
3761 29-03-2021 03:42:17 3.7 C 44 %
3762 29-03-2021 03:52:17 3.8 C 45 %
3763 29-03-2021 04:02:17 3.9 C 44 %
3764 29-03-2021 04:12:18 3.5 C 44 %
3765 29-03-2021 04:22:17 3.7 C 44 %
3766 29-03-2021 04:32:17 3.5 C 44 %
3767 29-03-2021 04:42:18 3.4 C 44 %
3768 29-03-2021 04:52:17 3.2 C 44 %
3769 29-03-2021 05:02:17 3 C 45 %
3770 29-03-2021 05:12:18 2.9 C 46 %
3771 29-03-2021 05:22:18 2.8 C 46 %
3772 29-03-2021 05:32:17 3.1 C 45 %
3773 29-03-2021 05:42:18 3 C 45 %
3774 29-03-2021 05:52:17 3 C 45 %
3775 29-03-2021 06:02:17 3.1 C 45 %
Sensor: Nr:Datum:Temp:Feuchte:
Aussen-T/F 3776 29-03-2021 06:12:17 3.1 C 45 %
3777 29-03-2021 06:22:17 3.1 C 45 %
3778 29-03-2021 06:32:18 3 C 45 %
3779 29-03-2021 06:42:18 3 C 45 %
3780 29-03-2021 06:52:18 2.7 C 46 %
3781 29-03-2021 07:02:18 2.7 C 46 %
3782 29-03-2021 07:12:18 2.6 C 46 %
3783 29-03-2021 07:22:18 2.6 C 47 %
3784 29-03-2021 07:32:18 2.7 C 47 %
3785 29-03-2021 07:42:18 2.8 C 47 %
3786 29-03-2021 07:52:18 2.7 C 47 %
3787 29-03-2021 08:02:18 3.1 C 46 %
3788 29-03-2021 08:12:18 3.5 C 45 %
3789 29-03-2021 08:22:18 3.5 C 45 %
3790 29-03-2021 08:32:18 3.3 C 45 %
3791 29-03-2021 08:42:18 3.4 C 45 %
3792 29-03-2021 08:52:18 3.4 C 45 %
3793 29-03-2021 09:02:18 3.5 C 45 %
3794 29-03-2021 09:12:18 3.9 C 45 %
3795 29-03-2021 09:22:17 4.4 C 44 %
3796 29-03-2021 09:32:18 4.7 C 43 %
3797 29-03-2021 09:42:18 5.4 C 42 %
3798 29-03-2021 09:52:18 6.2 C 40 %
3799 29-03-2021 10:02:17 6.6 C 40 %
3800 29-03-2021 10:12:17 7.4 C 38 %
Sensor: Nr:Datum:Temp:Feuchte:
Aussen-T/F 3801 29-03-2021 10:22:17 8 C 37 %
3802 29-03-2021 10:32:17 8.7 C 37 %
3803 29-03-2021 10:42:18 10.4 C 35 %
3804 29-03-2021 10:52:18 11.6 C 33 %
3805 29-03-2021 11:02:18 12.8 C 31 %
3806 29-03-2021 11:12:18 13.8 C 29 %
3807 29-03-2021 11:22:18 14.6 C 28 %
3808 29-03-2021 11:32:18 15.1 C 26 %
3809 29-03-2021 11:42:18 15.4 C 26 %
3810 29-03-2021 11:52:18 17.3 C 25 %
3811 29-03-2021 12:02:18 17.7 C 25 %
3812 29-03-2021 12:12:18 17.5 C 24 %
3813 29-03-2021 12:22:18 18.4 C 23 %
3814 29-03-2021 12:32:17 18.8 C 22 %
3815 29-03-2021 12:42:17 17.9 C 23 %
3816 29-03-2021 12:52:18 18.2 C 22 %
3817 29-03-2021 13:02:18 19.4 C 21 %
3818 29-03-2021 13:12:18 19.3 C 21 %
3819 29-03-2021 13:22:17 18.9 C 21 %
3820 29-03-2021 13:32:17 19.3 C 21 %
3821 29-03-2021 13:42:17 19.1 C 20 %
3822 29-03-2021 13:52:17 19.5 C 21 %
3823 29-03-2021 14:02:18 20.4 C 20 %
3824 29-03-2021 14:12:18 20.7 C 20 %
3825 29-03-2021 14:22:17 22 C 20 %
Sensor: Nr:Datum:Temp:Feuchte:
Aussen-T/F 3826 29-03-2021 14:32:18 23 C 20 %
3827 29-03-2021 14:42:18 23.2 C 20 %
3828 29-03-2021 14:52:18 24.4 C 20 %
3829 29-03-2021 15:02:17 23 C 20 %
3830 29-03-2021 15:12:17 24.1 C 20 %
3831 29-03-2021 15:22:17 24.5 C 20 %
3832 29-03-2021 15:32:18 24.1 C 20 %
3833 29-03-2021 15:42:18 26.5 C 20 %
3834 29-03-2021 15:52:18 24.8 C 20 %
3835 29-03-2021 16:02:18 25.1 C 20 %
3836 29-03-2021 16:12:18 25.8 C 20 %
3837 29-03-2021 16:22:18 24.9 C 20 %
3838 29-03-2021 16:32:17 24.8 C 20 %
3839 29-03-2021 16:42:17 25.2 C 20 %
3840 29-03-2021 16:52:18 25.9 C 20 %
3841 29-03-2021 17:02:17 25.7 C 20 %
3842 29-03-2021 17:12:17 23.8 C 20 %
3843 29-03-2021 17:22:18 25.5 C 20 %
3844 29-03-2021 17:32:17 25.9 C 20 %
3845 29-03-2021 17:42:17 25 C 20 %
3846 29-03-2021 17:52:18 23.7 C 20 %
3847 29-03-2021 18:02:17 22.5 C 20 %
3848 29-03-2021 18:12:17 22 C 20 %
3849 29-03-2021 18:22:18 21.6 C 20 %
3850 29-03-2021 18:32:18 21.7 C 20 %
Sensor: Nr:Datum:Temp:Feuchte:
Aussen-T/F 3851 29-03-2021 18:42:18 21.3 C 20 %
3852 29-03-2021 18:52:18 20.9 C 20 %
3853 29-03-2021 19:02:18 20.1 C 20 %
3854 29-03-2021 19:12:18 18.8 C 21 %
3855 29-03-2021 19:22:17 18.1 C 21 %
3856 29-03-2021 19:32:17 17.3 C 22 %
3857 29-03-2021 19:42:18 16.5 C 23 %
3858 29-03-2021 19:52:18 16.1 C 23 %
3859 29-03-2021 20:02:18 15.3 C 25 %
3860 29-03-2021 20:12:18 15 C 25 %
3861 29-03-2021 20:22:17 14.4 C 26 %
3862 29-03-2021 20:32:17 14.5 C 26 %
3863 29-03-2021 20:42:18 14.1 C 27 %
3864 29-03-2021 20:52:17 13.8 C 27 %
3865 29-03-2021 21:02:18 13.3 C 27 %
3866 29-03-2021 21:12:18 13.4 C 27 %
3867 29-03-2021 21:22:17 13.1 C 28 %
3868 29-03-2021 21:32:17 12.5 C 30 %
3869 29-03-2021 21:42:17 11.7 C 31 %
3870 29-03-2021 21:52:17 11.6 C 31 %
3871 29-03-2021 22:02:18 11.2 C 31 %
3872 29-03-2021 22:12:18 10.1 C 32 %
3873 29-03-2021 22:22:18 9.6 C 34 %
3874 29-03-2021 22:32:18 8.9 C 35 %
3875 29-03-2021 22:42:18 8.9 C 35 %
Sensor: Nr:Datum:Temp:Feuchte:
Aussen-T/F 3876 29-03-2021 22:52:18 8.6 C 35 %
3877 29-03-2021 23:02:18 8.2 C 35 %
3878 29-03-2021 23:12:18 8.1 C 35 %
3879 29-03-2021 23:22:18 8 C 35 %
3880 29-03-2021 23:32:17 7.8 C 36 %
3881 29-03-2021 23:42:17 7.7 C 36 %
3882 29-03-2021 23:52:18 7.9 C 36 %
3883 30-03-2021 00:02:17 7.3 C 36 %
3884 30-03-2021 00:12:17 6.8 C 38 %
3885 30-03-2021 00:22:17 6.8 C 38 %
3886 30-03-2021 00:32:17 6.6 C 38 %
3887 30-03-2021 00:42:17 6.3 C 38 %
3888 30-03-2021 00:52:17 6.1 C 39 %
3889 30-03-2021 01:02:18 5.8 C 39 %
3890 30-03-2021 01:12:18 5.7 C 40 %
3891 30-03-2021 01:22:17 5.6 C 40 %
3892 30-03-2021 01:32:17 5.4 C 40 %
3893 30-03-2021 01:42:17 5.3 C 40 %
3894 30-03-2021 01:52:18 5.3 C 40 %
3895 30-03-2021 02:02:18 5.2 C 40 %
3896 30-03-2021 02:12:18 5 C 40 %
3897 30-03-2021 02:22:18 4.8 C 41 %
3898 30-03-2021 02:32:17 4.6 C 41 %
3899 30-03-2021 02:42:17 4.5 C 42 %
3900 30-03-2021 02:52:17 4.4 C 41 %
Sensor: Nr:Datum:Temp:Feuchte:
Aussen-T/F 3901 30-03-2021 03:02:17 4.2 C 42 %
3902 30-03-2021 03:12:17 4.4 C 42 %
3903 30-03-2021 03:22:17 4.3 C 42 %
3904 30-03-2021 03:32:18 3.8 C 43 %
3905 30-03-2021 03:42:18 3.5 C 43 %
3906 30-03-2021 03:52:17 3.5 C 44 %
3907 30-03-2021 04:02:17 3.3 C 44 %
3908 30-03-2021 04:12:17 3.2 C 44 %
3909 30-03-2021 04:22:17 2.8 C 45 %
3910 30-03-2021 04:32:17 2.5 C 45 %
3911 30-03-2021 04:42:17 2.6 C 46 %
3912 30-03-2021 04:52:17 2.7 C 46 %
3913 30-03-2021 05:02:17 2.5 C 46 %
3914 30-03-2021 05:12:17 2.4 C 46 %
3915 30-03-2021 05:22:17 1.9 C 47 %
3916 30-03-2021 05:32:18 1.8 C 47 %
3917 30-03-2021 05:42:18 1.8 C 48 %
3918 30-03-2021 05:52:17 1.7 C 48 %
3919 30-03-2021 06:02:18 1.5 C 47 %
3920 30-03-2021 06:12:18 1.5 C 49 %
3921 30-03-2021 06:22:18 2 C 48 %
3922 30-03-2021 06:32:17 2.1 C 48 %
3923 30-03-2021 06:42:17 2.1 C 47 %
3924 30-03-2021 06:52:18 2.2 C 47 %
3925 30-03-2021 07:02:17 1.4 C 47 %
Sensor: Nr:Datum:Temp:Feuchte:
Aussen-T/F 3926 30-03-2021 07:12:17 1.6 C 49 %
3927 30-03-2021 07:22:18 1.5 C 48 %
3928 30-03-2021 07:32:18 1.4 C 48 %
3929 30-03-2021 07:42:18 1.3 C 48 %
3930 30-03-2021 07:52:17 1.2 C 48 %
3931 30-03-2021 08:02:17 1.1 C 48 %
3932 30-03-2021 08:12:17 1.1 C 49 %
3933 30-03-2021 08:22:18 1.6 C 50 %
3934 30-03-2021 08:32:18 1.5 C 49 %
3935 30-03-2021 08:42:18 1.7 C 49 %
3936 30-03-2021 08:52:17 2.1 C 49 %
3937 30-03-2021 09:02:17 2.1 C 48 %
3938 30-03-2021 09:12:17 2.5 C 47 %
3939 30-03-2021 09:22:17 2.7 C 47 %
3940 30-03-2021 09:32:17 2.8 C 46 %
3941 30-03-2021 09:42:17 3.2 C 47 %
3942 30-03-2021 09:52:18 3.5 C 46 %
3943 30-03-2021 10:02:18 4.1 C 45 %
3944 30-03-2021 10:12:18 4.5 C 44 %
3945 30-03-2021 10:22:17 4.9 C 44 %
3946 30-03-2021 10:32:18 5.7 C 43 %
3947 30-03-2021 10:42:18 6.5 C 41 %
3948 30-03-2021 10:52:17 7.4 C 40 %
3949 30-03-2021 11:02:17 8.7 C 39 %
3950 30-03-2021 11:12:17 9.7 C 38 %
Sensor: Nr:Datum:Temp:Feuchte:
Aussen-T/F 3951 30-03-2021 11:22:18 11.3 C 35 %
3952 30-03-2021 11:32:17 13 C 31 %
3953 30-03-2021 11:42:17 13.5 C 30 %
3954 30-03-2021 11:52:17 15.4 C 30 %
3955 30-03-2021 12:02:17 17.2 C 27 %
3956 30-03-2021 12:12:17 17.8 C 25 %
3957 30-03-2021 12:22:18 18 C 25 %
3958 30-03-2021 12:32:17 21.1 C 22 %
3959 30-03-2021 12:42:17 19.5 C 23 %
3960 30-03-2021 12:52:17 18.1 C 25 %
3961 30-03-2021 13:02:17 19.8 C 23 %
3962 30-03-2021 13:12:17 19.4 C 23 %
3963 30-03-2021 13:22:17 19.5 C 23 %
3964 30-03-2021 13:32:17 19.7 C 23 %
3965 30-03-2021 13:42:17 20.2 C 21 %
3966 30-03-2021 13:52:17 20.5 C 21 %
3967 30-03-2021 14:02:17 22 C 20 %
3968 30-03-2021 14:12:17 22.1 C 20 %
3969 30-03-2021 14:22:18 24.1 C 20 %
3970 30-03-2021 14:32:18 26.3 C 20 %
3971 30-03-2021 14:42:18 27.1 C 20 %
3972 30-03-2021 14:52:18 26.8 C 20 %
3973 30-03-2021 15:02:18 27.8 C 20 %
3974 30-03-2021 15:12:18 28.3 C 20 %
3975 30-03-2021 15:22:18 29.7 C 20 %
Sensor: Nr:Datum:Temp:Feuchte:
Aussen-T/F 3976 30-03-2021 15:32:18 28.1 C 20 %
3977 30-03-2021 15:42:18 29.3 C 20 %
3978 30-03-2021 15:52:17 30.2 C 20 %
3979 30-03-2021 16:02:18 30.1 C 20 %
3980 30-03-2021 16:12:18 31.2 C 20 %
3981 30-03-2021 16:22:18 31.2 C 20 %
3982 30-03-2021 16:32:18 32.2 C 20 %
3983 30-03-2021 16:42:18 30.2 C 20 %
3984 30-03-2021 16:52:17 29.8 C 20 %
3985 30-03-2021 17:02:17 28.8 C 20 %
3986 30-03-2021 17:12:18 28.4 C 20 %
3987 30-03-2021 17:22:17 29.2 C 20 %
3988 30-03-2021 17:32:17 26.6 C 20 %
3989 30-03-2021 17:42:17 28.5 C 20 %
3990 30-03-2021 17:52:17 26.6 C 20 %
3991 30-03-2021 18:02:17 24.6 C 20 %
3992 30-03-2021 18:12:17 24.6 C 20 %
3993 30-03-2021 18:22:17 24.1 C 20 %
3994 30-03-2021 18:32:17 24.1 C 20 %
3995 30-03-2021 18:42:17 23.7 C 20 %
3996 30-03-2021 18:52:17 22.5 C 20 %
3997 30-03-2021 19:02:18 21.6 C 20 %
3998 30-03-2021 19:12:18 20.5 C 20 %
3999 30-03-2021 19:22:18 19.1 C 20 %
4000 30-03-2021 19:32:17 18.4 C 20 %
Sensor: Nr:Datum:Temp:Feuchte:
Aussen-T/F 4001 30-03-2021 19:42:18 17.9 C 20 %
4002 30-03-2021 19:52:17 17.1 C 20 %
4003 30-03-2021 20:02:17 16.6 C 20 %
4004 30-03-2021 20:12:17 16 C 20 %
4005 30-03-2021 20:22:18 16 C 20 %
4006 30-03-2021 20:32:18 15.8 C 21 %
4007 30-03-2021 20:42:18 15.4 C 21 %
4008 30-03-2021 20:52:17 14.8 C 23 %
4009 30-03-2021 21:02:18 14.6 C 23 %
4010 30-03-2021 21:12:18 13.8 C 25 %
4011 30-03-2021 21:22:18 13.3 C 25 %
4012 30-03-2021 21:32:18 12 C 27 %
4013 30-03-2021 21:42:18 11.2 C 29 %
4014 30-03-2021 21:52:17 11.1 C 30 %
4015 30-03-2021 22:02:17 10.4 C 31 %
4016 30-03-2021 22:12:17 10.5 C 31 %
4017 30-03-2021 22:22:18 10.5 C 31 %
4018 30-03-2021 22:32:17 9.9 C 31 %
4019 30-03-2021 22:42:17 9.6 C 31 %
4020 30-03-2021 22:52:17 9 C 33 %
4021 30-03-2021 23:02:18 9 C 32 %
4022 30-03-2021 23:12:18 8.5 C 33 %
4023 30-03-2021 23:22:18 8.5 C 34 %
4024 30-03-2021 23:32:18 8.2 C 34 %
4025 30-03-2021 23:42:18 8 C 34 %
Sensor: Nr:Datum:Temp:Feuchte:
Aussen-T/F 4026 30-03-2021 23:52:18 7.8 C 35 %
4027 31-03-2021 00:02:17 8 C 34 %
4028 31-03-2021 00:12:17 7.6 C 35 %
4029 31-03-2021 00:22:17 7.6 C 35 %
4030 31-03-2021 00:32:17 7.7 C 35 %
4031 31-03-2021 00:42:17 7.2 C 35 %
4032 31-03-2021 00:52:17 7.2 C 35 %
4033 31-03-2021 01:02:17 6.7 C 36 %
4034 31-03-2021 01:12:17 6.8 C 36 %
4035 31-03-2021 01:22:17 6.4 C 37 %
4036 31-03-2021 01:32:18 6.2 C 37 %
4037 31-03-2021 01:42:18 6.2 C 37 %
4038 31-03-2021 01:52:17 6.1 C 37 %
4039 31-03-2021 02:02:17 5.9 C 38 %
4040 31-03-2021 02:12:17 5.6 C 39 %
4041 31-03-2021 02:22:17 5.5 C 39 %
4042 31-03-2021 02:32:17 5.4 C 39 %
4043 31-03-2021 02:42:17 5.2 C 40 %
4044 31-03-2021 02:52:17 5.7 C 39 %
4045 31-03-2021 03:02:17 5.1 C 40 %
4046 31-03-2021 03:12:17 4.9 C 40 %
4047 31-03-2021 03:22:17 4.8 C 41 %
4048 31-03-2021 03:32:18 4.3 C 41 %
4049 31-03-2021 03:42:18 4.5 C 41 %
4050 31-03-2021 03:52:17 4.6 C 41 %
Sensor: Nr:Datum:Temp:Feuchte:
Aussen-T/F 4051 31-03-2021 04:02:17 4.3 C 41 %
4052 31-03-2021 04:12:17 4.2 C 41 %
4053 31-03-2021 04:22:17 4.1 C 41 %
4054 31-03-2021 04:32:17 4 C 42 %
4055 31-03-2021 04:42:18 3.6 C 43 %
4056 31-03-2021 04:52:17 3.5 C 43 %
4057 31-03-2021 05:02:17 3.3 C 44 %
4058 31-03-2021 05:12:17 3.2 C 44 %
4059 31-03-2021 05:22:18 3 C 44 %
4060 31-03-2021 05:32:18 3.3 C 44 %
4061 31-03-2021 05:42:18 3.3 C 44 %
4062 31-03-2021 05:52:17 3.2 C 44 %
4063 31-03-2021 06:02:17 3.3 C 45 %
4064 31-03-2021 06:12:17 2.9 C 45 %
4065 31-03-2021 06:22:17 2.7 C 45 %
4066 31-03-2021 06:32:17 2.4 C 45 %
4067 31-03-2021 06:42:17 2.2 C 45 %
4068 31-03-2021 06:52:18 2.4 C 46 %
4069 31-03-2021 07:02:17 2.5 C 46 %
4070 31-03-2021 07:12:17 2.2 C 46 %
4071 31-03-2021 07:22:18 2.3 C 46 %
4072 31-03-2021 07:32:18 2.5 C 46 %
4073 31-03-2021 07:42:18 2.7 C 46 %
4074 31-03-2021 07:52:18 2.7 C 46 %
4075 31-03-2021 08:02:17 2.8 C 46 %
Sensor: Nr:Datum:Temp:Feuchte:
Aussen-T/F 4076 31-03-2021 08:12:17 3.3 C 46 %
4077 31-03-2021 08:22:18 3.1 C 45 %
4078 31-03-2021 08:32:18 3.4 C 45 %
4079 31-03-2021 08:42:18 3.6 C 45 %
4080 31-03-2021 08:52:18 3.8 C 45 %
4081 31-03-2021 09:02:17 4 C 43 %
4082 31-03-2021 09:12:18 4.3 C 43 %
4083 31-03-2021 09:22:18 4.7 C 43 %
4084 31-03-2021 09:32:17 5.1 C 42 %
4085 31-03-2021 09:42:18 5.6 C 41 %
4086 31-03-2021 09:52:18 5.7 C 41 %
4087 31-03-2021 10:02:18 6 C 40 %
4088 31-03-2021 10:12:18 6.8 C 40 %
4089 31-03-2021 10:22:18 7 C 39 %
4090 31-03-2021 10:32:18 7.6 C 39 %
4091 31-03-2021 10:42:18 8.3 C 38 %
4092 31-03-2021 10:52:18 9.7 C 37 %
4093 31-03-2021 11:02:18 11.2 C 35 %
4094 31-03-2021 11:12:18 12 C 33 %
4095 31-03-2021 11:22:18 13.4 C 31 %
4096 31-03-2021 11:32:18 15.2 C 30 %
4097 31-03-2021 11:42:18 16.1 C 28 %
4098 31-03-2021 11:52:18 17.1 C 27 %
4099 31-03-2021 12:02:17 19.6 C 25 %
4100 31-03-2021 12:12:17 21.6 C 22 %
Sensor: Nr:Datum:Temp:Feuchte:
Aussen-T/F 4101 31-03-2021 12:22:17 22.4 C 22 %
4102 31-03-2021 12:32:17 24 C 20 %
4103 31-03-2021 12:42:17 24.6 C 20 %
4104 31-03-2021 12:52:18 20.8 C 20 %
4105 31-03-2021 13:02:17 22.7 C 20 %
4106 31-03-2021 13:12:17 23.3 C 20 %
4107 31-03-2021 13:22:17 22.4 C 20 %
4108 31-03-2021 13:32:18 22.2 C 20 %
4109 31-03-2021 13:42:18 23.1 C 20 %
4110 31-03-2021 13:52:18 23.2 C 20 %
4111 31-03-2021 14:02:18 23.5 C 20 %
4112 31-03-2021 14:12:18 24.1 C 20 %
4113 31-03-2021 14:22:17 26.4 C 20 %
4114 31-03-2021 14:32:17 28.3 C 20 %
4115 31-03-2021 14:42:18 30.2 C 20 %
4116 31-03-2021 14:52:17 30 C 20 %
4117 31-03-2021 15:02:17 29.6 C 20 %
4118 31-03-2021 15:12:18 29.2 C 20 %
4119 31-03-2021 15:22:17 29.5 C 20 %
4120 31-03-2021 15:32:18 32.4 C 20 %
4121 31-03-2021 15:42:18 31.4 C 20 %
4122 31-03-2021 15:52:17 30.4 C 20 %
4123 31-03-2021 16:02:17 31 C 20 %
4124 31-03-2021 16:12:18 31.1 C 20 %
4125 31-03-2021 16:22:17 31.5 C 20 %
Sensor: Nr:Datum:Temp:Feuchte:
Aussen-T/F 4126 31-03-2021 16:32:18 29.8 C 20 %
4127 31-03-2021 16:42:18 30.7 C 20 %
4128 31-03-2021 16:52:18 30 C 20 %
4129 31-03-2021 17:02:17 30.1 C 20 %
4130 31-03-2021 17:12:18 30.8 C 20 %
4131 31-03-2021 17:22:17 30.7 C 20 %
4132 31-03-2021 17:32:18 29.7 C 20 %
4133 31-03-2021 17:42:18 30.6 C 20 %
4134 31-03-2021 17:52:18 27.6 C 20 %
4135 31-03-2021 18:02:18 26.7 C 20 %
4136 31-03-2021 18:12:18 26.1 C 20 %
4137 31-03-2021 18:22:18 26.1 C 20 %
4138 31-03-2021 18:32:18 25.5 C 20 %
4139 31-03-2021 18:42:18 25.2 C 20 %
4140 31-03-2021 18:52:17 24.8 C 20 %
4141 31-03-2021 19:02:17 24.1 C 20 %
4142 31-03-2021 19:12:17 24 C 20 %
4143 31-03-2021 19:22:18 23.2 C 20 %
4144 31-03-2021 19:32:17 21.8 C 20 %
4145 31-03-2021 19:42:17 20.7 C 20 %
4146 31-03-2021 19:52:18 19.5 C 21 %
4147 31-03-2021 20:02:17 18.6 C 22 %
4148 31-03-2021 20:12:18 18.6 C 22 %
4149 31-03-2021 20:22:17 18.1 C 22 %
4150 31-03-2021 20:32:18 17.9 C 23 %
Sensor: Nr:Datum:Temp:Feuchte:
Aussen-T/F 4151 31-03-2021 20:42:18 17 C 24 %
4152 31-03-2021 20:52:18 16.8 C 25 %
4153 31-03-2021 21:02:18 16.3 C 25 %
4154 31-03-2021 21:12:18 15.2 C 26 %
4155 31-03-2021 21:22:17 15 C 27 %
4156 31-03-2021 21:32:17 14.6 C 28 %
4157 31-03-2021 21:42:18 14.1 C 28 %
4158 31-03-2021 21:52:18 13.8 C 29 %
4159 31-03-2021 22:02:18 13.1 C 30 %
4160 31-03-2021 22:12:18 13.2 C 30 %
4161 31-03-2021 22:22:18 13.1 C 30 %
4162 31-03-2021 22:32:17 13.1 C 30 %
4163 31-03-2021 22:42:17 15.1 C 27 %
4164 31-03-2021 22:52:18 13.8 C 29 %
4165 31-03-2021 23:02:18 12.5 C 31 %
4166 31-03-2021 23:12:18 12 C 31 %
4167 31-03-2021 23:22:17 11.9 C 32 %
4168 31-03-2021 23:32:18 12 C 31 %
4169 31-03-2021 23:42:18 11.3 C 32 %
4170 31-03-2021 23:52:18 11.1 C 32 %
Sensor: Nr:Datum:Temp:Feuchte:
G-T/H 1 03-03-2021 00:00:17 8.3 C 74 %
2 03-03-2021 00:10:17 8.2 C 74 %
3 03-03-2021 00:20:18 8.2 C 74 %
4 03-03-2021 00:30:17 8.2 C 74 %
5 03-03-2021 00:40:17 8.3 C 74 %
6 03-03-2021 00:50:17 8.2 C 74 %
7 03-03-2021 01:00:17 8.3 C 74 %
8 03-03-2021 01:10:17 8.3 C 74 %
9 03-03-2021 01:20:18 8.2 C 74 %
10 03-03-2021 01:30:17 8.2 C 74 %
11 03-03-2021 01:40:17 8.2 C 74 %
12 03-03-2021 01:50:18 8.2 C 74 %
13 03-03-2021 02:00:17 8.2 C 74 %
14 03-03-2021 02:10:17 8.2 C 74 %
15 03-03-2021 02:20:17 8.2 C 74 %
16 03-03-2021 02:30:17 8.2 C 74 %
17 03-03-2021 02:40:17 8.2 C 74 %
18 03-03-2021 02:50:17 8.2 C 74 %
19 03-03-2021 03:00:18 8.2 C 74 %
20 03-03-2021 03:10:18 8.2 C 74 %
21 03-03-2021 03:20:17 8.1 C 74 %
22 03-03-2021 03:30:18 8.1 C 74 %
23 03-03-2021 03:40:18 8.1 C 73 %
24 03-03-2021 03:50:17 8.1 C 73 %
25 03-03-2021 04:00:17 8.1 C 73 %
Sensor: Nr:Datum:Temp:Feuchte:
G-T/H 26 03-03-2021 04:10:17 8.1 C 73 %
27 03-03-2021 04:20:17 8.1 C 73 %
28 03-03-2021 04:30:17 8.1 C 73 %
29 03-03-2021 04:40:18 8.1 C 73 %
30 03-03-2021 04:50:17 8.1 C 73 %
31 03-03-2021 05:00:18 8.1 C 73 %
32 03-03-2021 05:10:18 8.1 C 73 %
33 03-03-2021 05:20:18 8.1 C 73 %
34 03-03-2021 05:30:18 8.1 C 73 %
35 03-03-2021 05:40:18 8 C 73 %
36 03-03-2021 05:50:18 8 C 73 %
37 03-03-2021 06:00:17 8 C 73 %
38 03-03-2021 06:10:17 8 C 73 %
39 03-03-2021 06:20:18 8 C 73 %
40 03-03-2021 06:30:18 7.9 C 74 %
41 03-03-2021 06:40:18 8 C 73 %
42 03-03-2021 06:50:17 8 C 73 %
43 03-03-2021 07:00:17 8 C 73 %
44 03-03-2021 07:10:18 7.9 C 74 %
45 03-03-2021 07:20:17 7.9 C 74 %
46 03-03-2021 07:30:17 7.9 C 74 %
47 03-03-2021 07:40:17 7.9 C 74 %
48 03-03-2021 07:50:18 7.9 C 74 %
49 03-03-2021 08:00:17 7.9 C 74 %
50 03-03-2021 08:10:17 7.8 C 74 %
Sensor: Nr:Datum:Temp:Feuchte:
G-T/H 51 03-03-2021 08:20:18 7.9 C 74 %
52 03-03-2021 08:30:18 7.9 C 74 %
53 03-03-2021 08:40:18 7.9 C 74 %
54 03-03-2021 08:50:17 7.9 C 74 %
55 03-03-2021 09:00:18 7.9 C 74 %
56 03-03-2021 09:10:18 7.9 C 74 %
57 03-03-2021 09:20:17 7.9 C 74 %
58 03-03-2021 09:30:18 7.9 C 74 %
59 03-03-2021 09:40:18 7.8 C 74 %
60 03-03-2021 09:50:17 7.9 C 74 %
61 03-03-2021 10:00:18 7.8 C 74 %
62 03-03-2021 10:10:18 7.8 C 74 %
63 03-03-2021 10:20:17 7.8 C 74 %
64 03-03-2021 10:30:17 7.8 C 74 %
65 03-03-2021 10:40:17 7.8 C 74 %
66 03-03-2021 10:50:17 7.8 C 74 %
67 03-03-2021 11:00:18 7.8 C 74 %
68 03-03-2021 11:10:18 7.8 C 74 %
69 03-03-2021 11:20:17 7.8 C 74 %
70 03-03-2021 11:30:18 7.9 C 74 %
71 03-03-2021 11:40:18 7.9 C 74 %
72 03-03-2021 11:50:17 7.9 C 74 %
73 03-03-2021 12:00:18 7.9 C 74 %
74 03-03-2021 12:10:18 7.9 C 74 %
75 03-03-2021 12:20:17 7.9 C 74 %
Sensor: Nr:Datum:Temp:Feuchte:
G-T/H 76 03-03-2021 12:30:17 7.9 C 74 %
77 03-03-2021 12:40:17 7.9 C 74 %
78 03-03-2021 12:50:17 7.9 C 74 %
79 03-03-2021 13:00:18 7.9 C 74 %
80 03-03-2021 13:10:18 7.9 C 75 %
81 03-03-2021 13:20:18 8 C 74 %
82 03-03-2021 13:30:17 8 C 74 %
83 03-03-2021 13:40:17 8 C 74 %
84 03-03-2021 13:50:17 8 C 74 %
85 03-03-2021 14:00:17 8 C 74 %
86 03-03-2021 14:10:18 8.1 C 74 %
87 03-03-2021 14:20:17 8 C 74 %
88 03-03-2021 14:30:17 8.1 C 74 %
89 03-03-2021 14:40:17 8.1 C 74 %
90 03-03-2021 14:50:17 8.1 C 74 %
91 03-03-2021 15:00:17 8.1 C 74 %
92 03-03-2021 15:10:17 8.2 C 74 %
93 03-03-2021 15:20:17 8.2 C 74 %
94 03-03-2021 15:30:18 8.2 C 74 %
95 03-03-2021 15:40:18 8.2 C 74 %
96 03-03-2021 15:50:18 8.3 C 74 %
97 03-03-2021 16:00:17 8.3 C 74 %
98 03-03-2021 16:10:17 8.3 C 74 %
99 03-03-2021 16:20:18 8.4 C 74 %
100 03-03-2021 16:30:18 8.4 C 74 %
Sensor: Nr:Datum:Temp:Feuchte:
G-T/H 101 03-03-2021 16:40:18 8.4 C 74 %
102 03-03-2021 16:50:18 8.4 C 74 %
103 03-03-2021 17:00:17 8.5 C 74 %
104 03-03-2021 17:10:17 8.7 C 75 %
105 03-03-2021 17:20:18 8.9 C 74 %
106 03-03-2021 17:30:17 8.7 C 74 %
107 03-03-2021 17:40:17 8.6 C 74 %
108 03-03-2021 17:50:18 8.6 C 74 %
109 03-03-2021 18:00:17 8.6 C 74 %
110 03-03-2021 18:10:17 8.6 C 74 %
111 03-03-2021 18:20:17 8.6 C 74 %
112 03-03-2021 18:30:18 8.6 C 74 %
113 03-03-2021 18:40:18 8.6 C 75 %
114 03-03-2021 18:50:17 8.6 C 75 %
115 03-03-2021 19:00:18 8.6 C 75 %
116 03-03-2021 19:10:18 8.6 C 75 %
117 03-03-2021 19:20:17 8.7 C 75 %
118 03-03-2021 19:30:17 8.7 C 75 %
119 03-03-2021 19:40:17 8.7 C 75 %
120 03-03-2021 19:50:17 8.7 C 75 %
121 03-03-2021 20:00:17 8.7 C 75 %
122 03-03-2021 20:10:17 8.7 C 75 %
123 03-03-2021 20:20:17 8.7 C 75 %
124 03-03-2021 20:30:17 8.7 C 75 %
125 03-03-2021 20:40:17 8.7 C 75 %
Sensor: Nr:Datum:Temp:Feuchte:
G-T/H 126 03-03-2021 20:50:18 8.8 C 75 %
127 03-03-2021 21:00:17 8.8 C 75 %
128 03-03-2021 21:10:17 8.8 C 75 %
129 03-03-2021 21:20:18 8.8 C 75 %
130 03-03-2021 21:30:17 8.8 C 75 %
131 03-03-2021 21:40:17 8.8 C 75 %
132 03-03-2021 21:50:18 8.8 C 75 %
133 03-03-2021 22:00:18 8.9 C 75 %
134 03-03-2021 22:10:18 8.9 C 75 %
135 03-03-2021 22:20:18 8.9 C 75 %
136 03-03-2021 22:30:17 8.9 C 75 %
137 03-03-2021 22:40:17 8.9 C 75 %
138 03-03-2021 22:50:18 8.9 C 75 %
139 03-03-2021 23:00:17 8.9 C 75 %
140 03-03-2021 23:10:17 8.9 C 75 %
141 03-03-2021 23:20:18 8.9 C 75 %
142 03-03-2021 23:30:17 8.9 C 75 %
143 03-03-2021 23:40:17 8.9 C 75 %
144 03-03-2021 23:50:17 8.9 C 75 %
145 04-03-2021 00:00:17 8.9 C 75 %
146 04-03-2021 00:10:17 8.9 C 75 %
147 04-03-2021 00:20:17 8.9 C 75 %
148 04-03-2021 00:30:17 8.9 C 75 %
149 04-03-2021 00:40:17 9 C 74 %
150 04-03-2021 00:50:18 8.9 C 75 %
Sensor: Nr:Datum:Temp:Feuchte:
G-T/H 151 04-03-2021 01:00:18 9 C 74 %
152 04-03-2021 01:10:18 9 C 74 %
153 04-03-2021 01:20:17 9 C 74 %
154 04-03-2021 01:30:18 9 C 74 %
155 04-03-2021 01:40:18 9 C 74 %
156 04-03-2021 01:50:17 9 C 74 %
157 04-03-2021 02:00:18 9 C 74 %
158 04-03-2021 02:10:18 9 C 74 %
159 04-03-2021 02:20:18 9 C 74 %
160 04-03-2021 02:30:18 9 C 74 %
161 04-03-2021 02:40:18 9 C 74 %
162 04-03-2021 02:50:17 9 C 74 %
163 04-03-2021 03:00:17 9 C 74 %
164 04-03-2021 03:10:18 8.9 C 75 %
165 04-03-2021 03:20:17 8.9 C 75 %
166 04-03-2021 03:30:17 8.9 C 75 %
167 04-03-2021 03:40:17 9 C 74 %
168 04-03-2021 03:50:18 9 C 74 %
169 04-03-2021 04:00:18 9 C 74 %
170 04-03-2021 04:10:18 9 C 74 %
171 04-03-2021 04:20:17 9 C 74 %
172 04-03-2021 04:30:17 9 C 74 %
173 04-03-2021 04:40:17 8.9 C 75 %
174 04-03-2021 04:50:17 8.9 C 75 %
175 04-03-2021 05:00:17 8.9 C 75 %
Sensor: Nr:Datum:Temp:Feuchte:
G-T/H 176 04-03-2021 05:10:17 9 C 74 %
177 04-03-2021 05:20:18 9 C 74 %
178 04-03-2021 05:30:17 8.9 C 75 %
179 04-03-2021 05:40:17 8.9 C 75 %
180 04-03-2021 05:50:18 8.9 C 75 %
181 04-03-2021 06:00:17 8.9 C 75 %
182 04-03-2021 06:10:17 8.9 C 75 %
183 04-03-2021 06:20:18 8.9 C 75 %
184 04-03-2021 06:30:17 8.9 C 75 %
185 04-03-2021 06:40:18 8.9 C 75 %
186 04-03-2021 06:50:17 8.9 C 75 %
187 04-03-2021 07:00:17 8.9 C 75 %
188 04-03-2021 07:10:17 8.9 C 75 %
189 04-03-2021 07:20:17 8.9 C 75 %
190 04-03-2021 07:30:17 8.9 C 75 %
191 04-03-2021 07:40:17 8.9 C 75 %
192 04-03-2021 07:50:17 8.9 C 75 %
193 04-03-2021 08:00:18 8.9 C 75 %
194 04-03-2021 08:10:18 8.8 C 75 %
195 04-03-2021 08:20:17 8.8 C 75 %
196 04-03-2021 08:30:18 8.8 C 75 %
197 04-03-2021 08:40:18 8.8 C 75 %
198 04-03-2021 08:50:17 8.9 C 75 %
199 04-03-2021 09:00:17 8.8 C 75 %
200 04-03-2021 09:10:17 8.9 C 75 %
Sensor: Nr:Datum:Temp:Feuchte:
G-T/H 201 04-03-2021 09:20:17 8.8 C 75 %
202 04-03-2021 09:30:17 8.9 C 75 %
203 04-03-2021 09:40:17 8.8 C 75 %
204 04-03-2021 09:50:17 8.8 C 75 %
205 04-03-2021 10:00:17 8.9 C 75 %
206 04-03-2021 10:10:17 8.9 C 75 %
207 04-03-2021 10:20:17 8.9 C 75 %
208 04-03-2021 10:30:18 8.9 C 75 %
209 04-03-2021 10:40:18 8.9 C 75 %
210 04-03-2021 10:50:17 8.9 C 75 %
211 04-03-2021 11:00:18 8.9 C 75 %
212 04-03-2021 11:10:18 8.9 C 75 %
213 04-03-2021 11:20:17 8.9 C 75 %
214 04-03-2021 11:30:17 8.9 C 75 %
215 04-03-2021 11:40:17 8.9 C 75 %
216 04-03-2021 11:50:17 8.9 C 75 %
217 04-03-2021 12:00:17 8.9 C 75 %
218 04-03-2021 12:10:17 8.9 C 75 %
219 04-03-2021 12:20:17 9 C 74 %
220 04-03-2021 12:30:17 9 C 74 %
221 04-03-2021 12:40:17 9 C 74 %
222 04-03-2021 12:50:17 9 C 74 %
223 04-03-2021 13:00:17 9 C 74 %
224 04-03-2021 13:10:17 9 C 74 %
225 04-03-2021 13:20:17 9 C 74 %
Sensor: Nr:Datum:Temp:Feuchte:
G-T/H 226 04-03-2021 13:30:18 9 C 74 %
227 04-03-2021 13:40:18 9 C 74 %
228 04-03-2021 13:50:17 9.1 C 74 %
229 04-03-2021 14:00:17 9.1 C 75 %
230 04-03-2021 14:10:17 9.1 C 75 %
231 04-03-2021 14:20:17 9.1 C 75 %
232 04-03-2021 14:30:17 9.1 C 75 %
233 04-03-2021 14:40:17 9.2 C 75 %
234 04-03-2021 14:50:17 9.1 C 75 %
235 04-03-2021 15:00:18 9.1 C 75 %
236 04-03-2021 15:10:18 9.2 C 75 %
237 04-03-2021 15:20:17 9.2 C 75 %
238 04-03-2021 15:30:18 9.2 C 75 %
239 04-03-2021 15:40:18 9.2 C 75 %
240 04-03-2021 15:50:17 9.2 C 75 %
241 04-03-2021 16:00:18 9.2 C 75 %
242 04-03-2021 16:10:18 9.2 C 75 %
243 04-03-2021 16:20:17 9.2 C 75 %
244 04-03-2021 16:30:17 9.3 C 75 %
245 04-03-2021 16:40:17 9.3 C 75 %
246 04-03-2021 16:50:17 9.3 C 75 %
247 04-03-2021 17:00:17 9.3 C 75 %
248 04-03-2021 17:10:17 9.3 C 75 %
249 04-03-2021 17:20:17 9.3 C 75 %
250 04-03-2021 17:30:17 9.3 C 75 %
Sensor: Nr:Datum:Temp:Feuchte:
G-T/H 251 04-03-2021 17:40:18 9.3 C 75 %
252 04-03-2021 17:50:17 9.3 C 75 %
253 04-03-2021 18:00:17 9.3 C 75 %
254 04-03-2021 18:10:17 9.3 C 75 %
255 04-03-2021 18:20:17 9.3 C 75 %
256 04-03-2021 18:30:18 9.4 C 75 %
257 04-03-2021 18:40:18 9.3 C 75 %
258 04-03-2021 18:50:17 9.4 C 75 %
259 04-03-2021 19:00:17 9.3 C 75 %
260 04-03-2021 19:10:18 9.4 C 75 %
261 04-03-2021 19:20:18 9.4 C 75 %
262 04-03-2021 19:30:17 9.4 C 75 %
263 04-03-2021 19:40:17 9.4 C 75 %
264 04-03-2021 19:50:18 9.4 C 75 %
265 04-03-2021 20:00:17 9.4 C 75 %
266 04-03-2021 20:10:17 9.4 C 75 %
267 04-03-2021 20:20:17 9.3 C 75 %
268 04-03-2021 20:30:18 9.4 C 75 %
269 04-03-2021 20:40:18 9.4 C 75 %
270 04-03-2021 20:50:17 9.4 C 75 %
271 04-03-2021 21:00:18 9.4 C 75 %
272 04-03-2021 21:10:18 9.4 C 75 %
273 04-03-2021 21:20:17 9.4 C 75 %
274 04-03-2021 21:30:17 9.4 C 75 %
275 04-03-2021 21:40:17 9.4 C 75 %
Sensor: Nr:Datum:Temp:Feuchte:
G-T/H 276 04-03-2021 21:50:17 9.4 C 75 %
277 04-03-2021 22:00:17 9.3 C 75 %
278 04-03-2021 22:10:17 9.3 C 75 %
279 04-03-2021 22:20:17 9.3 C 75 %
280 04-03-2021 22:30:17 9.4 C 74 %
281 04-03-2021 22:40:17 9.3 C 74 %
282 04-03-2021 22:50:18 9.4 C 74 %
283 04-03-2021 23:00:17 9.3 C 74 %
284 04-03-2021 23:10:17 9.3 C 74 %
285 04-03-2021 23:20:18 9.3 C 74 %
286 04-03-2021 23:30:17 9.3 C 74 %
287 04-03-2021 23:40:17 9.3 C 74 %
288 04-03-2021 23:50:18 9.3 C 74 %
289 05-03-2021 00:00:17 9.3 C 74 %
290 05-03-2021 00:10:18 9.3 C 74 %
291 05-03-2021 00:20:18 9.3 C 74 %
292 05-03-2021 00:30:17 9.3 C 74 %
293 05-03-2021 00:40:17 9.3 C 74 %
294 05-03-2021 00:50:18 9.3 C 74 %
295 05-03-2021 01:00:17 9.3 C 74 %
296 05-03-2021 01:10:17 9.3 C 74 %
297 05-03-2021 01:20:17 9.3 C 74 %
298 05-03-2021 01:30:17 9.3 C 74 %
299 05-03-2021 01:40:17 9.3 C 74 %
300 05-03-2021 01:50:18 9.2 C 74 %
Sensor: Nr:Datum:Temp:Feuchte:
G-T/H 301 05-03-2021 02:00:17 9.2 C 74 %
302 05-03-2021 02:10:17 9.2 C 74 %
303 05-03-2021 02:20:18 9.2 C 74 %
304 05-03-2021 02:30:17 9.2 C 74 %
305 05-03-2021 02:40:17 9.2 C 74 %
306 05-03-2021 02:50:17 9.2 C 74 %
307 05-03-2021 03:00:17 9.2 C 74 %
308 05-03-2021 03:10:17 9.2 C 74 %
309 05-03-2021 03:20:17 9.2 C 74 %
310 05-03-2021 03:30:17 9.2 C 74 %
311 05-03-2021 03:40:17 9.2 C 74 %
312 05-03-2021 03:50:18 9.2 C 74 %
313 05-03-2021 04:00:17 9.1 C 74 %
314 05-03-2021 04:10:17 9.1 C 74 %
315 05-03-2021 04:20:17 9.1 C 74 %
316 05-03-2021 04:30:18 9.1 C 74 %
317 05-03-2021 04:40:18 9.1 C 74 %
318 05-03-2021 04:50:18 9.1 C 74 %
319 05-03-2021 05:00:18 9.1 C 74 %
320 05-03-2021 05:10:18 9.1 C 74 %
321 05-03-2021 05:20:18 9.1 C 74 %
322 05-03-2021 05:30:17 9.1 C 74 %
323 05-03-2021 05:40:17 9 C 74 %
324 05-03-2021 05:50:17 9.1 C 74 %
325 05-03-2021 06:00:17 9 C 74 %
Sensor: Nr:Datum:Temp:Feuchte:
G-T/H 326 05-03-2021 06:10:17 9 C 74 %
327 05-03-2021 06:20:17 9 C 74 %
328 05-03-2021 06:30:17 9 C 74 %
329 05-03-2021 06:40:17 9 C 74 %
330 05-03-2021 06:50:17 9 C 74 %
331 05-03-2021 07:00:17 9 C 74 %
332 05-03-2021 07:10:17 9 C 74 %
333 05-03-2021 07:20:18 9 C 73 %
334 05-03-2021 07:30:17 8.9 C 74 %
335 05-03-2021 07:40:17 8.9 C 74 %
336 05-03-2021 07:50:18 8.9 C 74 %
337 05-03-2021 08:00:17 8.9 C 74 %
338 05-03-2021 08:10:17 8.9 C 74 %
339 05-03-2021 08:20:17 8.9 C 74 %
340 05-03-2021 08:30:18 8.9 C 74 %
341 05-03-2021 08:40:18 8.9 C 74 %
342 05-03-2021 08:50:17 8.9 C 74 %
343 05-03-2021 09:00:17 8.9 C 74 %
344 05-03-2021 09:10:17 8.9 C 74 %
345 05-03-2021 09:20:17 8.9 C 74 %
346 05-03-2021 09:30:17 8.9 C 74 %
347 05-03-2021 09:40:17 8.9 C 74 %
348 05-03-2021 09:50:17 8.9 C 74 %
349 05-03-2021 10:00:17 8.9 C 74 %
350 05-03-2021 10:10:17 8.9 C 74 %
Sensor: Nr:Datum:Temp:Feuchte:
G-T/H 351 05-03-2021 10:20:18 8.8 C 74 %
352 05-03-2021 10:30:17 8.8 C 74 %
353 05-03-2021 10:40:17 8.8 C 74 %
354 05-03-2021 10:50:17 8.8 C 74 %
355 05-03-2021 11:00:17 8.8 C 74 %
356 05-03-2021 11:10:17 8.8 C 74 %
357 05-03-2021 11:20:17 8.8 C 74 %
358 05-03-2021 11:30:18 8.8 C 74 %
359 05-03-2021 11:40:18 8.9 C 74 %
360 05-03-2021 11:50:18 8.8 C 74 %
361 05-03-2021 12:00:17 8.8 C 74 %
362 05-03-2021 12:10:17 8.8 C 74 %
363 05-03-2021 12:20:18 8.8 C 74 %
364 05-03-2021 12:30:17 8.8 C 74 %
365 05-03-2021 12:40:17 8.8 C 74 %
366 05-03-2021 12:50:17 8.9 C 74 %
367 05-03-2021 13:00:18 8.8 C 74 %
368 05-03-2021 13:10:18 8.8 C 74 %
369 05-03-2021 13:20:18 8.8 C 74 %
370 05-03-2021 13:30:17 8.9 C 74 %
371 05-03-2021 13:40:17 8.8 C 74 %
372 05-03-2021 13:50:18 8.8 C 74 %
373 05-03-2021 14:00:18 8.8 C 74 %
374 05-03-2021 14:10:18 8.8 C 74 %
375 05-03-2021 14:20:18 8.8 C 74 %
Sensor: Nr:Datum:Temp:Feuchte:
G-T/H 376 05-03-2021 14:30:17 8.8 C 73 %
377 05-03-2021 14:40:17 8.8 C 73 %
378 05-03-2021 14:50:18 8.8 C 73 %
379 05-03-2021 15:00:17 8.8 C 73 %
380 05-03-2021 15:10:18 8.8 C 73 %
381 05-03-2021 15:20:17 8.8 C 73 %
382 05-03-2021 15:30:18 8.8 C 73 %
383 05-03-2021 15:40:18 8.8 C 73 %
384 05-03-2021 15:50:17 8.8 C 73 %
385 05-03-2021 16:00:18 8.9 C 73 %
386 05-03-2021 16:10:18 8.8 C 72 %
387 05-03-2021 16:20:17 8.9 C 72 %
388 05-03-2021 16:30:17 8.8 C 72 %
389 05-03-2021 16:40:17 8.9 C 72 %
390 05-03-2021 16:50:17 8.8 C 72 %
391 05-03-2021 17:00:17 8.9 C 72 %
392 05-03-2021 17:10:17 8.9 C 72 %
393 05-03-2021 17:20:17 8.9 C 72 %
394 05-03-2021 17:30:17 8.9 C 72 %
395 05-03-2021 17:40:17 8.9 C 72 %
396 05-03-2021 17:50:18 8.9 C 72 %
397 05-03-2021 18:00:17 8.9 C 72 %
398 05-03-2021 18:10:17 8.9 C 72 %
399 05-03-2021 18:20:18 8.9 C 72 %
400 05-03-2021 18:30:17 8.9 C 72 %
Sensor: Nr:Datum:Temp:Feuchte:
G-T/H 401 05-03-2021 18:40:17 8.9 C 72 %
402 05-03-2021 18:50:17 8.9 C 72 %
403 05-03-2021 19:00:17 8.9 C 72 %
404 05-03-2021 19:10:17 8.9 C 72 %
405 05-03-2021 19:20:18 8.9 C 72 %
406 05-03-2021 19:30:18 8.9 C 72 %
407 05-03-2021 19:40:18 8.9 C 72 %
408 05-03-2021 19:50:18 8.8 C 72 %
409 05-03-2021 20:00:17 8.9 C 72 %
410 05-03-2021 20:10:18 8.8 C 72 %
411 05-03-2021 20:20:17 8.8 C 72 %
412 05-03-2021 20:30:17 8.8 C 72 %
413 05-03-2021 20:40:17 8.8 C 72 %
414 05-03-2021 20:50:17 8.8 C 72 %
415 05-03-2021 21:00:18 8.8 C 72 %
416 05-03-2021 21:10:18 8.8 C 72 %
417 05-03-2021 21:20:17 8.8 C 72 %
418 05-03-2021 21:30:18 8.8 C 72 %
419 05-03-2021 21:40:18 8.7 C 72 %
420 05-03-2021 21:50:18 8.7 C 72 %
421 05-03-2021 22:00:18 8.7 C 72 %
422 05-03-2021 22:10:18 8.7 C 72 %
423 05-03-2021 22:20:17 8.7 C 72 %
424 05-03-2021 22:30:18 8.7 C 72 %
425 05-03-2021 22:40:18 8.7 C 72 %
Sensor: Nr:Datum:Temp:Feuchte:
G-T/H 426 05-03-2021 22:50:18 8.7 C 72 %
427 05-03-2021 23:00:17 8.7 C 72 %
428 05-03-2021 23:10:17 8.6 C 72 %
429 05-03-2021 23:20:18 8.6 C 72 %
430 05-03-2021 23:30:17 8.6 C 72 %
431 05-03-2021 23:40:17 8.6 C 72 %
432 05-03-2021 23:50:18 8.5 C 71 %
433 06-03-2021 00:00:18 8.5 C 71 %
434 06-03-2021 00:10:18 8.5 C 71 %
435 06-03-2021 00:20:17 8.5 C 71 %
436 06-03-2021 00:30:18 8.5 C 71 %
437 06-03-2021 00:40:18 8.4 C 71 %
438 06-03-2021 00:50:18 8.5 C 71 %
439 06-03-2021 01:00:18 8.4 C 71 %
440 06-03-2021 01:10:18 8.4 C 71 %
441 06-03-2021 01:20:17 8.4 C 71 %
442 06-03-2021 01:30:17 8.4 C 71 %
443 06-03-2021 01:40:17 8.3 C 71 %
444 06-03-2021 01:50:17 8.3 C 71 %
445 06-03-2021 02:00:18 8.3 C 71 %
446 06-03-2021 02:10:18 8.3 C 71 %
447 06-03-2021 02:20:17 8.3 C 71 %
448 06-03-2021 02:30:17 8.2 C 71 %
449 06-03-2021 02:40:17 8.2 C 70 %
450 06-03-2021 02:50:17 8.2 C 70 %
Sensor: Nr:Datum:Temp:Feuchte:
G-T/H 451 06-03-2021 03:00:17 8.1 C 70 %
452 06-03-2021 03:10:17 8.2 C 70 %
453 06-03-2021 03:20:17 8.1 C 70 %
454 06-03-2021 03:30:17 8.1 C 70 %
455 06-03-2021 03:40:17 8 C 70 %
456 06-03-2021 03:50:17 8.1 C 70 %
457 06-03-2021 04:00:18 8 C 70 %
458 06-03-2021 04:10:18 8 C 70 %
459 06-03-2021 04:20:17 8 C 70 %
460 06-03-2021 04:30:17 8 C 70 %
461 06-03-2021 04:40:17 8 C 70 %
462 06-03-2021 04:50:17 8 C 70 %
463 06-03-2021 05:00:17 7.9 C 71 %
464 06-03-2021 05:10:17 7.8 C 71 %
465 06-03-2021 05:20:17 7.9 C 70 %
466 06-03-2021 05:30:17 7.9 C 70 %
467 06-03-2021 05:40:17 7.9 C 70 %
468 06-03-2021 05:50:17 7.8 C 70 %
469 06-03-2021 06:00:17 7.8 C 70 %
470 06-03-2021 06:10:17 7.8 C 70 %
471 06-03-2021 06:20:17 7.8 C 70 %
472 06-03-2021 06:30:17 7.7 C 70 %
473 06-03-2021 06:40:17 7.7 C 70 %
474 06-03-2021 06:50:17 7.7 C 70 %
475 06-03-2021 07:00:18 7.7 C 70 %
Sensor: Nr:Datum:Temp:Feuchte:
G-T/H 476 06-03-2021 07:10:18 7.7 C 70 %
477 06-03-2021 07:20:17 7.6 C 70 %
478 06-03-2021 07:30:17 7.6 C 70 %
479 06-03-2021 07:40:17 7.6 C 70 %
480 06-03-2021 07:50:17 7.6 C 70 %
481 06-03-2021 08:00:18 7.6 C 70 %
482 06-03-2021 08:10:18 7.6 C 70 %
483 06-03-2021 08:20:17 7.5 C 70 %
484 06-03-2021 08:30:17 7.5 C 70 %
485 06-03-2021 08:40:17 7.5 C 70 %
486 06-03-2021 08:50:18 7.5 C 70 %
487 06-03-2021 09:00:18 7.5 C 70 %
488 06-03-2021 09:10:18 7.4 C 70 %
489 06-03-2021 09:20:17 7.4 C 70 %
490 06-03-2021 09:30:17 7.4 C 70 %
491 06-03-2021 09:40:17 7.4 C 70 %
492 06-03-2021 09:50:17 7.4 C 70 %
493 06-03-2021 10:00:17 7.4 C 70 %
494 06-03-2021 10:10:17 7.3 C 70 %
495 06-03-2021 10:20:17 7.4 C 70 %
496 06-03-2021 10:30:17 7.3 C 70 %
497 06-03-2021 10:40:17 7.3 C 70 %
498 06-03-2021 10:50:18 7.3 C 70 %
499 06-03-2021 11:00:18 7.3 C 70 %
500 06-03-2021 11:10:18 7.3 C 70 %
Sensor: Nr:Datum:Temp:Feuchte:
G-T/H 501 06-03-2021 11:20:17 7.3 C 70 %
502 06-03-2021 11:30:17 7.3 C 70 %
503 06-03-2021 11:40:17 7.3 C 70 %
504 06-03-2021 11:50:18 7.3 C 69 %
505 06-03-2021 12:00:17 7.3 C 69 %
506 06-03-2021 12:10:17 7.3 C 70 %
507 06-03-2021 12:20:17 7.3 C 70 %
508 06-03-2021 12:30:17 7.3 C 70 %
509 06-03-2021 12:40:17 7.3 C 70 %
510 06-03-202